<?xml version="1.0" encoding="UTF-8" standalone="no" ?>
<gpx xmlns="http://www.topografix.com/GPX/1/1" xmlns:xsi="http://www.w3.org/2001/XMLSchema-instance" xsi:schemaLocation="http://www.topografix.com/GPX/1/1 http://www.topografix.com/GPX/1/1/gpx.xsd" version="1.1" creator="VisuGPX - https://www.visugpx.com">
  <metadata>
    <name>Boucle autour du château de Chavaniac-Lafayette (Haut Allier - Haute Loire)</name>
    <desc><![CDATA[Boucle autour du château de Chavaniac-Lafayette (Haut Allier - Haute Loire) [18 août 2020]]]></desc>
  </metadata>
  <trk>
    <name><![CDATA[Boucle autour du château de Chavaniac-Lafayette]]></name>
    <trkseg>
      <trkpt lat="45.15931" lon="3.57935">
        <ele>703.791</ele>
        <time>2020-08-18T08:15:40Z</time>
      </trkpt>
      <trkpt lat="45.15933" lon="3.57938">
        <ele>703.966</ele>
        <time>2020-08-18T08:15:43Z</time>
      </trkpt>
      <trkpt lat="45.15965" lon="3.57962">
        <ele>706.035</ele>
        <time>2020-08-18T08:16:11Z</time>
      </trkpt>
      <trkpt lat="45.15982" lon="3.57975">
        <ele>706.37</ele>
        <time>2020-08-18T08:16:25Z</time>
      </trkpt>
      <trkpt lat="45.15987" lon="3.57979">
        <ele>706.305</ele>
        <time>2020-08-18T08:16:30Z</time>
      </trkpt>
      <trkpt lat="45.16005" lon="3.5799">
        <ele>705.962</ele>
        <time>2020-08-18T08:16:45Z</time>
      </trkpt>
      <trkpt lat="45.16019" lon="3.57996">
        <ele>705.712</ele>
        <time>2020-08-18T08:16:57Z</time>
      </trkpt>
      <trkpt lat="45.16024" lon="3.57999">
        <ele>706.499</ele>
        <time>2020-08-18T08:17:03Z</time>
      </trkpt>
      <trkpt lat="45.16037" lon="3.58004">
        <ele>706.044</ele>
        <time>2020-08-18T08:17:15Z</time>
      </trkpt>
      <trkpt lat="45.1604" lon="3.58005">
        <ele>706.065</ele>
        <time>2020-08-18T08:17:17Z</time>
      </trkpt>
      <trkpt lat="45.16043" lon="3.58006">
        <ele>705.881</ele>
        <time>2020-08-18T08:17:20Z</time>
      </trkpt>
      <trkpt lat="45.16056" lon="3.58005">
        <ele>706.17</ele>
        <time>2020-08-18T08:17:32Z</time>
      </trkpt>
      <trkpt lat="45.1606" lon="3.58005">
        <ele>706.169</ele>
        <time>2020-08-18T08:17:35Z</time>
      </trkpt>
      <trkpt lat="45.16066" lon="3.58006">
        <ele>706.214</ele>
        <time>2020-08-18T08:17:37Z</time>
      </trkpt>
      <trkpt lat="45.16069" lon="3.58007">
        <ele>706.144</ele>
        <time>2020-08-18T08:17:39Z</time>
      </trkpt>
      <trkpt lat="45.16116" lon="3.58011">
        <ele>706.706</ele>
        <time>2020-08-18T08:18:19Z</time>
      </trkpt>
      <trkpt lat="45.1612" lon="3.5801">
        <ele>706.736</ele>
        <time>2020-08-18T08:18:22Z</time>
      </trkpt>
      <trkpt lat="45.16143" lon="3.58006">
        <ele>708.167</ele>
        <time>2020-08-18T08:18:40Z</time>
      </trkpt>
      <trkpt lat="45.16148" lon="3.58004">
        <ele>707.606</ele>
        <time>2020-08-18T08:18:44Z</time>
      </trkpt>
      <trkpt lat="45.16188" lon="3.58002">
        <ele>708.16</ele>
        <time>2020-08-18T08:19:16Z</time>
      </trkpt>
      <trkpt lat="45.16201" lon="3.57996">
        <ele>709.536</ele>
        <time>2020-08-18T08:19:28Z</time>
      </trkpt>
      <trkpt lat="45.16209" lon="3.5799">
        <ele>709.419</ele>
        <time>2020-08-18T08:19:35Z</time>
      </trkpt>
      <trkpt lat="45.16212" lon="3.57988">
        <ele>708.811</ele>
        <time>2020-08-18T08:19:38Z</time>
      </trkpt>
      <trkpt lat="45.16216" lon="3.57987">
        <ele>708.881</ele>
        <time>2020-08-18T08:19:41Z</time>
      </trkpt>
      <trkpt lat="45.16289" lon="3.57966">
        <ele>709.106</ele>
        <time>2020-08-18T08:20:38Z</time>
      </trkpt>
      <trkpt lat="45.16337" lon="3.57977">
        <ele>708.373</ele>
        <time>2020-08-18T08:21:16Z</time>
      </trkpt>
      <trkpt lat="45.16354" lon="3.57982">
        <ele>707.244</ele>
        <time>2020-08-18T08:21:29Z</time>
      </trkpt>
      <trkpt lat="45.16378" lon="3.57993">
        <ele>705.312</ele>
        <time>2020-08-18T08:21:48Z</time>
      </trkpt>
      <trkpt lat="45.16388" lon="3.57997">
        <ele>704.613</ele>
        <time>2020-08-18T08:21:56Z</time>
      </trkpt>
      <trkpt lat="45.16395" lon="3.58">
        <ele>704.403</ele>
        <time>2020-08-18T08:22:02Z</time>
      </trkpt>
      <trkpt lat="45.16459" lon="3.58039">
        <ele>703.339</ele>
        <time>2020-08-18T08:22:58Z</time>
      </trkpt>
      <trkpt lat="45.16462" lon="3.58043">
        <ele>703.279</ele>
        <time>2020-08-18T08:23:03Z</time>
      </trkpt>
      <trkpt lat="45.16465" lon="3.58044">
        <ele>703.254</ele>
        <time>2020-08-18T08:23:06Z</time>
      </trkpt>
      <trkpt lat="45.16465" lon="3.58045">
        <ele>703.165</ele>
        <time>2020-08-18T08:23:07Z</time>
      </trkpt>
      <trkpt lat="45.16466" lon="3.58047">
        <ele>702.987</ele>
        <time>2020-08-18T08:23:09Z</time>
      </trkpt>
      <trkpt lat="45.16473" lon="3.58055">
        <ele>703.544</ele>
        <time>2020-08-18T08:23:15Z</time>
      </trkpt>
      <trkpt lat="45.16476" lon="3.58058">
        <ele>703.197</ele>
        <time>2020-08-18T08:23:18Z</time>
      </trkpt>
      <trkpt lat="45.16489" lon="3.58077">
        <ele>703.443</ele>
        <time>2020-08-18T08:23:30Z</time>
      </trkpt>
      <trkpt lat="45.16493" lon="3.58078">
        <ele>703.502</ele>
        <time>2020-08-18T08:23:33Z</time>
      </trkpt>
      <trkpt lat="45.16496" lon="3.58081">
        <ele>703.513</ele>
        <time>2020-08-18T08:23:35Z</time>
      </trkpt>
      <trkpt lat="45.16498" lon="3.58085">
        <ele>703.471</ele>
        <time>2020-08-18T08:23:38Z</time>
      </trkpt>
      <trkpt lat="45.16504" lon="3.58097">
        <ele>703.547</ele>
        <time>2020-08-18T08:23:46Z</time>
      </trkpt>
      <trkpt lat="45.16517" lon="3.58103">
        <ele>703.241</ele>
        <time>2020-08-18T08:23:54Z</time>
      </trkpt>
      <trkpt lat="45.16518" lon="3.58102">
        <ele>703.396</ele>
        <time>2020-08-18T08:23:55Z</time>
      </trkpt>
      <trkpt lat="45.16518" lon="3.58102">
        <ele>703.546</ele>
        <time>2020-08-18T08:23:56Z</time>
      </trkpt>
      <trkpt lat="45.16518" lon="3.58102">
        <ele>703.522</ele>
        <time>2020-08-18T08:23:57Z</time>
      </trkpt>
      <trkpt lat="45.16518" lon="3.58102">
        <ele>703.702</ele>
        <time>2020-08-18T08:23:58Z</time>
      </trkpt>
      <trkpt lat="45.16519" lon="3.58101">
        <ele>703.375</ele>
        <time>2020-08-18T08:24:01Z</time>
      </trkpt>
      <trkpt lat="45.16519" lon="3.58101">
        <ele>702.403</ele>
        <time>2020-08-18T08:24:26Z</time>
      </trkpt>
      <trkpt lat="45.16522" lon="3.58099">
        <ele>702.298</ele>
        <time>2020-08-18T08:24:27Z</time>
      </trkpt>
      <trkpt lat="45.16522" lon="3.581">
        <ele>702.314</ele>
        <time>2020-08-18T08:24:28Z</time>
      </trkpt>
      <trkpt lat="45.16525" lon="3.58104">
        <ele>704.008</ele>
        <time>2020-08-18T08:24:31Z</time>
      </trkpt>
      <trkpt lat="45.16536" lon="3.58116">
        <ele>706.111</ele>
        <time>2020-08-18T08:24:39Z</time>
      </trkpt>
      <trkpt lat="45.16553" lon="3.58126">
        <ele>707.364</ele>
        <time>2020-08-18T08:24:55Z</time>
      </trkpt>
      <trkpt lat="45.16559" lon="3.58126">
        <ele>708.556</ele>
        <time>2020-08-18T08:25:00Z</time>
      </trkpt>
      <trkpt lat="45.16579" lon="3.58118">
        <ele>709.349</ele>
        <time>2020-08-18T08:25:17Z</time>
      </trkpt>
      <trkpt lat="45.16602" lon="3.58096">
        <ele>711.37</ele>
        <time>2020-08-18T08:25:42Z</time>
      </trkpt>
      <trkpt lat="45.16604" lon="3.58093">
        <ele>710.935</ele>
        <time>2020-08-18T08:25:45Z</time>
      </trkpt>
      <trkpt lat="45.16607" lon="3.58087">
        <ele>711.159</ele>
        <time>2020-08-18T08:25:50Z</time>
      </trkpt>
      <trkpt lat="45.16616" lon="3.58084">
        <ele>711.599</ele>
        <time>2020-08-18T08:25:58Z</time>
      </trkpt>
      <trkpt lat="45.16619" lon="3.58083">
        <ele>711.907</ele>
        <time>2020-08-18T08:26:02Z</time>
      </trkpt>
      <trkpt lat="45.16636" lon="3.58083">
        <ele>713.517</ele>
        <time>2020-08-18T08:26:15Z</time>
      </trkpt>
      <trkpt lat="45.16639" lon="3.58081">
        <ele>713.777</ele>
        <time>2020-08-18T08:26:19Z</time>
      </trkpt>
      <trkpt lat="45.16642" lon="3.58081">
        <ele>714.092</ele>
        <time>2020-08-18T08:26:22Z</time>
      </trkpt>
      <trkpt lat="45.16644" lon="3.5808">
        <ele>714.164</ele>
        <time>2020-08-18T08:26:23Z</time>
      </trkpt>
      <trkpt lat="45.16652" lon="3.58074">
        <ele>714.431</ele>
        <time>2020-08-18T08:26:29Z</time>
      </trkpt>
      <trkpt lat="45.16671" lon="3.58058">
        <ele>714.995</ele>
        <time>2020-08-18T08:26:45Z</time>
      </trkpt>
      <trkpt lat="45.16673" lon="3.58055">
        <ele>715.236</ele>
        <time>2020-08-18T08:26:48Z</time>
      </trkpt>
      <trkpt lat="45.16676" lon="3.58053">
        <ele>715.482</ele>
        <time>2020-08-18T08:26:51Z</time>
      </trkpt>
      <trkpt lat="45.16679" lon="3.58048">
        <ele>715.455</ele>
        <time>2020-08-18T08:26:55Z</time>
      </trkpt>
      <trkpt lat="45.16683" lon="3.5804">
        <ele>715.045</ele>
        <time>2020-08-18T08:26:59Z</time>
      </trkpt>
      <trkpt lat="45.16686" lon="3.58036">
        <ele>715.294</ele>
        <time>2020-08-18T08:27:02Z</time>
      </trkpt>
      <trkpt lat="45.16692" lon="3.58028">
        <ele>715.099</ele>
        <time>2020-08-18T08:27:06Z</time>
      </trkpt>
      <trkpt lat="45.16694" lon="3.58028">
        <ele>715.119</ele>
        <time>2020-08-18T08:27:07Z</time>
      </trkpt>
      <trkpt lat="45.16698" lon="3.58026">
        <ele>715.318</ele>
        <time>2020-08-18T08:27:10Z</time>
      </trkpt>
      <trkpt lat="45.16702" lon="3.58024">
        <ele>715.343</ele>
        <time>2020-08-18T08:27:12Z</time>
      </trkpt>
      <trkpt lat="45.16718" lon="3.58001">
        <ele>716.126</ele>
        <time>2020-08-18T08:27:24Z</time>
      </trkpt>
      <trkpt lat="45.16726" lon="3.57987">
        <ele>715.262</ele>
        <time>2020-08-18T08:27:36Z</time>
      </trkpt>
      <trkpt lat="45.16729" lon="3.57985">
        <ele>715.585</ele>
        <time>2020-08-18T08:27:39Z</time>
      </trkpt>
      <trkpt lat="45.16736" lon="3.57979">
        <ele>715.773</ele>
        <time>2020-08-18T08:27:45Z</time>
      </trkpt>
      <trkpt lat="45.16761" lon="3.57952">
        <ele>714.311</ele>
        <time>2020-08-18T08:28:10Z</time>
      </trkpt>
      <trkpt lat="45.16763" lon="3.5795">
        <ele>714.808</ele>
        <time>2020-08-18T08:28:12Z</time>
      </trkpt>
      <trkpt lat="45.16776" lon="3.57934">
        <ele>715.22</ele>
        <time>2020-08-18T08:28:23Z</time>
      </trkpt>
      <trkpt lat="45.16778" lon="3.57931">
        <ele>714.755</ele>
        <time>2020-08-18T08:28:26Z</time>
      </trkpt>
      <trkpt lat="45.16781" lon="3.57928">
        <ele>714.749</ele>
        <time>2020-08-18T08:28:29Z</time>
      </trkpt>
      <trkpt lat="45.16789" lon="3.57923">
        <ele>713.978</ele>
        <time>2020-08-18T08:28:36Z</time>
      </trkpt>
      <trkpt lat="45.16792" lon="3.57922">
        <ele>713.554</ele>
        <time>2020-08-18T08:28:39Z</time>
      </trkpt>
      <trkpt lat="45.16802" lon="3.57909">
        <ele>713.319</ele>
        <time>2020-08-18T08:28:48Z</time>
      </trkpt>
      <trkpt lat="45.16808" lon="3.57905">
        <ele>713.188</ele>
        <time>2020-08-18T08:28:53Z</time>
      </trkpt>
      <trkpt lat="45.16812" lon="3.57903">
        <ele>712.929</ele>
        <time>2020-08-18T08:28:56Z</time>
      </trkpt>
      <trkpt lat="45.16816" lon="3.57902">
        <ele>712.382</ele>
        <time>2020-08-18T08:28:59Z</time>
      </trkpt>
      <trkpt lat="45.16823" lon="3.57899">
        <ele>712.544</ele>
        <time>2020-08-18T08:29:04Z</time>
      </trkpt>
      <trkpt lat="45.16834" lon="3.57898">
        <ele>712.068</ele>
        <time>2020-08-18T08:29:12Z</time>
      </trkpt>
      <trkpt lat="45.16844" lon="3.57903">
        <ele>712.259</ele>
        <time>2020-08-18T08:29:21Z</time>
      </trkpt>
      <trkpt lat="45.16849" lon="3.57908">
        <ele>712.282</ele>
        <time>2020-08-18T08:29:26Z</time>
      </trkpt>
      <trkpt lat="45.16852" lon="3.5791">
        <ele>712.337</ele>
        <time>2020-08-18T08:29:29Z</time>
      </trkpt>
      <trkpt lat="45.16855" lon="3.57914">
        <ele>712.462</ele>
        <time>2020-08-18T08:29:33Z</time>
      </trkpt>
      <trkpt lat="45.16855" lon="3.57914">
        <ele>712.47</ele>
        <time>2020-08-18T08:29:34Z</time>
      </trkpt>
      <trkpt lat="45.16857" lon="3.57915">
        <ele>712.499</ele>
        <time>2020-08-18T08:29:37Z</time>
      </trkpt>
      <trkpt lat="45.16858" lon="3.57916">
        <ele>712.436</ele>
        <time>2020-08-18T08:29:38Z</time>
      </trkpt>
      <trkpt lat="45.16864" lon="3.5792">
        <ele>712.218</ele>
        <time>2020-08-18T08:29:43Z</time>
      </trkpt>
      <trkpt lat="45.16867" lon="3.57922">
        <ele>712.02</ele>
        <time>2020-08-18T08:29:45Z</time>
      </trkpt>
      <trkpt lat="45.16874" lon="3.57925">
        <ele>711.613</ele>
        <time>2020-08-18T08:29:50Z</time>
      </trkpt>
      <trkpt lat="45.16898" lon="3.57923">
        <ele>711.511</ele>
        <time>2020-08-18T08:30:04Z</time>
      </trkpt>
      <trkpt lat="45.16921" lon="3.57914">
        <ele>710.215</ele>
        <time>2020-08-18T08:30:21Z</time>
      </trkpt>
      <trkpt lat="45.16927" lon="3.5791">
        <ele>710.057</ele>
        <time>2020-08-18T08:30:27Z</time>
      </trkpt>
      <trkpt lat="45.1693" lon="3.57909">
        <ele>709.521</ele>
        <time>2020-08-18T08:30:31Z</time>
      </trkpt>
      <trkpt lat="45.16944" lon="3.57905">
        <ele>709.234</ele>
        <time>2020-08-18T08:30:40Z</time>
      </trkpt>
      <trkpt lat="45.16973" lon="3.57884">
        <ele>706.896</ele>
        <time>2020-08-18T08:31:05Z</time>
      </trkpt>
      <trkpt lat="45.16988" lon="3.57883">
        <ele>706.406</ele>
        <time>2020-08-18T08:31:17Z</time>
      </trkpt>
      <trkpt lat="45.16989" lon="3.57883">
        <ele>706.289</ele>
        <time>2020-08-18T08:31:18Z</time>
      </trkpt>
      <trkpt lat="45.16994" lon="3.57882">
        <ele>705.624</ele>
        <time>2020-08-18T08:31:24Z</time>
      </trkpt>
      <trkpt lat="45.17" lon="3.57881">
        <ele>705.438</ele>
        <time>2020-08-18T08:31:29Z</time>
      </trkpt>
      <trkpt lat="45.17008" lon="3.57879">
        <ele>704.915</ele>
        <time>2020-08-18T08:31:37Z</time>
      </trkpt>
      <trkpt lat="45.17011" lon="3.57879">
        <ele>704.996</ele>
        <time>2020-08-18T08:31:40Z</time>
      </trkpt>
      <trkpt lat="45.17017" lon="3.5788">
        <ele>705.224</ele>
        <time>2020-08-18T08:31:45Z</time>
      </trkpt>
      <trkpt lat="45.17034" lon="3.57896">
        <ele>703.878</ele>
        <time>2020-08-18T08:32:03Z</time>
      </trkpt>
      <trkpt lat="45.17041" lon="3.579">
        <ele>703.521</ele>
        <time>2020-08-18T08:32:10Z</time>
      </trkpt>
      <trkpt lat="45.17044" lon="3.57899">
        <ele>703.69</ele>
        <time>2020-08-18T08:32:14Z</time>
      </trkpt>
      <trkpt lat="45.17047" lon="3.57897">
        <ele>703.62</ele>
        <time>2020-08-18T08:32:19Z</time>
      </trkpt>
      <trkpt lat="45.1705" lon="3.57896">
        <ele>703.517</ele>
        <time>2020-08-18T08:32:26Z</time>
      </trkpt>
      <trkpt lat="45.17053" lon="3.57896">
        <ele>703.491</ele>
        <time>2020-08-18T08:32:28Z</time>
      </trkpt>
      <trkpt lat="45.17058" lon="3.57896">
        <ele>702.866</ele>
        <time>2020-08-18T08:32:31Z</time>
      </trkpt>
      <trkpt lat="45.17061" lon="3.57894">
        <ele>703.042</ele>
        <time>2020-08-18T08:32:35Z</time>
      </trkpt>
      <trkpt lat="45.17061" lon="3.57893">
        <ele>702.947</ele>
        <time>2020-08-18T08:32:36Z</time>
      </trkpt>
      <trkpt lat="45.17065" lon="3.57893">
        <ele>703.208</ele>
        <time>2020-08-18T08:32:39Z</time>
      </trkpt>
      <trkpt lat="45.17067" lon="3.57895">
        <ele>703.109</ele>
        <time>2020-08-18T08:32:40Z</time>
      </trkpt>
      <trkpt lat="45.17072" lon="3.579">
        <ele>703.071</ele>
        <time>2020-08-18T08:32:44Z</time>
      </trkpt>
      <trkpt lat="45.17072" lon="3.579">
        <ele>703.027</ele>
        <time>2020-08-18T08:32:45Z</time>
      </trkpt>
      <trkpt lat="45.17075" lon="3.57904">
        <ele>702.935</ele>
        <time>2020-08-18T08:32:49Z</time>
      </trkpt>
      <trkpt lat="45.17079" lon="3.57907">
        <ele>703.051</ele>
        <time>2020-08-18T08:32:52Z</time>
      </trkpt>
      <trkpt lat="45.1709" lon="3.57913">
        <ele>703.972</ele>
        <time>2020-08-18T08:32:59Z</time>
      </trkpt>
      <trkpt lat="45.17095" lon="3.57917">
        <ele>704.021</ele>
        <time>2020-08-18T08:33:02Z</time>
      </trkpt>
      <trkpt lat="45.17096" lon="3.57921">
        <ele>704.261</ele>
        <time>2020-08-18T08:33:04Z</time>
      </trkpt>
      <trkpt lat="45.17098" lon="3.57926">
        <ele>704.639</ele>
        <time>2020-08-18T08:33:07Z</time>
      </trkpt>
      <trkpt lat="45.17099" lon="3.57928">
        <ele>704.872</ele>
        <time>2020-08-18T08:33:09Z</time>
      </trkpt>
      <trkpt lat="45.17099" lon="3.57928">
        <ele>704.77</ele>
        <time>2020-08-18T08:33:10Z</time>
      </trkpt>
      <trkpt lat="45.17099" lon="3.57928">
        <ele>704.77</ele>
        <time>2020-08-18T08:33:10Z</time>
      </trkpt>
      <trkpt lat="45.171" lon="3.57929">
        <ele>704.852</ele>
        <time>2020-08-18T08:33:11Z</time>
      </trkpt>
      <trkpt lat="45.17102" lon="3.57931">
        <ele>705.033</ele>
        <time>2020-08-18T08:33:14Z</time>
      </trkpt>
      <trkpt lat="45.17103" lon="3.57931">
        <ele>705.035</ele>
        <time>2020-08-18T08:33:15Z</time>
      </trkpt>
      <trkpt lat="45.17104" lon="3.57931">
        <ele>705.143</ele>
        <time>2020-08-18T08:33:16Z</time>
      </trkpt>
      <trkpt lat="45.17105" lon="3.57931">
        <ele>705.101</ele>
        <time>2020-08-18T08:33:17Z</time>
      </trkpt>
      <trkpt lat="45.17113" lon="3.57931">
        <ele>706.19</ele>
        <time>2020-08-18T08:33:23Z</time>
      </trkpt>
      <trkpt lat="45.17116" lon="3.57929">
        <ele>706.493</ele>
        <time>2020-08-18T08:33:26Z</time>
      </trkpt>
      <trkpt lat="45.17119" lon="3.57927">
        <ele>706.576</ele>
        <time>2020-08-18T08:33:30Z</time>
      </trkpt>
      <trkpt lat="45.17123" lon="3.57923">
        <ele>706.75</ele>
        <time>2020-08-18T08:33:34Z</time>
      </trkpt>
      <trkpt lat="45.17126" lon="3.5792">
        <ele>706.653</ele>
        <time>2020-08-18T08:33:38Z</time>
      </trkpt>
      <trkpt lat="45.17127" lon="3.57917">
        <ele>706.595</ele>
        <time>2020-08-18T08:33:41Z</time>
      </trkpt>
      <trkpt lat="45.17127" lon="3.57916">
        <ele>706.535</ele>
        <time>2020-08-18T08:33:42Z</time>
      </trkpt>
      <trkpt lat="45.1713" lon="3.57913">
        <ele>706.823</ele>
        <time>2020-08-18T08:33:45Z</time>
      </trkpt>
      <trkpt lat="45.1713" lon="3.57913">
        <ele>707.193</ele>
        <time>2020-08-18T08:33:46Z</time>
      </trkpt>
      <trkpt lat="45.17132" lon="3.57912">
        <ele>707.178</ele>
        <time>2020-08-18T08:33:48Z</time>
      </trkpt>
      <trkpt lat="45.17132" lon="3.57912">
        <ele>706.879</ele>
        <time>2020-08-18T08:33:50Z</time>
      </trkpt>
      <trkpt lat="45.17133" lon="3.57911">
        <ele>706.951</ele>
        <time>2020-08-18T08:33:51Z</time>
      </trkpt>
      <trkpt lat="45.17135" lon="3.57908">
        <ele>707.007</ele>
        <time>2020-08-18T08:33:53Z</time>
      </trkpt>
      <trkpt lat="45.17138" lon="3.57906">
        <ele>707.327</ele>
        <time>2020-08-18T08:33:56Z</time>
      </trkpt>
      <trkpt lat="45.17139" lon="3.57904">
        <ele>707.585</ele>
        <time>2020-08-18T08:33:58Z</time>
      </trkpt>
      <trkpt lat="45.1714" lon="3.57901">
        <ele>707.316</ele>
        <time>2020-08-18T08:34:00Z</time>
      </trkpt>
      <trkpt lat="45.17141" lon="3.579">
        <ele>707.498</ele>
        <time>2020-08-18T08:34:01Z</time>
      </trkpt>
      <trkpt lat="45.17143" lon="3.579">
        <ele>708.011</ele>
        <time>2020-08-18T08:34:03Z</time>
      </trkpt>
      <trkpt lat="45.17145" lon="3.57899">
        <ele>708.368</ele>
        <time>2020-08-18T08:34:06Z</time>
      </trkpt>
      <trkpt lat="45.17147" lon="3.57898">
        <ele>708.646</ele>
        <time>2020-08-18T08:34:08Z</time>
      </trkpt>
      <trkpt lat="45.17147" lon="3.57898">
        <ele>708.749</ele>
        <time>2020-08-18T08:34:09Z</time>
      </trkpt>
      <trkpt lat="45.17148" lon="3.57896">
        <ele>708.945</ele>
        <time>2020-08-18T08:34:11Z</time>
      </trkpt>
      <trkpt lat="45.17151" lon="3.57894">
        <ele>709.344</ele>
        <time>2020-08-18T08:34:15Z</time>
      </trkpt>
      <trkpt lat="45.17151" lon="3.57893">
        <ele>709.446</ele>
        <time>2020-08-18T08:34:16Z</time>
      </trkpt>
      <trkpt lat="45.17152" lon="3.57892">
        <ele>709.71</ele>
        <time>2020-08-18T08:34:17Z</time>
      </trkpt>
      <trkpt lat="45.17154" lon="3.57889">
        <ele>709.947</ele>
        <time>2020-08-18T08:34:19Z</time>
      </trkpt>
      <trkpt lat="45.17156" lon="3.57885">
        <ele>709.523</ele>
        <time>2020-08-18T08:34:22Z</time>
      </trkpt>
      <trkpt lat="45.17159" lon="3.57882">
        <ele>709.468</ele>
        <time>2020-08-18T08:34:26Z</time>
      </trkpt>
      <trkpt lat="45.1716" lon="3.57881">
        <ele>709.967</ele>
        <time>2020-08-18T08:34:27Z</time>
      </trkpt>
      <trkpt lat="45.17166" lon="3.57865">
        <ele>712.018</ele>
        <time>2020-08-18T08:34:39Z</time>
      </trkpt>
      <trkpt lat="45.17167" lon="3.57856">
        <ele>712.586</ele>
        <time>2020-08-18T08:34:46Z</time>
      </trkpt>
      <trkpt lat="45.17168" lon="3.57854">
        <ele>712.34</ele>
        <time>2020-08-18T08:34:47Z</time>
      </trkpt>
      <trkpt lat="45.17169" lon="3.57846">
        <ele>712.1</ele>
        <time>2020-08-18T08:34:51Z</time>
      </trkpt>
      <trkpt lat="45.17169" lon="3.57842">
        <ele>712.027</ele>
        <time>2020-08-18T08:34:53Z</time>
      </trkpt>
      <trkpt lat="45.1717" lon="3.5784">
        <ele>712.233</ele>
        <time>2020-08-18T08:34:55Z</time>
      </trkpt>
      <trkpt lat="45.1717" lon="3.57839">
        <ele>712.18</ele>
        <time>2020-08-18T08:34:56Z</time>
      </trkpt>
      <trkpt lat="45.17171" lon="3.57837">
        <ele>712.638</ele>
        <time>2020-08-18T08:34:57Z</time>
      </trkpt>
      <trkpt lat="45.17173" lon="3.57832">
        <ele>712.238</ele>
        <time>2020-08-18T08:35:02Z</time>
      </trkpt>
      <trkpt lat="45.17172" lon="3.57828">
        <ele>712.802</ele>
        <time>2020-08-18T08:35:06Z</time>
      </trkpt>
      <trkpt lat="45.17172" lon="3.57825">
        <ele>712.883</ele>
        <time>2020-08-18T08:35:07Z</time>
      </trkpt>
      <trkpt lat="45.17171" lon="3.57823">
        <ele>712.844</ele>
        <time>2020-08-18T08:35:08Z</time>
      </trkpt>
      <trkpt lat="45.1717" lon="3.57818">
        <ele>711.956</ele>
        <time>2020-08-18T08:35:11Z</time>
      </trkpt>
      <trkpt lat="45.1717" lon="3.57816">
        <ele>711.884</ele>
        <time>2020-08-18T08:35:12Z</time>
      </trkpt>
      <trkpt lat="45.17169" lon="3.57811">
        <ele>711.581</ele>
        <time>2020-08-18T08:35:15Z</time>
      </trkpt>
      <trkpt lat="45.17167" lon="3.57806">
        <ele>710.863</ele>
        <time>2020-08-18T08:35:19Z</time>
      </trkpt>
      <trkpt lat="45.17167" lon="3.57804">
        <ele>710.817</ele>
        <time>2020-08-18T08:35:21Z</time>
      </trkpt>
      <trkpt lat="45.17166" lon="3.57798">
        <ele>710.431</ele>
        <time>2020-08-18T08:35:26Z</time>
      </trkpt>
      <trkpt lat="45.17167" lon="3.57796">
        <ele>710.412</ele>
        <time>2020-08-18T08:35:28Z</time>
      </trkpt>
      <trkpt lat="45.17168" lon="3.57794">
        <ele>710.458</ele>
        <time>2020-08-18T08:35:31Z</time>
      </trkpt>
      <trkpt lat="45.17169" lon="3.57789">
        <ele>711.037</ele>
        <time>2020-08-18T08:35:34Z</time>
      </trkpt>
      <trkpt lat="45.17169" lon="3.57785">
        <ele>711.235</ele>
        <time>2020-08-18T08:35:37Z</time>
      </trkpt>
      <trkpt lat="45.17169" lon="3.5778">
        <ele>711.239</ele>
        <time>2020-08-18T08:35:40Z</time>
      </trkpt>
      <trkpt lat="45.17169" lon="3.57776">
        <ele>711.415</ele>
        <time>2020-08-18T08:35:42Z</time>
      </trkpt>
      <trkpt lat="45.17169" lon="3.5777">
        <ele>710.713</ele>
        <time>2020-08-18T08:35:45Z</time>
      </trkpt>
      <trkpt lat="45.17168" lon="3.57762">
        <ele>710.221</ele>
        <time>2020-08-18T08:35:49Z</time>
      </trkpt>
      <trkpt lat="45.17166" lon="3.5774">
        <ele>708.759</ele>
        <time>2020-08-18T08:36:01Z</time>
      </trkpt>
      <trkpt lat="45.17166" lon="3.57737">
        <ele>709.108</ele>
        <time>2020-08-18T08:36:03Z</time>
      </trkpt>
      <trkpt lat="45.17165" lon="3.57724">
        <ele>709.631</ele>
        <time>2020-08-18T08:36:11Z</time>
      </trkpt>
      <trkpt lat="45.17164" lon="3.57713">
        <ele>709.864</ele>
        <time>2020-08-18T08:36:16Z</time>
      </trkpt>
      <trkpt lat="45.17166" lon="3.57708">
        <ele>710.249</ele>
        <time>2020-08-18T08:36:19Z</time>
      </trkpt>
      <trkpt lat="45.17169" lon="3.57701">
        <ele>710.512</ele>
        <time>2020-08-18T08:36:24Z</time>
      </trkpt>
      <trkpt lat="45.1717" lon="3.57696">
        <ele>710.318</ele>
        <time>2020-08-18T08:36:27Z</time>
      </trkpt>
      <trkpt lat="45.17173" lon="3.57684">
        <ele>709.833</ele>
        <time>2020-08-18T08:36:36Z</time>
      </trkpt>
      <trkpt lat="45.17176" lon="3.57678">
        <ele>709.867</ele>
        <time>2020-08-18T08:36:42Z</time>
      </trkpt>
      <trkpt lat="45.17178" lon="3.57675">
        <ele>709.578</ele>
        <time>2020-08-18T08:36:45Z</time>
      </trkpt>
      <trkpt lat="45.1718" lon="3.57671">
        <ele>709.898</ele>
        <time>2020-08-18T08:36:48Z</time>
      </trkpt>
      <trkpt lat="45.17185" lon="3.57663">
        <ele>709.719</ele>
        <time>2020-08-18T08:36:54Z</time>
      </trkpt>
      <trkpt lat="45.17191" lon="3.57653">
        <ele>709.229</ele>
        <time>2020-08-18T08:37:03Z</time>
      </trkpt>
      <trkpt lat="45.17192" lon="3.5765">
        <ele>709.461</ele>
        <time>2020-08-18T08:37:05Z</time>
      </trkpt>
      <trkpt lat="45.17194" lon="3.57647">
        <ele>709.175</ele>
        <time>2020-08-18T08:37:08Z</time>
      </trkpt>
      <trkpt lat="45.17196" lon="3.57642">
        <ele>709.067</ele>
        <time>2020-08-18T08:37:14Z</time>
      </trkpt>
      <trkpt lat="45.17196" lon="3.57631">
        <ele>708.948</ele>
        <time>2020-08-18T08:37:19Z</time>
      </trkpt>
      <trkpt lat="45.17201" lon="3.57619">
        <ele>708.747</ele>
        <time>2020-08-18T08:37:27Z</time>
      </trkpt>
      <trkpt lat="45.17203" lon="3.57616">
        <ele>708.064</ele>
        <time>2020-08-18T08:37:31Z</time>
      </trkpt>
      <trkpt lat="45.17204" lon="3.57612">
        <ele>708.054</ele>
        <time>2020-08-18T08:37:34Z</time>
      </trkpt>
      <trkpt lat="45.17204" lon="3.57612">
        <ele>708.328</ele>
        <time>2020-08-18T08:37:35Z</time>
      </trkpt>
      <trkpt lat="45.17205" lon="3.57611">
        <ele>708.139</ele>
        <time>2020-08-18T08:37:36Z</time>
      </trkpt>
      <trkpt lat="45.17205" lon="3.57607">
        <ele>707.947</ele>
        <time>2020-08-18T08:37:40Z</time>
      </trkpt>
      <trkpt lat="45.17205" lon="3.57605">
        <ele>707.889</ele>
        <time>2020-08-18T08:37:41Z</time>
      </trkpt>
      <trkpt lat="45.17206" lon="3.57599">
        <ele>708.182</ele>
        <time>2020-08-18T08:37:45Z</time>
      </trkpt>
      <trkpt lat="45.17207" lon="3.57584">
        <ele>708.499</ele>
        <time>2020-08-18T08:37:54Z</time>
      </trkpt>
      <trkpt lat="45.17208" lon="3.57583">
        <ele>708.724</ele>
        <time>2020-08-18T08:37:55Z</time>
      </trkpt>
      <trkpt lat="45.17208" lon="3.57582">
        <ele>708.846</ele>
        <time>2020-08-18T08:37:56Z</time>
      </trkpt>
      <trkpt lat="45.17209" lon="3.57577">
        <ele>709.022</ele>
        <time>2020-08-18T08:37:59Z</time>
      </trkpt>
      <trkpt lat="45.1721" lon="3.57571">
        <ele>709.374</ele>
        <time>2020-08-18T08:38:02Z</time>
      </trkpt>
      <trkpt lat="45.1721" lon="3.57565">
        <ele>710.135</ele>
        <time>2020-08-18T08:38:06Z</time>
      </trkpt>
      <trkpt lat="45.1721" lon="3.57564">
        <ele>710.001</ele>
        <time>2020-08-18T08:38:07Z</time>
      </trkpt>
      <trkpt lat="45.1721" lon="3.57561">
        <ele>709.837</ele>
        <time>2020-08-18T08:38:09Z</time>
      </trkpt>
      <trkpt lat="45.17213" lon="3.57539">
        <ele>709.607</ele>
        <time>2020-08-18T08:38:22Z</time>
      </trkpt>
      <trkpt lat="45.17218" lon="3.57527">
        <ele>709.75</ele>
        <time>2020-08-18T08:38:30Z</time>
      </trkpt>
      <trkpt lat="45.17219" lon="3.57519">
        <ele>709.584</ele>
        <time>2020-08-18T08:38:34Z</time>
      </trkpt>
      <trkpt lat="45.1722" lon="3.57514">
        <ele>709.337</ele>
        <time>2020-08-18T08:38:38Z</time>
      </trkpt>
      <trkpt lat="45.17221" lon="3.57511">
        <ele>709.563</ele>
        <time>2020-08-18T08:38:41Z</time>
      </trkpt>
      <trkpt lat="45.17222" lon="3.5751">
        <ele>709.5</ele>
        <time>2020-08-18T08:38:43Z</time>
      </trkpt>
      <trkpt lat="45.17223" lon="3.57508">
        <ele>709.495</ele>
        <time>2020-08-18T08:38:45Z</time>
      </trkpt>
      <trkpt lat="45.17225" lon="3.57505">
        <ele>709.37</ele>
        <time>2020-08-18T08:38:48Z</time>
      </trkpt>
      <trkpt lat="45.17226" lon="3.575">
        <ele>709.596</ele>
        <time>2020-08-18T08:38:51Z</time>
      </trkpt>
      <trkpt lat="45.17225" lon="3.57499">
        <ele>709.677</ele>
        <time>2020-08-18T08:38:52Z</time>
      </trkpt>
      <trkpt lat="45.17226" lon="3.57494">
        <ele>709.567</ele>
        <time>2020-08-18T08:38:55Z</time>
      </trkpt>
      <trkpt lat="45.17226" lon="3.5749">
        <ele>709.35</ele>
        <time>2020-08-18T08:38:57Z</time>
      </trkpt>
      <trkpt lat="45.17227" lon="3.57486">
        <ele>709.548</ele>
        <time>2020-08-18T08:39:01Z</time>
      </trkpt>
      <trkpt lat="45.17227" lon="3.57481">
        <ele>709.118</ele>
        <time>2020-08-18T08:39:04Z</time>
      </trkpt>
      <trkpt lat="45.17227" lon="3.57466">
        <ele>708.203</ele>
        <time>2020-08-18T08:39:11Z</time>
      </trkpt>
      <trkpt lat="45.1723" lon="3.57456">
        <ele>707.774</ele>
        <time>2020-08-18T08:39:16Z</time>
      </trkpt>
      <trkpt lat="45.17232" lon="3.57454">
        <ele>707.775</ele>
        <time>2020-08-18T08:39:18Z</time>
      </trkpt>
      <trkpt lat="45.17232" lon="3.5745">
        <ele>707.344</ele>
        <time>2020-08-18T08:39:20Z</time>
      </trkpt>
      <trkpt lat="45.17233" lon="3.57443">
        <ele>707.45</ele>
        <time>2020-08-18T08:39:23Z</time>
      </trkpt>
      <trkpt lat="45.17238" lon="3.57413">
        <ele>706.864</ele>
        <time>2020-08-18T08:39:38Z</time>
      </trkpt>
      <trkpt lat="45.17242" lon="3.57396">
        <ele>706.008</ele>
        <time>2020-08-18T08:39:47Z</time>
      </trkpt>
      <trkpt lat="45.17243" lon="3.57392">
        <ele>705.954</ele>
        <time>2020-08-18T08:39:49Z</time>
      </trkpt>
      <trkpt lat="45.17246" lon="3.57386">
        <ele>705.901</ele>
        <time>2020-08-18T08:39:54Z</time>
      </trkpt>
      <trkpt lat="45.17246" lon="3.57385">
        <ele>705.912</ele>
        <time>2020-08-18T08:39:55Z</time>
      </trkpt>
      <trkpt lat="45.17246" lon="3.57381">
        <ele>705.037</ele>
        <time>2020-08-18T08:39:59Z</time>
      </trkpt>
      <trkpt lat="45.17246" lon="3.57373">
        <ele>703.967</ele>
        <time>2020-08-18T08:40:05Z</time>
      </trkpt>
      <trkpt lat="45.17248" lon="3.57367">
        <ele>703.29</ele>
        <time>2020-08-18T08:40:11Z</time>
      </trkpt>
      <trkpt lat="45.17249" lon="3.57366">
        <ele>703.122</ele>
        <time>2020-08-18T08:40:13Z</time>
      </trkpt>
      <trkpt lat="45.1725" lon="3.57365">
        <ele>702.874</ele>
        <time>2020-08-18T08:40:14Z</time>
      </trkpt>
      <trkpt lat="45.1725" lon="3.57364">
        <ele>703.08</ele>
        <time>2020-08-18T08:40:15Z</time>
      </trkpt>
      <trkpt lat="45.17252" lon="3.57357">
        <ele>703.005</ele>
        <time>2020-08-18T08:40:19Z</time>
      </trkpt>
      <trkpt lat="45.17253" lon="3.57356">
        <ele>703.033</ele>
        <time>2020-08-18T08:40:20Z</time>
      </trkpt>
      <trkpt lat="45.17256" lon="3.57349">
        <ele>702.803</ele>
        <time>2020-08-18T08:40:26Z</time>
      </trkpt>
      <trkpt lat="45.17258" lon="3.57346">
        <ele>702.49</ele>
        <time>2020-08-18T08:40:29Z</time>
      </trkpt>
      <trkpt lat="45.17259" lon="3.5734">
        <ele>701.651</ele>
        <time>2020-08-18T08:40:32Z</time>
      </trkpt>
      <trkpt lat="45.1726" lon="3.57332">
        <ele>700.763</ele>
        <time>2020-08-18T08:40:36Z</time>
      </trkpt>
      <trkpt lat="45.17262" lon="3.57327">
        <ele>700.439</ele>
        <time>2020-08-18T08:40:39Z</time>
      </trkpt>
      <trkpt lat="45.17265" lon="3.57325">
        <ele>699.672</ele>
        <time>2020-08-18T08:40:42Z</time>
      </trkpt>
      <trkpt lat="45.17265" lon="3.57323">
        <ele>699.64</ele>
        <time>2020-08-18T08:40:44Z</time>
      </trkpt>
      <trkpt lat="45.17266" lon="3.57321">
        <ele>699.422</ele>
        <time>2020-08-18T08:40:46Z</time>
      </trkpt>
      <trkpt lat="45.17267" lon="3.5732">
        <ele>699.676</ele>
        <time>2020-08-18T08:40:48Z</time>
      </trkpt>
      <trkpt lat="45.17267" lon="3.57319">
        <ele>699.835</ele>
        <time>2020-08-18T08:40:49Z</time>
      </trkpt>
      <trkpt lat="45.17267" lon="3.57318">
        <ele>699.899</ele>
        <time>2020-08-18T08:40:50Z</time>
      </trkpt>
      <trkpt lat="45.17267" lon="3.57318">
        <ele>700.061</ele>
        <time>2020-08-18T08:40:51Z</time>
      </trkpt>
      <trkpt lat="45.17267" lon="3.57318">
        <ele>700.061</ele>
        <time>2020-08-18T08:40:51Z</time>
      </trkpt>
      <trkpt lat="45.17267" lon="3.57316">
        <ele>699.956</ele>
        <time>2020-08-18T08:40:52Z</time>
      </trkpt>
      <trkpt lat="45.17267" lon="3.57315">
        <ele>699.79</ele>
        <time>2020-08-18T08:40:53Z</time>
      </trkpt>
      <trkpt lat="45.17267" lon="3.57315">
        <ele>699.89</ele>
        <time>2020-08-18T08:40:55Z</time>
      </trkpt>
      <trkpt lat="45.17266" lon="3.57316">
        <ele>699.287</ele>
        <time>2020-08-18T08:40:58Z</time>
      </trkpt>
      <trkpt lat="45.17266" lon="3.57316">
        <ele>699.381</ele>
        <time>2020-08-18T08:40:59Z</time>
      </trkpt>
      <trkpt lat="45.17266" lon="3.57314">
        <ele>699.105</ele>
        <time>2020-08-18T08:41:00Z</time>
      </trkpt>
      <trkpt lat="45.17267" lon="3.57312">
        <ele>698.814</ele>
        <time>2020-08-18T08:41:02Z</time>
      </trkpt>
      <trkpt lat="45.17268" lon="3.5731">
        <ele>698.199</ele>
        <time>2020-08-18T08:41:04Z</time>
      </trkpt>
      <trkpt lat="45.17269" lon="3.57309">
        <ele>698.064</ele>
        <time>2020-08-18T08:41:05Z</time>
      </trkpt>
      <trkpt lat="45.17269" lon="3.57308">
        <ele>696.888</ele>
        <time>2020-08-18T08:41:09Z</time>
      </trkpt>
      <trkpt lat="45.17269" lon="3.57308">
        <ele>696.888</ele>
        <time>2020-08-18T08:41:09Z</time>
      </trkpt>
      <trkpt lat="45.17268" lon="3.57308">
        <ele>697.344</ele>
        <time>2020-08-18T08:41:10Z</time>
      </trkpt>
      <trkpt lat="45.17266" lon="3.57308">
        <ele>696.634</ele>
        <time>2020-08-18T08:41:13Z</time>
      </trkpt>
      <trkpt lat="45.17266" lon="3.57308">
        <ele>696.351</ele>
        <time>2020-08-18T08:41:14Z</time>
      </trkpt>
      <trkpt lat="45.17266" lon="3.57308">
        <ele>696.351</ele>
        <time>2020-08-18T08:41:14Z</time>
      </trkpt>
      <trkpt lat="45.17267" lon="3.57308">
        <ele>696.522</ele>
        <time>2020-08-18T08:41:15Z</time>
      </trkpt>
      <trkpt lat="45.17269" lon="3.57308">
        <ele>696.095</ele>
        <time>2020-08-18T08:41:18Z</time>
      </trkpt>
      <trkpt lat="45.17272" lon="3.57305">
        <ele>695.328</ele>
        <time>2020-08-18T08:41:21Z</time>
      </trkpt>
      <trkpt lat="45.17273" lon="3.573">
        <ele>695.255</ele>
        <time>2020-08-18T08:41:26Z</time>
      </trkpt>
      <trkpt lat="45.17273" lon="3.573">
        <ele>694.849</ele>
        <time>2020-08-18T08:41:27Z</time>
      </trkpt>
      <trkpt lat="45.17273" lon="3.573">
        <ele>694.849</ele>
        <time>2020-08-18T08:41:27Z</time>
      </trkpt>
      <trkpt lat="45.17273" lon="3.57299">
        <ele>694.791</ele>
        <time>2020-08-18T08:41:28Z</time>
      </trkpt>
      <trkpt lat="45.17273" lon="3.57297">
        <ele>695.124</ele>
        <time>2020-08-18T08:41:30Z</time>
      </trkpt>
      <trkpt lat="45.17273" lon="3.57297">
        <ele>694.883</ele>
        <time>2020-08-18T08:41:31Z</time>
      </trkpt>
      <trkpt lat="45.17273" lon="3.57297">
        <ele>694.883</ele>
        <time>2020-08-18T08:41:31Z</time>
      </trkpt>
      <trkpt lat="45.17274" lon="3.57295">
        <ele>694.966</ele>
        <time>2020-08-18T08:41:32Z</time>
      </trkpt>
      <trkpt lat="45.17275" lon="3.57292">
        <ele>695.378</ele>
        <time>2020-08-18T08:41:34Z</time>
      </trkpt>
      <trkpt lat="45.17276" lon="3.57281">
        <ele>694.606</ele>
        <time>2020-08-18T08:41:39Z</time>
      </trkpt>
      <trkpt lat="45.17276" lon="3.57276">
        <ele>693.44</ele>
        <time>2020-08-18T08:41:42Z</time>
      </trkpt>
      <trkpt lat="45.17277" lon="3.57275">
        <ele>693.485</ele>
        <time>2020-08-18T08:41:43Z</time>
      </trkpt>
      <trkpt lat="45.17279" lon="3.57271">
        <ele>693.302</ele>
        <time>2020-08-18T08:41:47Z</time>
      </trkpt>
      <trkpt lat="45.1728" lon="3.57266">
        <ele>692.343</ele>
        <time>2020-08-18T08:41:50Z</time>
      </trkpt>
      <trkpt lat="45.17282" lon="3.57263">
        <ele>692.242</ele>
        <time>2020-08-18T08:41:52Z</time>
      </trkpt>
      <trkpt lat="45.17286" lon="3.57259">
        <ele>692.13</ele>
        <time>2020-08-18T08:41:54Z</time>
      </trkpt>
      <trkpt lat="45.17288" lon="3.57257">
        <ele>692.171</ele>
        <time>2020-08-18T08:41:56Z</time>
      </trkpt>
      <trkpt lat="45.1729" lon="3.57254">
        <ele>691.727</ele>
        <time>2020-08-18T08:41:59Z</time>
      </trkpt>
      <trkpt lat="45.17293" lon="3.57251">
        <ele>691.888</ele>
        <time>2020-08-18T08:42:03Z</time>
      </trkpt>
      <trkpt lat="45.17293" lon="3.57251">
        <ele>691.558</ele>
        <time>2020-08-18T08:42:04Z</time>
      </trkpt>
      <trkpt lat="45.17293" lon="3.57251">
        <ele>691.558</ele>
        <time>2020-08-18T08:42:04Z</time>
      </trkpt>
      <trkpt lat="45.17295" lon="3.57251">
        <ele>691.506</ele>
        <time>2020-08-18T08:42:05Z</time>
      </trkpt>
      <trkpt lat="45.17298" lon="3.57249">
        <ele>690.741</ele>
        <time>2020-08-18T08:42:07Z</time>
      </trkpt>
      <trkpt lat="45.17301" lon="3.57247">
        <ele>690.482</ele>
        <time>2020-08-18T08:42:10Z</time>
      </trkpt>
      <trkpt lat="45.17311" lon="3.5724">
        <ele>690.567</ele>
        <time>2020-08-18T08:42:19Z</time>
      </trkpt>
      <trkpt lat="45.17311" lon="3.5724">
        <ele>690.488</ele>
        <time>2020-08-18T08:42:20Z</time>
      </trkpt>
      <trkpt lat="45.17314" lon="3.57239">
        <ele>690.265</ele>
        <time>2020-08-18T08:42:23Z</time>
      </trkpt>
      <trkpt lat="45.17317" lon="3.57239">
        <ele>690.124</ele>
        <time>2020-08-18T08:42:26Z</time>
      </trkpt>
      <trkpt lat="45.17318" lon="3.57239">
        <ele>690.136</ele>
        <time>2020-08-18T08:42:27Z</time>
      </trkpt>
      <trkpt lat="45.17318" lon="3.57238">
        <ele>690.237</ele>
        <time>2020-08-18T08:42:28Z</time>
      </trkpt>
      <trkpt lat="45.17319" lon="3.57238">
        <ele>690.409</ele>
        <time>2020-08-18T08:42:29Z</time>
      </trkpt>
      <trkpt lat="45.17319" lon="3.57237">
        <ele>690.375</ele>
        <time>2020-08-18T08:42:30Z</time>
      </trkpt>
      <trkpt lat="45.17323" lon="3.57233">
        <ele>690.254</ele>
        <time>2020-08-18T08:42:33Z</time>
      </trkpt>
      <trkpt lat="45.17332" lon="3.57224">
        <ele>689.931</ele>
        <time>2020-08-18T08:42:39Z</time>
      </trkpt>
      <trkpt lat="45.17337" lon="3.57218">
        <ele>689.305</ele>
        <time>2020-08-18T08:42:44Z</time>
      </trkpt>
      <trkpt lat="45.1734" lon="3.57212">
        <ele>688.986</ele>
        <time>2020-08-18T08:42:49Z</time>
      </trkpt>
      <trkpt lat="45.17348" lon="3.57207">
        <ele>688.602</ele>
        <time>2020-08-18T08:42:54Z</time>
      </trkpt>
      <trkpt lat="45.17362" lon="3.57192">
        <ele>686.835</ele>
        <time>2020-08-18T08:43:04Z</time>
      </trkpt>
      <trkpt lat="45.17366" lon="3.57187">
        <ele>686.708</ele>
        <time>2020-08-18T08:43:10Z</time>
      </trkpt>
      <trkpt lat="45.1737" lon="3.57184">
        <ele>686.933</ele>
        <time>2020-08-18T08:43:14Z</time>
      </trkpt>
      <trkpt lat="45.1737" lon="3.57183">
        <ele>686.72</ele>
        <time>2020-08-18T08:43:15Z</time>
      </trkpt>
      <trkpt lat="45.17373" lon="3.57181">
        <ele>686.274</ele>
        <time>2020-08-18T08:43:18Z</time>
      </trkpt>
      <trkpt lat="45.17377" lon="3.5718">
        <ele>686.421</ele>
        <time>2020-08-18T08:43:21Z</time>
      </trkpt>
      <trkpt lat="45.17387" lon="3.57172">
        <ele>685.036</ele>
        <time>2020-08-18T08:43:31Z</time>
      </trkpt>
      <trkpt lat="45.17396" lon="3.57162">
        <ele>683.819</ele>
        <time>2020-08-18T08:43:40Z</time>
      </trkpt>
      <trkpt lat="45.17405" lon="3.5715">
        <ele>682.597</ele>
        <time>2020-08-18T08:43:50Z</time>
      </trkpt>
      <trkpt lat="45.17413" lon="3.5714">
        <ele>682.109</ele>
        <time>2020-08-18T08:43:59Z</time>
      </trkpt>
      <trkpt lat="45.17414" lon="3.57139">
        <ele>681.845</ele>
        <time>2020-08-18T08:44:00Z</time>
      </trkpt>
      <trkpt lat="45.17416" lon="3.57134">
        <ele>681.579</ele>
        <time>2020-08-18T08:44:06Z</time>
      </trkpt>
      <trkpt lat="45.17419" lon="3.57131">
        <ele>681.278</ele>
        <time>2020-08-18T08:44:10Z</time>
      </trkpt>
      <trkpt lat="45.17427" lon="3.57125">
        <ele>680.767</ele>
        <time>2020-08-18T08:44:16Z</time>
      </trkpt>
      <trkpt lat="45.17435" lon="3.57121">
        <ele>680.405</ele>
        <time>2020-08-18T08:44:24Z</time>
      </trkpt>
      <trkpt lat="45.1744" lon="3.57118">
        <ele>680.106</ele>
        <time>2020-08-18T08:44:28Z</time>
      </trkpt>
      <trkpt lat="45.17444" lon="3.57118">
        <ele>680.594</ele>
        <time>2020-08-18T08:44:31Z</time>
      </trkpt>
      <trkpt lat="45.17445" lon="3.57118">
        <ele>680.906</ele>
        <time>2020-08-18T08:44:34Z</time>
      </trkpt>
      <trkpt lat="45.17445" lon="3.57118">
        <ele>680.906</ele>
        <time>2020-08-18T08:44:34Z</time>
      </trkpt>
      <trkpt lat="45.17446" lon="3.57118">
        <ele>680.781</ele>
        <time>2020-08-18T08:44:35Z</time>
      </trkpt>
      <trkpt lat="45.17449" lon="3.57119">
        <ele>680.196</ele>
        <time>2020-08-18T08:44:38Z</time>
      </trkpt>
      <trkpt lat="45.17451" lon="3.57119">
        <ele>680.07</ele>
        <time>2020-08-18T08:44:41Z</time>
      </trkpt>
      <trkpt lat="45.17451" lon="3.57119">
        <ele>680.07</ele>
        <time>2020-08-18T08:44:41Z</time>
      </trkpt>
      <trkpt lat="45.17452" lon="3.57118">
        <ele>679.905</ele>
        <time>2020-08-18T08:44:42Z</time>
      </trkpt>
      <trkpt lat="45.17453" lon="3.57117">
        <ele>679.899</ele>
        <time>2020-08-18T08:44:44Z</time>
      </trkpt>
      <trkpt lat="45.17453" lon="3.57117">
        <ele>679.899</ele>
        <time>2020-08-18T08:44:44Z</time>
      </trkpt>
      <trkpt lat="45.17453" lon="3.57117">
        <ele>679.892</ele>
        <time>2020-08-18T08:44:45Z</time>
      </trkpt>
      <trkpt lat="45.17456" lon="3.57116">
        <ele>679.363</ele>
        <time>2020-08-18T08:44:49Z</time>
      </trkpt>
      <trkpt lat="45.17466" lon="3.5711">
        <ele>678.402</ele>
        <time>2020-08-18T08:44:58Z</time>
      </trkpt>
      <trkpt lat="45.17498" lon="3.57098">
        <ele>677.617</ele>
        <time>2020-08-18T08:45:25Z</time>
      </trkpt>
      <trkpt lat="45.17511" lon="3.57101">
        <ele>676.461</ele>
        <time>2020-08-18T08:45:34Z</time>
      </trkpt>
      <trkpt lat="45.17519" lon="3.57097">
        <ele>675.981</ele>
        <time>2020-08-18T08:45:42Z</time>
      </trkpt>
      <trkpt lat="45.1752" lon="3.57095">
        <ele>676.166</ele>
        <time>2020-08-18T08:45:44Z</time>
      </trkpt>
      <trkpt lat="45.1752" lon="3.57094">
        <ele>676.035</ele>
        <time>2020-08-18T08:45:45Z</time>
      </trkpt>
      <trkpt lat="45.17522" lon="3.57093">
        <ele>675.984</ele>
        <time>2020-08-18T08:45:48Z</time>
      </trkpt>
      <trkpt lat="45.17525" lon="3.57093">
        <ele>675.225</ele>
        <time>2020-08-18T08:45:53Z</time>
      </trkpt>
      <trkpt lat="45.17526" lon="3.57093">
        <ele>675.275</ele>
        <time>2020-08-18T08:45:54Z</time>
      </trkpt>
      <trkpt lat="45.17526" lon="3.57093">
        <ele>675.058</ele>
        <time>2020-08-18T08:45:55Z</time>
      </trkpt>
      <trkpt lat="45.17529" lon="3.57092">
        <ele>674.555</ele>
        <time>2020-08-18T08:45:58Z</time>
      </trkpt>
      <trkpt lat="45.1753" lon="3.57091">
        <ele>674.69</ele>
        <time>2020-08-18T08:46:00Z</time>
      </trkpt>
      <trkpt lat="45.17532" lon="3.57091">
        <ele>674.769</ele>
        <time>2020-08-18T08:46:02Z</time>
      </trkpt>
      <trkpt lat="45.17532" lon="3.57091">
        <ele>674.769</ele>
        <time>2020-08-18T08:46:02Z</time>
      </trkpt>
      <trkpt lat="45.17533" lon="3.57091">
        <ele>674.597</ele>
        <time>2020-08-18T08:46:03Z</time>
      </trkpt>
      <trkpt lat="45.17533" lon="3.57091">
        <ele>674.597</ele>
        <time>2020-08-18T08:46:03Z</time>
      </trkpt>
      <trkpt lat="45.17533" lon="3.57091">
        <ele>674.526</ele>
        <time>2020-08-18T08:46:04Z</time>
      </trkpt>
      <trkpt lat="45.17533" lon="3.57091">
        <ele>674.526</ele>
        <time>2020-08-18T08:46:04Z</time>
      </trkpt>
      <trkpt lat="45.17535" lon="3.57091">
        <ele>674.642</ele>
        <time>2020-08-18T08:46:05Z</time>
      </trkpt>
      <trkpt lat="45.17548" lon="3.57092">
        <ele>673.309</ele>
        <time>2020-08-18T08:46:16Z</time>
      </trkpt>
      <trkpt lat="45.1755" lon="3.57092">
        <ele>673.172</ele>
        <time>2020-08-18T08:46:17Z</time>
      </trkpt>
      <trkpt lat="45.17551" lon="3.57092">
        <ele>672.728</ele>
        <time>2020-08-18T08:46:18Z</time>
      </trkpt>
      <trkpt lat="45.17558" lon="3.57092">
        <ele>672.193</ele>
        <time>2020-08-18T08:46:23Z</time>
      </trkpt>
      <trkpt lat="45.17561" lon="3.57088">
        <ele>671.645</ele>
        <time>2020-08-18T08:46:27Z</time>
      </trkpt>
      <trkpt lat="45.17565" lon="3.57085">
        <ele>671.451</ele>
        <time>2020-08-18T08:46:31Z</time>
      </trkpt>
      <trkpt lat="45.17567" lon="3.57084">
        <ele>671.346</ele>
        <time>2020-08-18T08:46:33Z</time>
      </trkpt>
      <trkpt lat="45.17568" lon="3.57084">
        <ele>671.435</ele>
        <time>2020-08-18T08:46:34Z</time>
      </trkpt>
      <trkpt lat="45.17568" lon="3.57084">
        <ele>670.694</ele>
        <time>2020-08-18T08:46:36Z</time>
      </trkpt>
      <trkpt lat="45.17568" lon="3.57084">
        <ele>670.137</ele>
        <time>2020-08-18T08:46:38Z</time>
      </trkpt>
      <trkpt lat="45.17568" lon="3.57083">
        <ele>670.159</ele>
        <time>2020-08-18T08:46:39Z</time>
      </trkpt>
      <trkpt lat="45.17568" lon="3.57084">
        <ele>670.234</ele>
        <time>2020-08-18T08:46:40Z</time>
      </trkpt>
      <trkpt lat="45.17568" lon="3.57084">
        <ele>670.605</ele>
        <time>2020-08-18T08:46:41Z</time>
      </trkpt>
      <trkpt lat="45.17568" lon="3.57084">
        <ele>670.618</ele>
        <time>2020-08-18T08:46:42Z</time>
      </trkpt>
      <trkpt lat="45.17569" lon="3.57083">
        <ele>670.643</ele>
        <time>2020-08-18T08:46:51Z</time>
      </trkpt>
      <trkpt lat="45.17569" lon="3.57082">
        <ele>670.4</ele>
        <time>2020-08-18T08:46:52Z</time>
      </trkpt>
      <trkpt lat="45.17569" lon="3.57082">
        <ele>670.413</ele>
        <time>2020-08-18T08:46:53Z</time>
      </trkpt>
      <trkpt lat="45.17569" lon="3.57082">
        <ele>670.38</ele>
        <time>2020-08-18T08:47:02Z</time>
      </trkpt>
      <trkpt lat="45.1757" lon="3.57081">
        <ele>670.179</ele>
        <time>2020-08-18T08:47:03Z</time>
      </trkpt>
      <trkpt lat="45.17572" lon="3.5708">
        <ele>671.758</ele>
        <time>2020-08-18T08:47:07Z</time>
      </trkpt>
      <trkpt lat="45.17577" lon="3.57077">
        <ele>670.589</ele>
        <time>2020-08-18T08:47:13Z</time>
      </trkpt>
      <trkpt lat="45.1758" lon="3.57077">
        <ele>670.954</ele>
        <time>2020-08-18T08:47:15Z</time>
      </trkpt>
      <trkpt lat="45.17583" lon="3.57078">
        <ele>670.123</ele>
        <time>2020-08-18T08:47:18Z</time>
      </trkpt>
      <trkpt lat="45.17588" lon="3.57076">
        <ele>669.394</ele>
        <time>2020-08-18T08:47:22Z</time>
      </trkpt>
      <trkpt lat="45.17596" lon="3.57071">
        <ele>667.631</ele>
        <time>2020-08-18T08:47:29Z</time>
      </trkpt>
      <trkpt lat="45.17596" lon="3.5707">
        <ele>667.5</ele>
        <time>2020-08-18T08:47:30Z</time>
      </trkpt>
      <trkpt lat="45.17596" lon="3.5707">
        <ele>667.485</ele>
        <time>2020-08-18T08:47:31Z</time>
      </trkpt>
      <trkpt lat="45.17596" lon="3.5707">
        <ele>667.452</ele>
        <time>2020-08-18T08:47:34Z</time>
      </trkpt>
      <trkpt lat="45.17597" lon="3.5707">
        <ele>667.477</ele>
        <time>2020-08-18T08:47:35Z</time>
      </trkpt>
      <trkpt lat="45.17597" lon="3.57069">
        <ele>667.121</ele>
        <time>2020-08-18T08:47:37Z</time>
      </trkpt>
      <trkpt lat="45.17597" lon="3.57067">
        <ele>666.987</ele>
        <time>2020-08-18T08:47:38Z</time>
      </trkpt>
      <trkpt lat="45.17604" lon="3.57047">
        <ele>664.937</ele>
        <time>2020-08-18T08:47:52Z</time>
      </trkpt>
      <trkpt lat="45.17604" lon="3.57046">
        <ele>664.755</ele>
        <time>2020-08-18T08:47:53Z</time>
      </trkpt>
      <trkpt lat="45.17603" lon="3.57043">
        <ele>663.304</ele>
        <time>2020-08-18T08:47:59Z</time>
      </trkpt>
      <trkpt lat="45.17603" lon="3.57043">
        <ele>662.094</ele>
        <time>2020-08-18T08:49:44Z</time>
      </trkpt>
      <trkpt lat="45.17604" lon="3.57046">
        <ele>662.191</ele>
        <time>2020-08-18T08:49:45Z</time>
      </trkpt>
      <trkpt lat="45.17604" lon="3.57046">
        <ele>661.897</ele>
        <time>2020-08-18T08:49:46Z</time>
      </trkpt>
      <trkpt lat="45.17604" lon="3.57046">
        <ele>662.257</ele>
        <time>2020-08-18T08:49:48Z</time>
      </trkpt>
      <trkpt lat="45.17604" lon="3.57048">
        <ele>662.373</ele>
        <time>2020-08-18T08:49:49Z</time>
      </trkpt>
      <trkpt lat="45.17604" lon="3.57048">
        <ele>662.513</ele>
        <time>2020-08-18T08:49:50Z</time>
      </trkpt>
      <trkpt lat="45.17604" lon="3.57048">
        <ele>662.671</ele>
        <time>2020-08-18T08:49:51Z</time>
      </trkpt>
      <trkpt lat="45.17604" lon="3.57048">
        <ele>662.671</ele>
        <time>2020-08-18T08:49:51Z</time>
      </trkpt>
      <trkpt lat="45.17604" lon="3.57048">
        <ele>662.437</ele>
        <time>2020-08-18T08:49:52Z</time>
      </trkpt>
      <trkpt lat="45.17604" lon="3.57048">
        <ele>662.437</ele>
        <time>2020-08-18T08:49:52Z</time>
      </trkpt>
      <trkpt lat="45.17604" lon="3.57048">
        <ele>662.306</ele>
        <time>2020-08-18T08:49:53Z</time>
      </trkpt>
      <trkpt lat="45.17604" lon="3.57048">
        <ele>659.626</ele>
        <time>2020-08-18T08:50:39Z</time>
      </trkpt>
      <trkpt lat="45.17606" lon="3.57046">
        <ele>659.644</ele>
        <time>2020-08-18T08:50:40Z</time>
      </trkpt>
      <trkpt lat="45.17607" lon="3.57044">
        <ele>662.242</ele>
        <time>2020-08-18T08:50:43Z</time>
      </trkpt>
      <trkpt lat="45.1761" lon="3.5703">
        <ele>660.185</ele>
        <time>2020-08-18T08:50:54Z</time>
      </trkpt>
      <trkpt lat="45.17616" lon="3.57012">
        <ele>658.074</ele>
        <time>2020-08-18T08:51:08Z</time>
      </trkpt>
      <trkpt lat="45.17615" lon="3.56989">
        <ele>656.828</ele>
        <time>2020-08-18T08:51:24Z</time>
      </trkpt>
      <trkpt lat="45.17613" lon="3.56973">
        <ele>656.939</ele>
        <time>2020-08-18T08:51:35Z</time>
      </trkpt>
      <trkpt lat="45.17611" lon="3.56964">
        <ele>656.538</ele>
        <time>2020-08-18T08:51:42Z</time>
      </trkpt>
      <trkpt lat="45.17606" lon="3.56955">
        <ele>656.254</ele>
        <time>2020-08-18T08:51:50Z</time>
      </trkpt>
      <trkpt lat="45.17607" lon="3.56941">
        <ele>656.158</ele>
        <time>2020-08-18T08:52:00Z</time>
      </trkpt>
      <trkpt lat="45.17609" lon="3.56934">
        <ele>656.005</ele>
        <time>2020-08-18T08:52:05Z</time>
      </trkpt>
      <trkpt lat="45.17609" lon="3.5693">
        <ele>655.698</ele>
        <time>2020-08-18T08:52:08Z</time>
      </trkpt>
      <trkpt lat="45.17614" lon="3.56896">
        <ele>653.854</ele>
        <time>2020-08-18T08:52:29Z</time>
      </trkpt>
      <trkpt lat="45.17624" lon="3.56879">
        <ele>651.782</ele>
        <time>2020-08-18T08:52:40Z</time>
      </trkpt>
      <trkpt lat="45.17656" lon="3.56822">
        <ele>650.063</ele>
        <time>2020-08-18T08:53:21Z</time>
      </trkpt>
      <trkpt lat="45.17658" lon="3.56811">
        <ele>649.804</ele>
        <time>2020-08-18T08:53:29Z</time>
      </trkpt>
      <trkpt lat="45.17664" lon="3.56787">
        <ele>649.999</ele>
        <time>2020-08-18T08:53:40Z</time>
      </trkpt>
      <trkpt lat="45.17664" lon="3.56779">
        <ele>650.052</ele>
        <time>2020-08-18T08:53:44Z</time>
      </trkpt>
      <trkpt lat="45.17662" lon="3.56778">
        <ele>650.038</ele>
        <time>2020-08-18T08:53:48Z</time>
      </trkpt>
      <trkpt lat="45.17661" lon="3.56772">
        <ele>649.762</ele>
        <time>2020-08-18T08:53:51Z</time>
      </trkpt>
      <trkpt lat="45.17655" lon="3.56723">
        <ele>648.111</ele>
        <time>2020-08-18T08:54:18Z</time>
      </trkpt>
      <trkpt lat="45.17655" lon="3.56723">
        <ele>648.234</ele>
        <time>2020-08-18T08:54:19Z</time>
      </trkpt>
      <trkpt lat="45.17655" lon="3.56723">
        <ele>648.234</ele>
        <time>2020-08-18T08:54:19Z</time>
      </trkpt>
      <trkpt lat="45.17655" lon="3.56724">
        <ele>647.768</ele>
        <time>2020-08-18T08:54:20Z</time>
      </trkpt>
      <trkpt lat="45.17657" lon="3.56724">
        <ele>647.843</ele>
        <time>2020-08-18T08:54:23Z</time>
      </trkpt>
      <trkpt lat="45.17659" lon="3.56717">
        <ele>647.417</ele>
        <time>2020-08-18T08:54:28Z</time>
      </trkpt>
      <trkpt lat="45.1766" lon="3.56705">
        <ele>646.57</ele>
        <time>2020-08-18T08:54:37Z</time>
      </trkpt>
      <trkpt lat="45.17658" lon="3.56701">
        <ele>646.528</ele>
        <time>2020-08-18T08:54:40Z</time>
      </trkpt>
      <trkpt lat="45.17659" lon="3.567">
        <ele>646.014</ele>
        <time>2020-08-18T08:54:43Z</time>
      </trkpt>
      <trkpt lat="45.17659" lon="3.567">
        <ele>646.014</ele>
        <time>2020-08-18T08:54:43Z</time>
      </trkpt>
      <trkpt lat="45.17659" lon="3.56701">
        <ele>646.074</ele>
        <time>2020-08-18T08:54:44Z</time>
      </trkpt>
      <trkpt lat="45.17659" lon="3.567">
        <ele>645.777</ele>
        <time>2020-08-18T08:54:46Z</time>
      </trkpt>
      <trkpt lat="45.17658" lon="3.56696">
        <ele>645.707</ele>
        <time>2020-08-18T08:54:48Z</time>
      </trkpt>
      <trkpt lat="45.17654" lon="3.56685">
        <ele>645.367</ele>
        <time>2020-08-18T08:54:53Z</time>
      </trkpt>
      <trkpt lat="45.17655" lon="3.56647">
        <ele>643.311</ele>
        <time>2020-08-18T08:55:13Z</time>
      </trkpt>
      <trkpt lat="45.17656" lon="3.56643">
        <ele>642.859</ele>
        <time>2020-08-18T08:55:16Z</time>
      </trkpt>
      <trkpt lat="45.17658" lon="3.56639">
        <ele>642.18</ele>
        <time>2020-08-18T08:55:19Z</time>
      </trkpt>
      <trkpt lat="45.17658" lon="3.56635">
        <ele>642.256</ele>
        <time>2020-08-18T08:55:22Z</time>
      </trkpt>
      <trkpt lat="45.17662" lon="3.56593">
        <ele>640.205</ele>
        <time>2020-08-18T08:55:49Z</time>
      </trkpt>
      <trkpt lat="45.17664" lon="3.56548">
        <ele>638.52</ele>
        <time>2020-08-18T08:56:17Z</time>
      </trkpt>
      <trkpt lat="45.17665" lon="3.56514">
        <ele>638.269</ele>
        <time>2020-08-18T08:56:34Z</time>
      </trkpt>
      <trkpt lat="45.17664" lon="3.56498">
        <ele>637.819</ele>
        <time>2020-08-18T08:56:45Z</time>
      </trkpt>
      <trkpt lat="45.1766" lon="3.56476">
        <ele>635.806</ele>
        <time>2020-08-18T08:56:59Z</time>
      </trkpt>
      <trkpt lat="45.17654" lon="3.56438">
        <ele>633.769</ele>
        <time>2020-08-18T08:57:20Z</time>
      </trkpt>
      <trkpt lat="45.17647" lon="3.56389">
        <ele>631.74</ele>
        <time>2020-08-18T08:57:47Z</time>
      </trkpt>
      <trkpt lat="45.17632" lon="3.56327">
        <ele>629.715</ele>
        <time>2020-08-18T08:58:23Z</time>
      </trkpt>
      <trkpt lat="45.17623" lon="3.56289">
        <ele>628.046</ele>
        <time>2020-08-18T08:58:47Z</time>
      </trkpt>
      <trkpt lat="45.17621" lon="3.56269">
        <ele>625.966</ele>
        <time>2020-08-18T08:59:01Z</time>
      </trkpt>
      <trkpt lat="45.17621" lon="3.5626">
        <ele>625.376</ele>
        <time>2020-08-18T08:59:06Z</time>
      </trkpt>
      <trkpt lat="45.17631" lon="3.56231">
        <ele>623.412</ele>
        <time>2020-08-18T08:59:24Z</time>
      </trkpt>
      <trkpt lat="45.17639" lon="3.56207">
        <ele>621.361</ele>
        <time>2020-08-18T08:59:42Z</time>
      </trkpt>
      <trkpt lat="45.17639" lon="3.56203">
        <ele>621.04</ele>
        <time>2020-08-18T08:59:45Z</time>
      </trkpt>
      <trkpt lat="45.1764" lon="3.56175">
        <ele>618.919</ele>
        <time>2020-08-18T09:00:01Z</time>
      </trkpt>
      <trkpt lat="45.17639" lon="3.56162">
        <ele>619.031</ele>
        <time>2020-08-18T09:00:08Z</time>
      </trkpt>
      <trkpt lat="45.17627" lon="3.56106">
        <ele>617.018</ele>
        <time>2020-08-18T09:00:42Z</time>
      </trkpt>
      <trkpt lat="45.17624" lon="3.56073">
        <ele>614.955</ele>
        <time>2020-08-18T09:01:00Z</time>
      </trkpt>
      <trkpt lat="45.17619" lon="3.56026">
        <ele>613.08</ele>
        <time>2020-08-18T09:01:25Z</time>
      </trkpt>
      <trkpt lat="45.17616" lon="3.56018">
        <ele>612.706</ele>
        <time>2020-08-18T09:01:31Z</time>
      </trkpt>
      <trkpt lat="45.17611" lon="3.56006">
        <ele>612.295</ele>
        <time>2020-08-18T09:01:39Z</time>
      </trkpt>
      <trkpt lat="45.1761" lon="3.56002">
        <ele>612.19</ele>
        <time>2020-08-18T09:01:41Z</time>
      </trkpt>
      <trkpt lat="45.17602" lon="3.55986">
        <ele>611.988</ele>
        <time>2020-08-18T09:01:50Z</time>
      </trkpt>
      <trkpt lat="45.17601" lon="3.55972">
        <ele>611.192</ele>
        <time>2020-08-18T09:01:57Z</time>
      </trkpt>
      <trkpt lat="45.17613" lon="3.55863">
        <ele>610.811</ele>
        <time>2020-08-18T09:03:01Z</time>
      </trkpt>
      <trkpt lat="45.17611" lon="3.55859">
        <ele>610.712</ele>
        <time>2020-08-18T09:03:04Z</time>
      </trkpt>
      <trkpt lat="45.17609" lon="3.55855">
        <ele>610.412</ele>
        <time>2020-08-18T09:03:07Z</time>
      </trkpt>
      <trkpt lat="45.17606" lon="3.55848">
        <ele>610.782</ele>
        <time>2020-08-18T09:03:13Z</time>
      </trkpt>
      <trkpt lat="45.17605" lon="3.55844">
        <ele>611.325</ele>
        <time>2020-08-18T09:03:16Z</time>
      </trkpt>
      <trkpt lat="45.17605" lon="3.55843">
        <ele>611.438</ele>
        <time>2020-08-18T09:03:17Z</time>
      </trkpt>
      <trkpt lat="45.17606" lon="3.55838">
        <ele>610.39</ele>
        <time>2020-08-18T09:03:20Z</time>
      </trkpt>
      <trkpt lat="45.17606" lon="3.55826">
        <ele>609.719</ele>
        <time>2020-08-18T09:03:27Z</time>
      </trkpt>
      <trkpt lat="45.17596" lon="3.55768">
        <ele>608.96</ele>
        <time>2020-08-18T09:04:11Z</time>
      </trkpt>
      <trkpt lat="45.17595" lon="3.55767">
        <ele>609.159</ele>
        <time>2020-08-18T09:04:12Z</time>
      </trkpt>
      <trkpt lat="45.17592" lon="3.55755">
        <ele>608.791</ele>
        <time>2020-08-18T09:04:21Z</time>
      </trkpt>
      <trkpt lat="45.17592" lon="3.55753">
        <ele>608.689</ele>
        <time>2020-08-18T09:04:24Z</time>
      </trkpt>
      <trkpt lat="45.1759" lon="3.55749">
        <ele>609.046</ele>
        <time>2020-08-18T09:04:28Z</time>
      </trkpt>
      <trkpt lat="45.1759" lon="3.55749">
        <ele>609.175</ele>
        <time>2020-08-18T09:04:31Z</time>
      </trkpt>
      <trkpt lat="45.1759" lon="3.55749">
        <ele>609.133</ele>
        <time>2020-08-18T09:04:32Z</time>
      </trkpt>
      <trkpt lat="45.1759" lon="3.55749">
        <ele>609.127</ele>
        <time>2020-08-18T09:04:33Z</time>
      </trkpt>
      <trkpt lat="45.1759" lon="3.55749">
        <ele>609.088</ele>
        <time>2020-08-18T09:04:34Z</time>
      </trkpt>
      <trkpt lat="45.1759" lon="3.55749">
        <ele>609.088</ele>
        <time>2020-08-18T09:04:34Z</time>
      </trkpt>
      <trkpt lat="45.17589" lon="3.55748">
        <ele>609.142</ele>
        <time>2020-08-18T09:04:35Z</time>
      </trkpt>
      <trkpt lat="45.17587" lon="3.55747">
        <ele>609.325</ele>
        <time>2020-08-18T09:04:36Z</time>
      </trkpt>
      <trkpt lat="45.1758" lon="3.55742">
        <ele>609.382</ele>
        <time>2020-08-18T09:04:42Z</time>
      </trkpt>
      <trkpt lat="45.1758" lon="3.55742">
        <ele>609.382</ele>
        <time>2020-08-18T09:04:42Z</time>
      </trkpt>
      <trkpt lat="45.1758" lon="3.55742">
        <ele>609.433</ele>
        <time>2020-08-18T09:04:43Z</time>
      </trkpt>
      <trkpt lat="45.17582" lon="3.55744">
        <ele>610.044</ele>
        <time>2020-08-18T09:04:46Z</time>
      </trkpt>
      <trkpt lat="45.17581" lon="3.55745">
        <ele>610.185</ele>
        <time>2020-08-18T09:04:47Z</time>
      </trkpt>
      <trkpt lat="45.17578" lon="3.55749">
        <ele>609.968</ele>
        <time>2020-08-18T09:04:52Z</time>
      </trkpt>
      <trkpt lat="45.17573" lon="3.55756">
        <ele>609.175</ele>
        <time>2020-08-18T09:05:00Z</time>
      </trkpt>
      <trkpt lat="45.1757" lon="3.55744">
        <ele>609.14</ele>
        <time>2020-08-18T09:05:13Z</time>
      </trkpt>
      <trkpt lat="45.1757" lon="3.55733">
        <ele>609.727</ele>
        <time>2020-08-18T09:05:21Z</time>
      </trkpt>
      <trkpt lat="45.1757" lon="3.55721">
        <ele>609.44</ele>
        <time>2020-08-18T09:05:28Z</time>
      </trkpt>
      <trkpt lat="45.17568" lon="3.55688">
        <ele>609.246</ele>
        <time>2020-08-18T09:05:48Z</time>
      </trkpt>
      <trkpt lat="45.17568" lon="3.55688">
        <ele>608.965</ele>
        <time>2020-08-18T09:05:49Z</time>
      </trkpt>
      <trkpt lat="45.17569" lon="3.55685">
        <ele>609.038</ele>
        <time>2020-08-18T09:05:51Z</time>
      </trkpt>
      <trkpt lat="45.17567" lon="3.55664">
        <ele>608.716</ele>
        <time>2020-08-18T09:06:07Z</time>
      </trkpt>
      <trkpt lat="45.17559" lon="3.55607">
        <ele>606.594</ele>
        <time>2020-08-18T09:06:46Z</time>
      </trkpt>
      <trkpt lat="45.17553" lon="3.55529">
        <ele>606.728</ele>
        <time>2020-08-18T09:07:36Z</time>
      </trkpt>
      <trkpt lat="45.17552" lon="3.55525">
        <ele>606.759</ele>
        <time>2020-08-18T09:07:39Z</time>
      </trkpt>
      <trkpt lat="45.17551" lon="3.55522">
        <ele>606.485</ele>
        <time>2020-08-18T09:07:41Z</time>
      </trkpt>
      <trkpt lat="45.17551" lon="3.55521">
        <ele>606.416</ele>
        <time>2020-08-18T09:07:42Z</time>
      </trkpt>
      <trkpt lat="45.1755" lon="3.55517">
        <ele>606.305</ele>
        <time>2020-08-18T09:07:45Z</time>
      </trkpt>
      <trkpt lat="45.17549" lon="3.5551">
        <ele>606.464</ele>
        <time>2020-08-18T09:07:51Z</time>
      </trkpt>
      <trkpt lat="45.17549" lon="3.55505">
        <ele>606.553</ele>
        <time>2020-08-18T09:07:54Z</time>
      </trkpt>
      <trkpt lat="45.17548" lon="3.55504">
        <ele>606.571</ele>
        <time>2020-08-18T09:07:55Z</time>
      </trkpt>
      <trkpt lat="45.17545" lon="3.55489">
        <ele>606.419</ele>
        <time>2020-08-18T09:08:03Z</time>
      </trkpt>
      <trkpt lat="45.17544" lon="3.55483">
        <ele>606.924</ele>
        <time>2020-08-18T09:08:05Z</time>
      </trkpt>
      <trkpt lat="45.17544" lon="3.55482">
        <ele>607.016</ele>
        <time>2020-08-18T09:08:06Z</time>
      </trkpt>
      <trkpt lat="45.17543" lon="3.55481">
        <ele>607.337</ele>
        <time>2020-08-18T09:08:07Z</time>
      </trkpt>
      <trkpt lat="45.17541" lon="3.55477">
        <ele>607.325</ele>
        <time>2020-08-18T09:08:10Z</time>
      </trkpt>
      <trkpt lat="45.1754" lon="3.55475">
        <ele>607.3</ele>
        <time>2020-08-18T09:08:12Z</time>
      </trkpt>
      <trkpt lat="45.17538" lon="3.55472">
        <ele>607.132</ele>
        <time>2020-08-18T09:08:15Z</time>
      </trkpt>
      <trkpt lat="45.17537" lon="3.55469">
        <ele>606.981</ele>
        <time>2020-08-18T09:08:18Z</time>
      </trkpt>
      <trkpt lat="45.17535" lon="3.55466">
        <ele>606.763</ele>
        <time>2020-08-18T09:08:20Z</time>
      </trkpt>
      <trkpt lat="45.1753" lon="3.55452">
        <ele>607.188</ele>
        <time>2020-08-18T09:08:29Z</time>
      </trkpt>
      <trkpt lat="45.1753" lon="3.5545">
        <ele>607.268</ele>
        <time>2020-08-18T09:08:30Z</time>
      </trkpt>
      <trkpt lat="45.17529" lon="3.55446">
        <ele>607.29</ele>
        <time>2020-08-18T09:08:33Z</time>
      </trkpt>
      <trkpt lat="45.17525" lon="3.55436">
        <ele>607.342</ele>
        <time>2020-08-18T09:08:41Z</time>
      </trkpt>
      <trkpt lat="45.17524" lon="3.55429">
        <ele>607.315</ele>
        <time>2020-08-18T09:08:45Z</time>
      </trkpt>
      <trkpt lat="45.17523" lon="3.55425">
        <ele>607.148</ele>
        <time>2020-08-18T09:08:48Z</time>
      </trkpt>
      <trkpt lat="45.17522" lon="3.55419">
        <ele>607.502</ele>
        <time>2020-08-18T09:08:52Z</time>
      </trkpt>
      <trkpt lat="45.17509" lon="3.55382">
        <ele>607.441</ele>
        <time>2020-08-18T09:09:20Z</time>
      </trkpt>
      <trkpt lat="45.17491" lon="3.55354">
        <ele>606.61</ele>
        <time>2020-08-18T09:09:45Z</time>
      </trkpt>
      <trkpt lat="45.17489" lon="3.55352">
        <ele>606.412</ele>
        <time>2020-08-18T09:09:47Z</time>
      </trkpt>
      <trkpt lat="45.17474" lon="3.55329">
        <ele>606.845</ele>
        <time>2020-08-18T09:10:05Z</time>
      </trkpt>
      <trkpt lat="45.17474" lon="3.55328">
        <ele>606.821</ele>
        <time>2020-08-18T09:10:06Z</time>
      </trkpt>
      <trkpt lat="45.17474" lon="3.55328">
        <ele>606.688</ele>
        <time>2020-08-18T09:10:07Z</time>
      </trkpt>
      <trkpt lat="45.17474" lon="3.55327">
        <ele>606.618</ele>
        <time>2020-08-18T09:10:08Z</time>
      </trkpt>
      <trkpt lat="45.17473" lon="3.55325">
        <ele>606.512</ele>
        <time>2020-08-18T09:10:10Z</time>
      </trkpt>
      <trkpt lat="45.17461" lon="3.55303">
        <ele>606.102</ele>
        <time>2020-08-18T09:10:28Z</time>
      </trkpt>
      <trkpt lat="45.17461" lon="3.55303">
        <ele>606.102</ele>
        <time>2020-08-18T09:10:28Z</time>
      </trkpt>
      <trkpt lat="45.1746" lon="3.55303">
        <ele>606.115</ele>
        <time>2020-08-18T09:10:29Z</time>
      </trkpt>
      <trkpt lat="45.17459" lon="3.55303">
        <ele>606.339</ele>
        <time>2020-08-18T09:10:30Z</time>
      </trkpt>
      <trkpt lat="45.17429" lon="3.5526">
        <ele>606.251</ele>
        <time>2020-08-18T09:11:00Z</time>
      </trkpt>
      <trkpt lat="45.17426" lon="3.55256">
        <ele>605.88</ele>
        <time>2020-08-18T09:11:03Z</time>
      </trkpt>
      <trkpt lat="45.17423" lon="3.55252">
        <ele>605.837</ele>
        <time>2020-08-18T09:11:07Z</time>
      </trkpt>
      <trkpt lat="45.17414" lon="3.55236">
        <ele>605.537</ele>
        <time>2020-08-18T09:11:20Z</time>
      </trkpt>
      <trkpt lat="45.17412" lon="3.55232">
        <ele>605.328</ele>
        <time>2020-08-18T09:11:23Z</time>
      </trkpt>
      <trkpt lat="45.17408" lon="3.55222">
        <ele>605.037</ele>
        <time>2020-08-18T09:11:29Z</time>
      </trkpt>
      <trkpt lat="45.17406" lon="3.55215">
        <ele>605.815</ele>
        <time>2020-08-18T09:11:33Z</time>
      </trkpt>
      <trkpt lat="45.17401" lon="3.55205">
        <ele>606.238</ele>
        <time>2020-08-18T09:11:40Z</time>
      </trkpt>
      <trkpt lat="45.17401" lon="3.552">
        <ele>605.819</ele>
        <time>2020-08-18T09:11:45Z</time>
      </trkpt>
      <trkpt lat="45.174" lon="3.55199">
        <ele>605.891</ele>
        <time>2020-08-18T09:11:46Z</time>
      </trkpt>
      <trkpt lat="45.17392" lon="3.55185">
        <ele>605.76</ele>
        <time>2020-08-18T09:11:58Z</time>
      </trkpt>
      <trkpt lat="45.1739" lon="3.55181">
        <ele>605.415</ele>
        <time>2020-08-18T09:12:01Z</time>
      </trkpt>
      <trkpt lat="45.17384" lon="3.5517">
        <ele>605.715</ele>
        <time>2020-08-18T09:12:10Z</time>
      </trkpt>
      <trkpt lat="45.17364" lon="3.55127">
        <ele>604.645</ele>
        <time>2020-08-18T09:12:44Z</time>
      </trkpt>
      <trkpt lat="45.17361" lon="3.55122">
        <ele>604.203</ele>
        <time>2020-08-18T09:12:48Z</time>
      </trkpt>
      <trkpt lat="45.1736" lon="3.55119">
        <ele>604.02</ele>
        <time>2020-08-18T09:12:50Z</time>
      </trkpt>
      <trkpt lat="45.17358" lon="3.55115">
        <ele>603.433</ele>
        <time>2020-08-18T09:12:54Z</time>
      </trkpt>
      <trkpt lat="45.17354" lon="3.55107">
        <ele>602.954</ele>
        <time>2020-08-18T09:13:00Z</time>
      </trkpt>
      <trkpt lat="45.17348" lon="3.55094">
        <ele>602.722</ele>
        <time>2020-08-18T09:13:10Z</time>
      </trkpt>
      <trkpt lat="45.17348" lon="3.55093">
        <ele>602.97</ele>
        <time>2020-08-18T09:13:11Z</time>
      </trkpt>
      <trkpt lat="45.17345" lon="3.55088">
        <ele>602.637</ele>
        <time>2020-08-18T09:13:15Z</time>
      </trkpt>
      <trkpt lat="45.17345" lon="3.55087">
        <ele>602.503</ele>
        <time>2020-08-18T09:13:16Z</time>
      </trkpt>
      <trkpt lat="45.17344" lon="3.55083">
        <ele>602.587</ele>
        <time>2020-08-18T09:13:18Z</time>
      </trkpt>
      <trkpt lat="45.17335" lon="3.55061">
        <ele>602.535</ele>
        <time>2020-08-18T09:13:30Z</time>
      </trkpt>
      <trkpt lat="45.17335" lon="3.55058">
        <ele>602.865</ele>
        <time>2020-08-18T09:13:32Z</time>
      </trkpt>
      <trkpt lat="45.17325" lon="3.55031">
        <ele>603.316</ele>
        <time>2020-08-18T09:13:51Z</time>
      </trkpt>
      <trkpt lat="45.17309" lon="3.55013">
        <ele>603.072</ele>
        <time>2020-08-18T09:14:09Z</time>
      </trkpt>
      <trkpt lat="45.17298" lon="3.5501">
        <ele>601.222</ele>
        <time>2020-08-18T09:14:20Z</time>
      </trkpt>
      <trkpt lat="45.17297" lon="3.5501">
        <ele>601.395</ele>
        <time>2020-08-18T09:14:21Z</time>
      </trkpt>
      <trkpt lat="45.1726" lon="3.55001">
        <ele>599.351</ele>
        <time>2020-08-18T09:14:55Z</time>
      </trkpt>
      <trkpt lat="45.1722" lon="3.54996">
        <ele>598.079</ele>
        <time>2020-08-18T09:15:32Z</time>
      </trkpt>
      <trkpt lat="45.17215" lon="3.54991">
        <ele>597.529</ele>
        <time>2020-08-18T09:15:37Z</time>
      </trkpt>
      <trkpt lat="45.17214" lon="3.5499">
        <ele>597.478</ele>
        <time>2020-08-18T09:15:38Z</time>
      </trkpt>
      <trkpt lat="45.17212" lon="3.54988">
        <ele>596.821</ele>
        <time>2020-08-18T09:15:42Z</time>
      </trkpt>
      <trkpt lat="45.17211" lon="3.54987">
        <ele>596.786</ele>
        <time>2020-08-18T09:15:42Z</time>
      </trkpt>
      <trkpt lat="45.1721" lon="3.54985">
        <ele>596.686</ele>
        <time>2020-08-18T09:15:44Z</time>
      </trkpt>
      <trkpt lat="45.17202" lon="3.54979">
        <ele>595.945</ele>
        <time>2020-08-18T09:15:53Z</time>
      </trkpt>
      <trkpt lat="45.17202" lon="3.54978">
        <ele>596.042</ele>
        <time>2020-08-18T09:15:55Z</time>
      </trkpt>
      <trkpt lat="45.17202" lon="3.54978">
        <ele>596.042</ele>
        <time>2020-08-18T09:15:55Z</time>
      </trkpt>
      <trkpt lat="45.17201" lon="3.54977">
        <ele>595.82</ele>
        <time>2020-08-18T09:15:56Z</time>
      </trkpt>
      <trkpt lat="45.17201" lon="3.54976">
        <ele>595.955</ele>
        <time>2020-08-18T09:15:57Z</time>
      </trkpt>
      <trkpt lat="45.17201" lon="3.54975">
        <ele>595.842</ele>
        <time>2020-08-18T09:15:59Z</time>
      </trkpt>
      <trkpt lat="45.17199" lon="3.54973">
        <ele>595.529</ele>
        <time>2020-08-18T09:16:02Z</time>
      </trkpt>
      <trkpt lat="45.17199" lon="3.54973">
        <ele>595.61</ele>
        <time>2020-08-18T09:16:03Z</time>
      </trkpt>
      <trkpt lat="45.17199" lon="3.54973">
        <ele>595.61</ele>
        <time>2020-08-18T09:16:03Z</time>
      </trkpt>
      <trkpt lat="45.17198" lon="3.54972">
        <ele>595.606</ele>
        <time>2020-08-18T09:16:04Z</time>
      </trkpt>
      <trkpt lat="45.17198" lon="3.54972">
        <ele>595.545</ele>
        <time>2020-08-18T09:16:05Z</time>
      </trkpt>
      <trkpt lat="45.17198" lon="3.54972">
        <ele>595.545</ele>
        <time>2020-08-18T09:16:05Z</time>
      </trkpt>
      <trkpt lat="45.17197" lon="3.54971">
        <ele>595.388</ele>
        <time>2020-08-18T09:16:06Z</time>
      </trkpt>
      <trkpt lat="45.17192" lon="3.54968">
        <ele>594.205</ele>
        <time>2020-08-18T09:16:15Z</time>
      </trkpt>
      <trkpt lat="45.17169" lon="3.54948">
        <ele>595.067</ele>
        <time>2020-08-18T09:16:44Z</time>
      </trkpt>
      <trkpt lat="45.17157" lon="3.54943">
        <ele>595.457</ele>
        <time>2020-08-18T09:16:54Z</time>
      </trkpt>
      <trkpt lat="45.17156" lon="3.54942">
        <ele>595.511</ele>
        <time>2020-08-18T09:16:55Z</time>
      </trkpt>
      <trkpt lat="45.17154" lon="3.54941">
        <ele>595.461</ele>
        <time>2020-08-18T09:16:57Z</time>
      </trkpt>
      <trkpt lat="45.17121" lon="3.54926">
        <ele>596.466</ele>
        <time>2020-08-18T09:17:22Z</time>
      </trkpt>
      <trkpt lat="45.17118" lon="3.54926">
        <ele>596.714</ele>
        <time>2020-08-18T09:17:25Z</time>
      </trkpt>
      <trkpt lat="45.17097" lon="3.54913">
        <ele>597.061</ele>
        <time>2020-08-18T09:17:46Z</time>
      </trkpt>
      <trkpt lat="45.17096" lon="3.5491">
        <ele>597.499</ele>
        <time>2020-08-18T09:17:49Z</time>
      </trkpt>
      <trkpt lat="45.17094" lon="3.54906">
        <ele>597.518</ele>
        <time>2020-08-18T09:17:52Z</time>
      </trkpt>
      <trkpt lat="45.17093" lon="3.54902">
        <ele>597.326</ele>
        <time>2020-08-18T09:17:55Z</time>
      </trkpt>
      <trkpt lat="45.17092" lon="3.54898">
        <ele>597.627</ele>
        <time>2020-08-18T09:17:58Z</time>
      </trkpt>
      <trkpt lat="45.17087" lon="3.54887">
        <ele>597.151</ele>
        <time>2020-08-18T09:18:09Z</time>
      </trkpt>
      <trkpt lat="45.17086" lon="3.54884">
        <ele>596.951</ele>
        <time>2020-08-18T09:18:12Z</time>
      </trkpt>
      <trkpt lat="45.17085" lon="3.54882">
        <ele>596.854</ele>
        <time>2020-08-18T09:18:14Z</time>
      </trkpt>
      <trkpt lat="45.17084" lon="3.54882">
        <ele>596.75</ele>
        <time>2020-08-18T09:18:15Z</time>
      </trkpt>
      <trkpt lat="45.1708" lon="3.54881">
        <ele>597.206</ele>
        <time>2020-08-18T09:18:20Z</time>
      </trkpt>
      <trkpt lat="45.17077" lon="3.54882">
        <ele>597.463</ele>
        <time>2020-08-18T09:18:23Z</time>
      </trkpt>
      <trkpt lat="45.17075" lon="3.54881">
        <ele>597.446</ele>
        <time>2020-08-18T09:18:25Z</time>
      </trkpt>
      <trkpt lat="45.1707" lon="3.54877">
        <ele>597.582</ele>
        <time>2020-08-18T09:18:30Z</time>
      </trkpt>
      <trkpt lat="45.17067" lon="3.54877">
        <ele>597.621</ele>
        <time>2020-08-18T09:18:35Z</time>
      </trkpt>
      <trkpt lat="45.17061" lon="3.54878">
        <ele>597.798</ele>
        <time>2020-08-18T09:18:41Z</time>
      </trkpt>
      <trkpt lat="45.17018" lon="3.54879">
        <ele>599.87</ele>
        <time>2020-08-18T09:19:24Z</time>
      </trkpt>
      <trkpt lat="45.17003" lon="3.5488">
        <ele>600.46</ele>
        <time>2020-08-18T09:19:37Z</time>
      </trkpt>
      <trkpt lat="45.16993" lon="3.54878">
        <ele>600.333</ele>
        <time>2020-08-18T09:19:46Z</time>
      </trkpt>
      <trkpt lat="45.16991" lon="3.54879">
        <ele>599.945</ele>
        <time>2020-08-18T09:19:49Z</time>
      </trkpt>
      <trkpt lat="45.16987" lon="3.54879">
        <ele>600.141</ele>
        <time>2020-08-18T09:19:53Z</time>
      </trkpt>
      <trkpt lat="45.16968" lon="3.54883">
        <ele>600.207</ele>
        <time>2020-08-18T09:20:11Z</time>
      </trkpt>
      <trkpt lat="45.16953" lon="3.54889">
        <ele>599.665</ele>
        <time>2020-08-18T09:20:26Z</time>
      </trkpt>
      <trkpt lat="45.16936" lon="3.5489">
        <ele>600.615</ele>
        <time>2020-08-18T09:20:42Z</time>
      </trkpt>
      <trkpt lat="45.16927" lon="3.54889">
        <ele>600.623</ele>
        <time>2020-08-18T09:20:49Z</time>
      </trkpt>
      <trkpt lat="45.16923" lon="3.54888">
        <ele>601.198</ele>
        <time>2020-08-18T09:20:53Z</time>
      </trkpt>
      <trkpt lat="45.16906" lon="3.54878">
        <ele>601.319</ele>
        <time>2020-08-18T09:21:08Z</time>
      </trkpt>
      <trkpt lat="45.16906" lon="3.54878">
        <ele>601.469</ele>
        <time>2020-08-18T09:21:09Z</time>
      </trkpt>
      <trkpt lat="45.16905" lon="3.54879">
        <ele>601.367</ele>
        <time>2020-08-18T09:21:12Z</time>
      </trkpt>
      <trkpt lat="45.16905" lon="3.54879">
        <ele>601.112</ele>
        <time>2020-08-18T09:21:33Z</time>
      </trkpt>
      <trkpt lat="45.16905" lon="3.5488">
        <ele>601.261</ele>
        <time>2020-08-18T09:21:34Z</time>
      </trkpt>
      <trkpt lat="45.16905" lon="3.5488">
        <ele>601.512</ele>
        <time>2020-08-18T09:21:36Z</time>
      </trkpt>
      <trkpt lat="45.16905" lon="3.5488">
        <ele>601.509</ele>
        <time>2020-08-18T09:21:44Z</time>
      </trkpt>
      <trkpt lat="45.16904" lon="3.5488">
        <ele>601.514</ele>
        <time>2020-08-18T09:21:45Z</time>
      </trkpt>
      <trkpt lat="45.16904" lon="3.54881">
        <ele>601.558</ele>
        <time>2020-08-18T09:21:46Z</time>
      </trkpt>
      <trkpt lat="45.16904" lon="3.54881">
        <ele>601.637</ele>
        <time>2020-08-18T09:21:47Z</time>
      </trkpt>
      <trkpt lat="45.16904" lon="3.54881">
        <ele>601.654</ele>
        <time>2020-08-18T09:21:48Z</time>
      </trkpt>
      <trkpt lat="45.16904" lon="3.54881">
        <ele>601.654</ele>
        <time>2020-08-18T09:21:48Z</time>
      </trkpt>
      <trkpt lat="45.16904" lon="3.54881">
        <ele>601.577</ele>
        <time>2020-08-18T09:21:49Z</time>
      </trkpt>
      <trkpt lat="45.16904" lon="3.54881">
        <ele>601.558</ele>
        <time>2020-08-18T09:21:50Z</time>
      </trkpt>
      <trkpt lat="45.16904" lon="3.54881">
        <ele>602.288</ele>
        <time>2020-08-18T09:22:50Z</time>
      </trkpt>
      <trkpt lat="45.16904" lon="3.5488">
        <ele>601.915</ele>
        <time>2020-08-18T09:22:51Z</time>
      </trkpt>
      <trkpt lat="45.16904" lon="3.54881">
        <ele>602.842</ele>
        <time>2020-08-18T09:22:53Z</time>
      </trkpt>
      <trkpt lat="45.16904" lon="3.54881">
        <ele>602.32</ele>
        <time>2020-08-18T09:23:02Z</time>
      </trkpt>
      <trkpt lat="45.16904" lon="3.54882">
        <ele>602.651</ele>
        <time>2020-08-18T09:23:03Z</time>
      </trkpt>
      <trkpt lat="45.16904" lon="3.54882">
        <ele>602.787</ele>
        <time>2020-08-18T09:23:04Z</time>
      </trkpt>
      <trkpt lat="45.16904" lon="3.54882">
        <ele>602.667</ele>
        <time>2020-08-18T09:23:28Z</time>
      </trkpt>
      <trkpt lat="45.16904" lon="3.54882">
        <ele>602.48</ele>
        <time>2020-08-18T09:23:29Z</time>
      </trkpt>
      <trkpt lat="45.16904" lon="3.54883">
        <ele>602.402</ele>
        <time>2020-08-18T09:23:30Z</time>
      </trkpt>
      <trkpt lat="45.16904" lon="3.54883">
        <ele>602.044</ele>
        <time>2020-08-18T09:23:31Z</time>
      </trkpt>
      <trkpt lat="45.16904" lon="3.54883">
        <ele>601.177</ele>
        <time>2020-08-18T09:24:13Z</time>
      </trkpt>
      <trkpt lat="45.16904" lon="3.54886">
        <ele>600.99</ele>
        <time>2020-08-18T09:24:14Z</time>
      </trkpt>
      <trkpt lat="45.16904" lon="3.54887">
        <ele>601.43</ele>
        <time>2020-08-18T09:24:15Z</time>
      </trkpt>
      <trkpt lat="45.16904" lon="3.54889">
        <ele>601.366</ele>
        <time>2020-08-18T09:24:17Z</time>
      </trkpt>
      <trkpt lat="45.16905" lon="3.54893">
        <ele>601.55</ele>
        <time>2020-08-18T09:24:20Z</time>
      </trkpt>
      <trkpt lat="45.16904" lon="3.54904">
        <ele>602.124</ele>
        <time>2020-08-18T09:24:30Z</time>
      </trkpt>
      <trkpt lat="45.16903" lon="3.54908">
        <ele>602.506</ele>
        <time>2020-08-18T09:24:34Z</time>
      </trkpt>
      <trkpt lat="45.16904" lon="3.54922">
        <ele>602.918</ele>
        <time>2020-08-18T09:24:41Z</time>
      </trkpt>
      <trkpt lat="45.16906" lon="3.54944">
        <ele>603.216</ele>
        <time>2020-08-18T09:24:56Z</time>
      </trkpt>
      <trkpt lat="45.16911" lon="3.5497">
        <ele>603.653</ele>
        <time>2020-08-18T09:25:10Z</time>
      </trkpt>
      <trkpt lat="45.1691" lon="3.54974">
        <ele>603.44</ele>
        <time>2020-08-18T09:25:14Z</time>
      </trkpt>
      <trkpt lat="45.16897" lon="3.54998">
        <ele>603.782</ele>
        <time>2020-08-18T09:25:36Z</time>
      </trkpt>
      <trkpt lat="45.16886" lon="3.55004">
        <ele>603.678</ele>
        <time>2020-08-18T09:25:46Z</time>
      </trkpt>
      <trkpt lat="45.16885" lon="3.55005">
        <ele>603.757</ele>
        <time>2020-08-18T09:25:47Z</time>
      </trkpt>
      <trkpt lat="45.16847" lon="3.55015">
        <ele>604.672</ele>
        <time>2020-08-18T09:26:20Z</time>
      </trkpt>
      <trkpt lat="45.16846" lon="3.55016">
        <ele>604.597</ele>
        <time>2020-08-18T09:26:21Z</time>
      </trkpt>
      <trkpt lat="45.16841" lon="3.5502">
        <ele>604.011</ele>
        <time>2020-08-18T09:26:26Z</time>
      </trkpt>
      <trkpt lat="45.1684" lon="3.55021">
        <ele>603.831</ele>
        <time>2020-08-18T09:26:27Z</time>
      </trkpt>
      <trkpt lat="45.16838" lon="3.55023">
        <ele>603.93</ele>
        <time>2020-08-18T09:26:29Z</time>
      </trkpt>
      <trkpt lat="45.16835" lon="3.55026">
        <ele>604.191</ele>
        <time>2020-08-18T09:26:31Z</time>
      </trkpt>
      <trkpt lat="45.16832" lon="3.55029">
        <ele>604.442</ele>
        <time>2020-08-18T09:26:34Z</time>
      </trkpt>
      <trkpt lat="45.16811" lon="3.55038">
        <ele>604.037</ele>
        <time>2020-08-18T09:26:53Z</time>
      </trkpt>
      <trkpt lat="45.16808" lon="3.5504">
        <ele>604.279</ele>
        <time>2020-08-18T09:26:56Z</time>
      </trkpt>
      <trkpt lat="45.16806" lon="3.55041">
        <ele>604.19</ele>
        <time>2020-08-18T09:26:57Z</time>
      </trkpt>
      <trkpt lat="45.16755" lon="3.55078">
        <ele>605.299</ele>
        <time>2020-08-18T09:27:44Z</time>
      </trkpt>
      <trkpt lat="45.16747" lon="3.55085">
        <ele>605.484</ele>
        <time>2020-08-18T09:27:51Z</time>
      </trkpt>
      <trkpt lat="45.16737" lon="3.55088">
        <ele>606.094</ele>
        <time>2020-08-18T09:27:58Z</time>
      </trkpt>
      <trkpt lat="45.1672" lon="3.551">
        <ele>606.538</ele>
        <time>2020-08-18T09:28:13Z</time>
      </trkpt>
      <trkpt lat="45.1671" lon="3.55103">
        <ele>607.656</ele>
        <time>2020-08-18T09:28:22Z</time>
      </trkpt>
      <trkpt lat="45.16703" lon="3.55103">
        <ele>608.259</ele>
        <time>2020-08-18T09:28:28Z</time>
      </trkpt>
      <trkpt lat="45.167" lon="3.55102">
        <ele>608.31</ele>
        <time>2020-08-18T09:28:31Z</time>
      </trkpt>
      <trkpt lat="45.16695" lon="3.55101">
        <ele>609.24</ele>
        <time>2020-08-18T09:28:35Z</time>
      </trkpt>
      <trkpt lat="45.16694" lon="3.55101">
        <ele>608.995</ele>
        <time>2020-08-18T09:28:36Z</time>
      </trkpt>
      <trkpt lat="45.16693" lon="3.55101">
        <ele>608.814</ele>
        <time>2020-08-18T09:28:37Z</time>
      </trkpt>
      <trkpt lat="45.16658" lon="3.55107">
        <ele>609.392</ele>
        <time>2020-08-18T09:29:09Z</time>
      </trkpt>
      <trkpt lat="45.16654" lon="3.55109">
        <ele>609.458</ele>
        <time>2020-08-18T09:29:13Z</time>
      </trkpt>
      <trkpt lat="45.16645" lon="3.55112">
        <ele>610.039</ele>
        <time>2020-08-18T09:29:22Z</time>
      </trkpt>
      <trkpt lat="45.16625" lon="3.5512">
        <ele>610.658</ele>
        <time>2020-08-18T09:29:37Z</time>
      </trkpt>
      <trkpt lat="45.16621" lon="3.55119">
        <ele>611.237</ele>
        <time>2020-08-18T09:29:41Z</time>
      </trkpt>
      <trkpt lat="45.16617" lon="3.55118">
        <ele>611.638</ele>
        <time>2020-08-18T09:29:44Z</time>
      </trkpt>
      <trkpt lat="45.16609" lon="3.55114">
        <ele>612.475</ele>
        <time>2020-08-18T09:29:51Z</time>
      </trkpt>
      <trkpt lat="45.166" lon="3.55108">
        <ele>612.382</ele>
        <time>2020-08-18T09:30:01Z</time>
      </trkpt>
      <trkpt lat="45.16599" lon="3.55108">
        <ele>612.431</ele>
        <time>2020-08-18T09:30:02Z</time>
      </trkpt>
      <trkpt lat="45.16587" lon="3.55104">
        <ele>612.834</ele>
        <time>2020-08-18T09:30:11Z</time>
      </trkpt>
      <trkpt lat="45.16562" lon="3.551">
        <ele>613.956</ele>
        <time>2020-08-18T09:30:30Z</time>
      </trkpt>
      <trkpt lat="45.16547" lon="3.55104">
        <ele>615.553</ele>
        <time>2020-08-18T09:30:44Z</time>
      </trkpt>
      <trkpt lat="45.16537" lon="3.55107">
        <ele>616.085</ele>
        <time>2020-08-18T09:30:53Z</time>
      </trkpt>
      <trkpt lat="45.16492" lon="3.55114">
        <ele>617.34</ele>
        <time>2020-08-18T09:31:30Z</time>
      </trkpt>
      <trkpt lat="45.16488" lon="3.55115">
        <ele>617.549</ele>
        <time>2020-08-18T09:31:33Z</time>
      </trkpt>
      <trkpt lat="45.16432" lon="3.55122">
        <ele>619.576</ele>
        <time>2020-08-18T09:32:17Z</time>
      </trkpt>
      <trkpt lat="45.1637" lon="3.55136">
        <ele>621.652</ele>
        <time>2020-08-18T09:33:07Z</time>
      </trkpt>
      <trkpt lat="45.16319" lon="3.55124">
        <ele>621.545</ele>
        <time>2020-08-18T09:33:52Z</time>
      </trkpt>
      <trkpt lat="45.16311" lon="3.55128">
        <ele>621.336</ele>
        <time>2020-08-18T09:33:58Z</time>
      </trkpt>
      <trkpt lat="45.1627" lon="3.55156">
        <ele>622.632</ele>
        <time>2020-08-18T09:34:35Z</time>
      </trkpt>
      <trkpt lat="45.1627" lon="3.55163">
        <ele>623.02</ele>
        <time>2020-08-18T09:34:41Z</time>
      </trkpt>
      <trkpt lat="45.16271" lon="3.55168">
        <ele>623.445</ele>
        <time>2020-08-18T09:34:45Z</time>
      </trkpt>
      <trkpt lat="45.16269" lon="3.55172">
        <ele>623.907</ele>
        <time>2020-08-18T09:34:48Z</time>
      </trkpt>
      <trkpt lat="45.16267" lon="3.55174">
        <ele>623.87</ele>
        <time>2020-08-18T09:34:50Z</time>
      </trkpt>
      <trkpt lat="45.1626" lon="3.55178">
        <ele>623.767</ele>
        <time>2020-08-18T09:34:57Z</time>
      </trkpt>
      <trkpt lat="45.16174" lon="3.55189">
        <ele>625.85</ele>
        <time>2020-08-18T09:36:06Z</time>
      </trkpt>
      <trkpt lat="45.16083" lon="3.55194">
        <ele>626.164</ele>
        <time>2020-08-18T09:37:18Z</time>
      </trkpt>
      <trkpt lat="45.1604" lon="3.55198">
        <ele>626.82</ele>
        <time>2020-08-18T09:37:52Z</time>
      </trkpt>
      <trkpt lat="45.16035" lon="3.55198">
        <ele>626.768</ele>
        <time>2020-08-18T09:37:56Z</time>
      </trkpt>
      <trkpt lat="45.15983" lon="3.55201">
        <ele>628.864</ele>
        <time>2020-08-18T09:38:37Z</time>
      </trkpt>
      <trkpt lat="45.15964" lon="3.55207">
        <ele>628.037</ele>
        <time>2020-08-18T09:38:54Z</time>
      </trkpt>
      <trkpt lat="45.15924" lon="3.55219">
        <ele>629.679</ele>
        <time>2020-08-18T09:39:25Z</time>
      </trkpt>
      <trkpt lat="45.15885" lon="3.55238">
        <ele>629.257</ele>
        <time>2020-08-18T09:39:59Z</time>
      </trkpt>
      <trkpt lat="45.15802" lon="3.55288">
        <ele>630.224</ele>
        <time>2020-08-18T09:41:10Z</time>
      </trkpt>
      <trkpt lat="45.15719" lon="3.5534">
        <ele>628.809</ele>
        <time>2020-08-18T09:42:32Z</time>
      </trkpt>
      <trkpt lat="45.15714" lon="3.55343">
        <ele>628.796</ele>
        <time>2020-08-18T09:42:37Z</time>
      </trkpt>
      <trkpt lat="45.1571" lon="3.55342">
        <ele>629.076</ele>
        <time>2020-08-18T09:42:40Z</time>
      </trkpt>
      <trkpt lat="45.15706" lon="3.55338">
        <ele>629.276</ele>
        <time>2020-08-18T09:42:43Z</time>
      </trkpt>
      <trkpt lat="45.15696" lon="3.5531">
        <ele>631.423</ele>
        <time>2020-08-18T09:43:01Z</time>
      </trkpt>
      <trkpt lat="45.15675" lon="3.55263">
        <ele>631.359</ele>
        <time>2020-08-18T09:43:33Z</time>
      </trkpt>
      <trkpt lat="45.15669" lon="3.55258">
        <ele>631.777</ele>
        <time>2020-08-18T09:43:42Z</time>
      </trkpt>
      <trkpt lat="45.15669" lon="3.55258">
        <ele>631.777</ele>
        <time>2020-08-18T09:43:42Z</time>
      </trkpt>
      <trkpt lat="45.15669" lon="3.55258">
        <ele>631.807</ele>
        <time>2020-08-18T09:43:43Z</time>
      </trkpt>
      <trkpt lat="45.15669" lon="3.55258">
        <ele>631.685</ele>
        <time>2020-08-18T09:44:15Z</time>
      </trkpt>
      <trkpt lat="45.15669" lon="3.55259">
        <ele>631.531</ele>
        <time>2020-08-18T09:44:16Z</time>
      </trkpt>
      <trkpt lat="45.15669" lon="3.55259">
        <ele>631.507</ele>
        <time>2020-08-18T09:44:17Z</time>
      </trkpt>
      <trkpt lat="45.15669" lon="3.55259">
        <ele>630.943</ele>
        <time>2020-08-18T09:44:19Z</time>
      </trkpt>
      <trkpt lat="45.15669" lon="3.55259">
        <ele>631.142</ele>
        <time>2020-08-18T09:44:20Z</time>
      </trkpt>
      <trkpt lat="45.15669" lon="3.55259">
        <ele>631.205</ele>
        <time>2020-08-18T09:44:21Z</time>
      </trkpt>
      <trkpt lat="45.15668" lon="3.55257">
        <ele>631.807</ele>
        <time>2020-08-18T09:46:09Z</time>
      </trkpt>
      <trkpt lat="45.15667" lon="3.55257">
        <ele>631.903</ele>
        <time>2020-08-18T09:46:10Z</time>
      </trkpt>
      <trkpt lat="45.15667" lon="3.55257">
        <ele>631.8</ele>
        <time>2020-08-18T09:46:11Z</time>
      </trkpt>
      <trkpt lat="45.15667" lon="3.55257">
        <ele>632.312</ele>
        <time>2020-08-18T09:46:40Z</time>
      </trkpt>
      <trkpt lat="45.15664" lon="3.55257">
        <ele>632.364</ele>
        <time>2020-08-18T09:46:41Z</time>
      </trkpt>
      <trkpt lat="45.15664" lon="3.55257">
        <ele>632.55</ele>
        <time>2020-08-18T09:46:42Z</time>
      </trkpt>
      <trkpt lat="45.15664" lon="3.55257">
        <ele>632.588</ele>
        <time>2020-08-18T09:46:48Z</time>
      </trkpt>
      <trkpt lat="45.15664" lon="3.55257">
        <ele>633.348</ele>
        <time>2020-08-18T09:46:49Z</time>
      </trkpt>
      <trkpt lat="45.15664" lon="3.55256">
        <ele>633.706</ele>
        <time>2020-08-18T09:46:51Z</time>
      </trkpt>
      <trkpt lat="45.15664" lon="3.55256">
        <ele>633.706</ele>
        <time>2020-08-18T09:46:51Z</time>
      </trkpt>
      <trkpt lat="45.15663" lon="3.55256">
        <ele>633.905</ele>
        <time>2020-08-18T09:46:52Z</time>
      </trkpt>
      <trkpt lat="45.15663" lon="3.55256">
        <ele>633.832</ele>
        <time>2020-08-18T09:46:53Z</time>
      </trkpt>
      <trkpt lat="45.15663" lon="3.55256">
        <ele>633.91</ele>
        <time>2020-08-18T09:46:54Z</time>
      </trkpt>
      <trkpt lat="45.15663" lon="3.55256">
        <ele>634.138</ele>
        <time>2020-08-18T09:47:18Z</time>
      </trkpt>
      <trkpt lat="45.15664" lon="3.55254">
        <ele>633.943</ele>
        <time>2020-08-18T09:47:19Z</time>
      </trkpt>
      <trkpt lat="45.15664" lon="3.55254">
        <ele>633.817</ele>
        <time>2020-08-18T09:47:20Z</time>
      </trkpt>
      <trkpt lat="45.15664" lon="3.55253">
        <ele>633.256</ele>
        <time>2020-08-18T09:47:21Z</time>
      </trkpt>
      <trkpt lat="45.15664" lon="3.55252">
        <ele>633.516</ele>
        <time>2020-08-18T09:47:22Z</time>
      </trkpt>
      <trkpt lat="45.15664" lon="3.55251">
        <ele>632.328</ele>
        <time>2020-08-18T09:47:23Z</time>
      </trkpt>
      <trkpt lat="45.15663" lon="3.55239">
        <ele>632.417</ele>
        <time>2020-08-18T09:47:32Z</time>
      </trkpt>
      <trkpt lat="45.15658" lon="3.55229">
        <ele>631.285</ele>
        <time>2020-08-18T09:47:40Z</time>
      </trkpt>
      <trkpt lat="45.15655" lon="3.55225">
        <ele>631.396</ele>
        <time>2020-08-18T09:47:43Z</time>
      </trkpt>
      <trkpt lat="45.15649" lon="3.55222">
        <ele>630.611</ele>
        <time>2020-08-18T09:47:48Z</time>
      </trkpt>
      <trkpt lat="45.15628" lon="3.55219">
        <ele>630.311</ele>
        <time>2020-08-18T09:48:05Z</time>
      </trkpt>
      <trkpt lat="45.15572" lon="3.55225">
        <ele>630.693</ele>
        <time>2020-08-18T09:48:51Z</time>
      </trkpt>
      <trkpt lat="45.15566" lon="3.55223">
        <ele>630.088</ele>
        <time>2020-08-18T09:48:56Z</time>
      </trkpt>
      <trkpt lat="45.15522" lon="3.55249">
        <ele>631.715</ele>
        <time>2020-08-18T09:49:32Z</time>
      </trkpt>
      <trkpt lat="45.15518" lon="3.55253">
        <ele>630.949</ele>
        <time>2020-08-18T09:49:36Z</time>
      </trkpt>
      <trkpt lat="45.15517" lon="3.55257">
        <ele>630.969</ele>
        <time>2020-08-18T09:49:39Z</time>
      </trkpt>
      <trkpt lat="45.1551" lon="3.55282">
        <ele>631.985</ele>
        <time>2020-08-18T09:49:53Z</time>
      </trkpt>
      <trkpt lat="45.15507" lon="3.55285">
        <ele>632.449</ele>
        <time>2020-08-18T09:49:55Z</time>
      </trkpt>
      <trkpt lat="45.155" lon="3.55288">
        <ele>632.393</ele>
        <time>2020-08-18T09:50:00Z</time>
      </trkpt>
      <trkpt lat="45.15414" lon="3.55296">
        <ele>634.103</ele>
        <time>2020-08-18T09:51:08Z</time>
      </trkpt>
      <trkpt lat="45.15335" lon="3.55325">
        <ele>633.788</ele>
        <time>2020-08-18T09:52:16Z</time>
      </trkpt>
      <trkpt lat="45.15279" lon="3.55318">
        <ele>635.809</ele>
        <time>2020-08-18T09:52:58Z</time>
      </trkpt>
      <trkpt lat="45.15223" lon="3.55316">
        <ele>635.611</ele>
        <time>2020-08-18T09:53:41Z</time>
      </trkpt>
      <trkpt lat="45.15209" lon="3.55323">
        <ele>635.558</ele>
        <time>2020-08-18T09:53:53Z</time>
      </trkpt>
      <trkpt lat="45.15204" lon="3.55334">
        <ele>636.071</ele>
        <time>2020-08-18T09:54:02Z</time>
      </trkpt>
      <trkpt lat="45.15205" lon="3.5534">
        <ele>637.063</ele>
        <time>2020-08-18T09:54:07Z</time>
      </trkpt>
      <trkpt lat="45.15208" lon="3.55355">
        <ele>637.506</ele>
        <time>2020-08-18T09:54:16Z</time>
      </trkpt>
      <trkpt lat="45.15217" lon="3.55376">
        <ele>638.407</ele>
        <time>2020-08-18T09:54:32Z</time>
      </trkpt>
      <trkpt lat="45.15219" lon="3.55384">
        <ele>638.626</ele>
        <time>2020-08-18T09:54:37Z</time>
      </trkpt>
      <trkpt lat="45.15232" lon="3.55407">
        <ele>640.707</ele>
        <time>2020-08-18T09:54:53Z</time>
      </trkpt>
      <trkpt lat="45.15242" lon="3.55433">
        <ele>641.315</ele>
        <time>2020-08-18T09:55:10Z</time>
      </trkpt>
      <trkpt lat="45.15244" lon="3.55441">
        <ele>641.056</ele>
        <time>2020-08-18T09:55:15Z</time>
      </trkpt>
      <trkpt lat="45.15244" lon="3.55446">
        <ele>640.831</ele>
        <time>2020-08-18T09:55:19Z</time>
      </trkpt>
      <trkpt lat="45.15244" lon="3.55448">
        <ele>640.65</ele>
        <time>2020-08-18T09:55:21Z</time>
      </trkpt>
      <trkpt lat="45.15246" lon="3.55465">
        <ele>640.324</ele>
        <time>2020-08-18T09:55:30Z</time>
      </trkpt>
      <trkpt lat="45.15248" lon="3.55481">
        <ele>640.768</ele>
        <time>2020-08-18T09:55:39Z</time>
      </trkpt>
      <trkpt lat="45.15255" lon="3.55526">
        <ele>640.22</ele>
        <time>2020-08-18T09:56:06Z</time>
      </trkpt>
      <trkpt lat="45.15256" lon="3.55531">
        <ele>640.521</ele>
        <time>2020-08-18T09:56:09Z</time>
      </trkpt>
      <trkpt lat="45.15256" lon="3.55532">
        <ele>640.41</ele>
        <time>2020-08-18T09:56:11Z</time>
      </trkpt>
      <trkpt lat="45.15256" lon="3.55533">
        <ele>640.404</ele>
        <time>2020-08-18T09:56:13Z</time>
      </trkpt>
      <trkpt lat="45.15256" lon="3.55533">
        <ele>640.209</ele>
        <time>2020-08-18T09:56:56Z</time>
      </trkpt>
      <trkpt lat="45.15256" lon="3.55535">
        <ele>640.167</ele>
        <time>2020-08-18T09:56:57Z</time>
      </trkpt>
      <trkpt lat="45.15257" lon="3.55535">
        <ele>640.281</ele>
        <time>2020-08-18T09:56:59Z</time>
      </trkpt>
      <trkpt lat="45.15258" lon="3.55535">
        <ele>640.382</ele>
        <time>2020-08-18T09:57:00Z</time>
      </trkpt>
      <trkpt lat="45.15259" lon="3.55536">
        <ele>640.213</ele>
        <time>2020-08-18T09:57:01Z</time>
      </trkpt>
      <trkpt lat="45.15261" lon="3.5554">
        <ele>640.277</ele>
        <time>2020-08-18T09:57:03Z</time>
      </trkpt>
      <trkpt lat="45.15263" lon="3.55546">
        <ele>638.213</ele>
        <time>2020-08-18T09:57:06Z</time>
      </trkpt>
      <trkpt lat="45.15266" lon="3.55554">
        <ele>637.751</ele>
        <time>2020-08-18T09:57:12Z</time>
      </trkpt>
      <trkpt lat="45.15269" lon="3.5556">
        <ele>637.501</ele>
        <time>2020-08-18T09:57:17Z</time>
      </trkpt>
      <trkpt lat="45.15296" lon="3.55645">
        <ele>638.779</ele>
        <time>2020-08-18T09:58:04Z</time>
      </trkpt>
      <trkpt lat="45.153" lon="3.55655">
        <ele>638.536</ele>
        <time>2020-08-18T09:58:11Z</time>
      </trkpt>
      <trkpt lat="45.15306" lon="3.55679">
        <ele>638.708</ele>
        <time>2020-08-18T09:58:24Z</time>
      </trkpt>
      <trkpt lat="45.15309" lon="3.55692">
        <ele>639.122</ele>
        <time>2020-08-18T09:58:31Z</time>
      </trkpt>
      <trkpt lat="45.15315" lon="3.55714">
        <ele>640.442</ele>
        <time>2020-08-18T09:58:44Z</time>
      </trkpt>
      <trkpt lat="45.15318" lon="3.5573">
        <ele>641.578</ele>
        <time>2020-08-18T09:58:51Z</time>
      </trkpt>
      <trkpt lat="45.15334" lon="3.55781">
        <ele>642.617</ele>
        <time>2020-08-18T09:59:19Z</time>
      </trkpt>
      <trkpt lat="45.15334" lon="3.55792">
        <ele>642.306</ele>
        <time>2020-08-18T09:59:25Z</time>
      </trkpt>
      <trkpt lat="45.15334" lon="3.55793">
        <ele>642.145</ele>
        <time>2020-08-18T09:59:26Z</time>
      </trkpt>
      <trkpt lat="45.15334" lon="3.55794">
        <ele>642.11</ele>
        <time>2020-08-18T09:59:30Z</time>
      </trkpt>
      <trkpt lat="45.15334" lon="3.55794">
        <ele>642.28</ele>
        <time>2020-08-18T09:59:31Z</time>
      </trkpt>
      <trkpt lat="45.15334" lon="3.55794">
        <ele>642.564</ele>
        <time>2020-08-18T09:59:34Z</time>
      </trkpt>
      <trkpt lat="45.15335" lon="3.55795">
        <ele>642.685</ele>
        <time>2020-08-18T09:59:35Z</time>
      </trkpt>
      <trkpt lat="45.15335" lon="3.55795">
        <ele>642.685</ele>
        <time>2020-08-18T09:59:35Z</time>
      </trkpt>
      <trkpt lat="45.15335" lon="3.55795">
        <ele>642.705</ele>
        <time>2020-08-18T09:59:36Z</time>
      </trkpt>
      <trkpt lat="45.15335" lon="3.55795">
        <ele>642.676</ele>
        <time>2020-08-18T09:59:56Z</time>
      </trkpt>
      <trkpt lat="45.15335" lon="3.55798">
        <ele>642.765</ele>
        <time>2020-08-18T09:59:58Z</time>
      </trkpt>
      <trkpt lat="45.15336" lon="3.55802">
        <ele>641.532</ele>
        <time>2020-08-18T10:00:01Z</time>
      </trkpt>
      <trkpt lat="45.15344" lon="3.55815">
        <ele>641.988</ele>
        <time>2020-08-18T10:00:13Z</time>
      </trkpt>
      <trkpt lat="45.15347" lon="3.5582">
        <ele>641.879</ele>
        <time>2020-08-18T10:00:17Z</time>
      </trkpt>
      <trkpt lat="45.15354" lon="3.55833">
        <ele>642.249</ele>
        <time>2020-08-18T10:00:25Z</time>
      </trkpt>
      <trkpt lat="45.15363" lon="3.5584">
        <ele>643.397</ele>
        <time>2020-08-18T10:00:36Z</time>
      </trkpt>
      <trkpt lat="45.15363" lon="3.55841">
        <ele>643.322</ele>
        <time>2020-08-18T10:00:37Z</time>
      </trkpt>
      <trkpt lat="45.15363" lon="3.55842">
        <ele>643.415</ele>
        <time>2020-08-18T10:00:39Z</time>
      </trkpt>
      <trkpt lat="45.15363" lon="3.55842">
        <ele>643.415</ele>
        <time>2020-08-18T10:00:39Z</time>
      </trkpt>
      <trkpt lat="45.15362" lon="3.55843">
        <ele>643.286</ele>
        <time>2020-08-18T10:00:40Z</time>
      </trkpt>
      <trkpt lat="45.15362" lon="3.55844">
        <ele>643.69</ele>
        <time>2020-08-18T10:00:42Z</time>
      </trkpt>
      <trkpt lat="45.15363" lon="3.55844">
        <ele>643.578</ele>
        <time>2020-08-18T10:00:45Z</time>
      </trkpt>
      <trkpt lat="45.15363" lon="3.55844">
        <ele>643.43</ele>
        <time>2020-08-18T10:00:51Z</time>
      </trkpt>
      <trkpt lat="45.15363" lon="3.55844">
        <ele>643.062</ele>
        <time>2020-08-18T10:00:52Z</time>
      </trkpt>
      <trkpt lat="45.15367" lon="3.5585">
        <ele>643.108</ele>
        <time>2020-08-18T10:00:56Z</time>
      </trkpt>
      <trkpt lat="45.15383" lon="3.55881">
        <ele>642.168</ele>
        <time>2020-08-18T10:01:17Z</time>
      </trkpt>
      <trkpt lat="45.15384" lon="3.55883">
        <ele>642.088</ele>
        <time>2020-08-18T10:01:21Z</time>
      </trkpt>
      <trkpt lat="45.15383" lon="3.55888">
        <ele>641.954</ele>
        <time>2020-08-18T10:01:25Z</time>
      </trkpt>
      <trkpt lat="45.15381" lon="3.55899">
        <ele>642.123</ele>
        <time>2020-08-18T10:01:32Z</time>
      </trkpt>
      <trkpt lat="45.1538" lon="3.55902">
        <ele>642.519</ele>
        <time>2020-08-18T10:01:35Z</time>
      </trkpt>
      <trkpt lat="45.1538" lon="3.55904">
        <ele>642.566</ele>
        <time>2020-08-18T10:01:37Z</time>
      </trkpt>
      <trkpt lat="45.15379" lon="3.55908">
        <ele>642.795</ele>
        <time>2020-08-18T10:01:40Z</time>
      </trkpt>
      <trkpt lat="45.15379" lon="3.55911">
        <ele>642.86</ele>
        <time>2020-08-18T10:01:42Z</time>
      </trkpt>
      <trkpt lat="45.15378" lon="3.55918">
        <ele>642.605</ele>
        <time>2020-08-18T10:01:46Z</time>
      </trkpt>
      <trkpt lat="45.15375" lon="3.55937">
        <ele>642.873</ele>
        <time>2020-08-18T10:01:58Z</time>
      </trkpt>
      <trkpt lat="45.15372" lon="3.55958">
        <ele>643.462</ele>
        <time>2020-08-18T10:02:08Z</time>
      </trkpt>
      <trkpt lat="45.15371" lon="3.55965">
        <ele>643.481</ele>
        <time>2020-08-18T10:02:12Z</time>
      </trkpt>
      <trkpt lat="45.15371" lon="3.55966">
        <ele>643.753</ele>
        <time>2020-08-18T10:02:13Z</time>
      </trkpt>
      <trkpt lat="45.1537" lon="3.55972">
        <ele>644.235</ele>
        <time>2020-08-18T10:02:17Z</time>
      </trkpt>
      <trkpt lat="45.1537" lon="3.55976">
        <ele>644.36</ele>
        <time>2020-08-18T10:02:20Z</time>
      </trkpt>
      <trkpt lat="45.15371" lon="3.55976">
        <ele>644.614</ele>
        <time>2020-08-18T10:02:22Z</time>
      </trkpt>
      <trkpt lat="45.15371" lon="3.55976">
        <ele>644.544</ele>
        <time>2020-08-18T10:02:23Z</time>
      </trkpt>
      <trkpt lat="45.15371" lon="3.55976">
        <ele>643.9</ele>
        <time>2020-08-18T10:02:26Z</time>
      </trkpt>
      <trkpt lat="45.15371" lon="3.55976">
        <ele>644.18</ele>
        <time>2020-08-18T10:02:27Z</time>
      </trkpt>
      <trkpt lat="45.15371" lon="3.55976">
        <ele>644.165</ele>
        <time>2020-08-18T10:02:28Z</time>
      </trkpt>
      <trkpt lat="45.15371" lon="3.55976">
        <ele>644.165</ele>
        <time>2020-08-18T10:02:28Z</time>
      </trkpt>
      <trkpt lat="45.1537" lon="3.55976">
        <ele>644.272</ele>
        <time>2020-08-18T10:02:29Z</time>
      </trkpt>
      <trkpt lat="45.1537" lon="3.55976">
        <ele>644.964</ele>
        <time>2020-08-18T10:02:30Z</time>
      </trkpt>
      <trkpt lat="45.1537" lon="3.55976">
        <ele>644.96</ele>
        <time>2020-08-18T10:02:31Z</time>
      </trkpt>
      <trkpt lat="45.1537" lon="3.55975">
        <ele>645.086</ele>
        <time>2020-08-18T10:02:32Z</time>
      </trkpt>
      <trkpt lat="45.1537" lon="3.55975">
        <ele>645.086</ele>
        <time>2020-08-18T10:02:32Z</time>
      </trkpt>
      <trkpt lat="45.1537" lon="3.55975">
        <ele>645.111</ele>
        <time>2020-08-18T10:02:33Z</time>
      </trkpt>
      <trkpt lat="45.1537" lon="3.55975">
        <ele>645.014</ele>
        <time>2020-08-18T10:03:02Z</time>
      </trkpt>
      <trkpt lat="45.15372" lon="3.55971">
        <ele>645.04</ele>
        <time>2020-08-18T10:03:03Z</time>
      </trkpt>
      <trkpt lat="45.15372" lon="3.55971">
        <ele>644.766</ele>
        <time>2020-08-18T10:03:05Z</time>
      </trkpt>
      <trkpt lat="45.15372" lon="3.55971">
        <ele>644.706</ele>
        <time>2020-08-18T10:03:50Z</time>
      </trkpt>
      <trkpt lat="45.15372" lon="3.5597">
        <ele>644.764</ele>
        <time>2020-08-18T10:03:51Z</time>
      </trkpt>
      <trkpt lat="45.15372" lon="3.5597">
        <ele>644.764</ele>
        <time>2020-08-18T10:03:51Z</time>
      </trkpt>
      <trkpt lat="45.15373" lon="3.5597">
        <ele>644.801</ele>
        <time>2020-08-18T10:03:52Z</time>
      </trkpt>
      <trkpt lat="45.15373" lon="3.55969">
        <ele>645.115</ele>
        <time>2020-08-18T10:03:53Z</time>
      </trkpt>
      <trkpt lat="45.15373" lon="3.55969">
        <ele>644.644</ele>
        <time>2020-08-18T10:03:54Z</time>
      </trkpt>
      <trkpt lat="45.15373" lon="3.55969">
        <ele>644.644</ele>
        <time>2020-08-18T10:03:54Z</time>
      </trkpt>
      <trkpt lat="45.15372" lon="3.55968">
        <ele>644.766</ele>
        <time>2020-08-18T10:03:55Z</time>
      </trkpt>
      <trkpt lat="45.15372" lon="3.55968">
        <ele>644.873</ele>
        <time>2020-08-18T10:03:56Z</time>
      </trkpt>
      <trkpt lat="45.15372" lon="3.55968">
        <ele>644.873</ele>
        <time>2020-08-18T10:03:56Z</time>
      </trkpt>
      <trkpt lat="45.15372" lon="3.55969">
        <ele>644.736</ele>
        <time>2020-08-18T10:03:57Z</time>
      </trkpt>
      <trkpt lat="45.15373" lon="3.5597">
        <ele>644.719</ele>
        <time>2020-08-18T10:03:59Z</time>
      </trkpt>
      <trkpt lat="45.15373" lon="3.5597">
        <ele>644.876</ele>
        <time>2020-08-18T10:04:00Z</time>
      </trkpt>
      <trkpt lat="45.15374" lon="3.5597">
        <ele>644.878</ele>
        <time>2020-08-18T10:04:01Z</time>
      </trkpt>
      <trkpt lat="45.15375" lon="3.55971">
        <ele>644.939</ele>
        <time>2020-08-18T10:04:02Z</time>
      </trkpt>
      <trkpt lat="45.15375" lon="3.55971">
        <ele>644.799</ele>
        <time>2020-08-18T10:04:03Z</time>
      </trkpt>
      <trkpt lat="45.15375" lon="3.55971">
        <ele>644.799</ele>
        <time>2020-08-18T10:04:03Z</time>
      </trkpt>
      <trkpt lat="45.15376" lon="3.55971">
        <ele>644.692</ele>
        <time>2020-08-18T10:04:04Z</time>
      </trkpt>
      <trkpt lat="45.15376" lon="3.55971">
        <ele>644.692</ele>
        <time>2020-08-18T10:04:04Z</time>
      </trkpt>
      <trkpt lat="45.15376" lon="3.55971">
        <ele>644.747</ele>
        <time>2020-08-18T10:04:05Z</time>
      </trkpt>
      <trkpt lat="45.15377" lon="3.55973">
        <ele>643.785</ele>
        <time>2020-08-18T10:04:09Z</time>
      </trkpt>
      <trkpt lat="45.15377" lon="3.55973">
        <ele>643.344</ele>
        <time>2020-08-18T10:04:26Z</time>
      </trkpt>
      <trkpt lat="45.15376" lon="3.55973">
        <ele>643.392</ele>
        <time>2020-08-18T10:04:27Z</time>
      </trkpt>
      <trkpt lat="45.15376" lon="3.55973">
        <ele>643.337</ele>
        <time>2020-08-18T10:04:28Z</time>
      </trkpt>
      <trkpt lat="45.15373" lon="3.55969">
        <ele>645.181</ele>
        <time>2020-08-18T10:42:16Z</time>
      </trkpt>
      <trkpt lat="45.15372" lon="3.55968">
        <ele>645.34</ele>
        <time>2020-08-18T10:42:17Z</time>
      </trkpt>
      <trkpt lat="45.15372" lon="3.55968">
        <ele>645.449</ele>
        <time>2020-08-18T10:42:18Z</time>
      </trkpt>
      <trkpt lat="45.15372" lon="3.55968">
        <ele>645.446</ele>
        <time>2020-08-18T10:42:19Z</time>
      </trkpt>
      <trkpt lat="45.15373" lon="3.55969">
        <ele>645.82</ele>
        <time>2020-08-18T10:42:20Z</time>
      </trkpt>
      <trkpt lat="45.15373" lon="3.55969">
        <ele>646.228</ele>
        <time>2020-08-18T10:42:21Z</time>
      </trkpt>
      <trkpt lat="45.15373" lon="3.55969">
        <ele>646.313</ele>
        <time>2020-08-18T10:42:22Z</time>
      </trkpt>
      <trkpt lat="45.15373" lon="3.55969">
        <ele>646.313</ele>
        <time>2020-08-18T10:42:22Z</time>
      </trkpt>
      <trkpt lat="45.15373" lon="3.55969">
        <ele>646.344</ele>
        <time>2020-08-18T10:42:23Z</time>
      </trkpt>
      <trkpt lat="45.15373" lon="3.55968">
        <ele>646.467</ele>
        <time>2020-08-18T10:42:25Z</time>
      </trkpt>
      <trkpt lat="45.15373" lon="3.55968">
        <ele>646.108</ele>
        <time>2020-08-18T10:51:53Z</time>
      </trkpt>
      <trkpt lat="45.15374" lon="3.55967">
        <ele>646.273</ele>
        <time>2020-08-18T10:51:54Z</time>
      </trkpt>
      <trkpt lat="45.15374" lon="3.55967">
        <ele>646.243</ele>
        <time>2020-08-18T10:51:55Z</time>
      </trkpt>
      <trkpt lat="45.15374" lon="3.55967">
        <ele>646.25</ele>
        <time>2020-08-18T10:51:57Z</time>
      </trkpt>
      <trkpt lat="45.15374" lon="3.55968">
        <ele>645.984</ele>
        <time>2020-08-18T10:51:58Z</time>
      </trkpt>
      <trkpt lat="45.15374" lon="3.55968">
        <ele>645.528</ele>
        <time>2020-08-18T10:51:59Z</time>
      </trkpt>
      <trkpt lat="45.15374" lon="3.55968">
        <ele>645.528</ele>
        <time>2020-08-18T10:51:59Z</time>
      </trkpt>
      <trkpt lat="45.15374" lon="3.55968">
        <ele>645.756</ele>
        <time>2020-08-18T10:52:00Z</time>
      </trkpt>
      <trkpt lat="45.15374" lon="3.55968">
        <ele>645.854</ele>
        <time>2020-08-18T10:52:01Z</time>
      </trkpt>
      <trkpt lat="45.15374" lon="3.55968">
        <ele>646.157</ele>
        <time>2020-08-18T10:53:17Z</time>
      </trkpt>
      <trkpt lat="45.15374" lon="3.55969">
        <ele>646.33</ele>
        <time>2020-08-18T10:53:18Z</time>
      </trkpt>
      <trkpt lat="45.15374" lon="3.55969">
        <ele>646.272</ele>
        <time>2020-08-18T10:53:19Z</time>
      </trkpt>
      <trkpt lat="45.15374" lon="3.55969">
        <ele>645.254</ele>
        <time>2020-08-18T10:53:23Z</time>
      </trkpt>
      <trkpt lat="45.15373" lon="3.55968">
        <ele>645.011</ele>
        <time>2020-08-18T10:53:24Z</time>
      </trkpt>
      <trkpt lat="45.15373" lon="3.55968">
        <ele>645.023</ele>
        <time>2020-08-18T10:53:25Z</time>
      </trkpt>
      <trkpt lat="45.15373" lon="3.55968">
        <ele>644.903</ele>
        <time>2020-08-18T10:53:35Z</time>
      </trkpt>
      <trkpt lat="45.15373" lon="3.5597">
        <ele>645.608</ele>
        <time>2020-08-18T10:53:36Z</time>
      </trkpt>
      <trkpt lat="45.15373" lon="3.5597">
        <ele>645.603</ele>
        <time>2020-08-18T10:53:37Z</time>
      </trkpt>
      <trkpt lat="45.15373" lon="3.5597">
        <ele>645.637</ele>
        <time>2020-08-18T10:54:05Z</time>
      </trkpt>
      <trkpt lat="45.15373" lon="3.55971">
        <ele>645.464</ele>
        <time>2020-08-18T10:54:06Z</time>
      </trkpt>
      <trkpt lat="45.15372" lon="3.55971">
        <ele>645.322</ele>
        <time>2020-08-18T10:54:07Z</time>
      </trkpt>
      <trkpt lat="45.15372" lon="3.55971">
        <ele>645.418</ele>
        <time>2020-08-18T10:54:08Z</time>
      </trkpt>
      <trkpt lat="45.15372" lon="3.55971">
        <ele>645.461</ele>
        <time>2020-08-18T10:54:09Z</time>
      </trkpt>
      <trkpt lat="45.15373" lon="3.55971">
        <ele>645.154</ele>
        <time>2020-08-18T10:54:10Z</time>
      </trkpt>
      <trkpt lat="45.15373" lon="3.55971">
        <ele>645.499</ele>
        <time>2020-08-18T10:54:11Z</time>
      </trkpt>
      <trkpt lat="45.15374" lon="3.5597">
        <ele>645.186</ele>
        <time>2020-08-18T10:54:12Z</time>
      </trkpt>
      <trkpt lat="45.15374" lon="3.5597">
        <ele>644.92</ele>
        <time>2020-08-18T10:54:13Z</time>
      </trkpt>
      <trkpt lat="45.15374" lon="3.5597">
        <ele>644.92</ele>
        <time>2020-08-18T10:54:13Z</time>
      </trkpt>
      <trkpt lat="45.15374" lon="3.5597">
        <ele>644.8</ele>
        <time>2020-08-18T10:54:14Z</time>
      </trkpt>
      <trkpt lat="45.15374" lon="3.55971">
        <ele>644.559</ele>
        <time>2020-08-18T10:54:17Z</time>
      </trkpt>
      <trkpt lat="45.15374" lon="3.55971">
        <ele>644.16</ele>
        <time>2020-08-18T10:58:36Z</time>
      </trkpt>
      <trkpt lat="45.15372" lon="3.55971">
        <ele>644.277</ele>
        <time>2020-08-18T10:58:37Z</time>
      </trkpt>
      <trkpt lat="45.15372" lon="3.55971">
        <ele>644.205</ele>
        <time>2020-08-18T10:58:38Z</time>
      </trkpt>
      <trkpt lat="45.15372" lon="3.55971">
        <ele>644.268</ele>
        <time>2020-08-18T10:58:39Z</time>
      </trkpt>
      <trkpt lat="45.15372" lon="3.55971">
        <ele>644.268</ele>
        <time>2020-08-18T10:58:39Z</time>
      </trkpt>
      <trkpt lat="45.15372" lon="3.55972">
        <ele>644.379</ele>
        <time>2020-08-18T10:58:40Z</time>
      </trkpt>
      <trkpt lat="45.15371" lon="3.55974">
        <ele>644.748</ele>
        <time>2020-08-18T10:58:42Z</time>
      </trkpt>
      <trkpt lat="45.15371" lon="3.55975">
        <ele>645.168</ele>
        <time>2020-08-18T10:58:43Z</time>
      </trkpt>
      <trkpt lat="45.1537" lon="3.55978">
        <ele>644.1</ele>
        <time>2020-08-18T10:58:47Z</time>
      </trkpt>
      <trkpt lat="45.15371" lon="3.55978">
        <ele>643.78</ele>
        <time>2020-08-18T10:58:50Z</time>
      </trkpt>
      <trkpt lat="45.15371" lon="3.55978">
        <ele>644.697</ele>
        <time>2020-08-18T10:58:55Z</time>
      </trkpt>
      <trkpt lat="45.15371" lon="3.5598">
        <ele>644.915</ele>
        <time>2020-08-18T10:58:56Z</time>
      </trkpt>
      <trkpt lat="45.15371" lon="3.5598">
        <ele>645.058</ele>
        <time>2020-08-18T10:58:57Z</time>
      </trkpt>
      <trkpt lat="45.15371" lon="3.5598">
        <ele>645.206</ele>
        <time>2020-08-18T10:59:50Z</time>
      </trkpt>
      <trkpt lat="45.15371" lon="3.55983">
        <ele>645.358</ele>
        <time>2020-08-18T10:59:51Z</time>
      </trkpt>
      <trkpt lat="45.15371" lon="3.55983">
        <ele>645.248</ele>
        <time>2020-08-18T10:59:52Z</time>
      </trkpt>
      <trkpt lat="45.15371" lon="3.55983">
        <ele>645.404</ele>
        <time>2020-08-18T10:59:56Z</time>
      </trkpt>
      <trkpt lat="45.1537" lon="3.55983">
        <ele>645.763</ele>
        <time>2020-08-18T10:59:57Z</time>
      </trkpt>
      <trkpt lat="45.1537" lon="3.55985">
        <ele>645.481</ele>
        <time>2020-08-18T11:00:00Z</time>
      </trkpt>
      <trkpt lat="45.1537" lon="3.55985">
        <ele>646.097</ele>
        <time>2020-08-18T11:00:25Z</time>
      </trkpt>
      <trkpt lat="45.15371" lon="3.55985">
        <ele>646.15</ele>
        <time>2020-08-18T11:00:26Z</time>
      </trkpt>
      <trkpt lat="45.15371" lon="3.55985">
        <ele>646.162</ele>
        <time>2020-08-18T11:00:27Z</time>
      </trkpt>
      <trkpt lat="45.15371" lon="3.55985">
        <ele>646.162</ele>
        <time>2020-08-18T11:00:27Z</time>
      </trkpt>
      <trkpt lat="45.15371" lon="3.55985">
        <ele>646.005</ele>
        <time>2020-08-18T11:00:28Z</time>
      </trkpt>
      <trkpt lat="45.15371" lon="3.55985">
        <ele>645.967</ele>
        <time>2020-08-18T11:00:29Z</time>
      </trkpt>
      <trkpt lat="45.15371" lon="3.55985">
        <ele>645.967</ele>
        <time>2020-08-18T11:00:29Z</time>
      </trkpt>
      <trkpt lat="45.15372" lon="3.55984">
        <ele>645.901</ele>
        <time>2020-08-18T11:00:30Z</time>
      </trkpt>
      <trkpt lat="45.15372" lon="3.55984">
        <ele>646.005</ele>
        <time>2020-08-18T11:00:32Z</time>
      </trkpt>
      <trkpt lat="45.15372" lon="3.55984">
        <ele>646.005</ele>
        <time>2020-08-18T11:00:32Z</time>
      </trkpt>
      <trkpt lat="45.15372" lon="3.55983">
        <ele>645.978</ele>
        <time>2020-08-18T11:00:33Z</time>
      </trkpt>
      <trkpt lat="45.15372" lon="3.55983">
        <ele>645.563</ele>
        <time>2020-08-18T11:00:34Z</time>
      </trkpt>
      <trkpt lat="45.15372" lon="3.55983">
        <ele>645.551</ele>
        <time>2020-08-18T11:00:35Z</time>
      </trkpt>
      <trkpt lat="45.15372" lon="3.55983">
        <ele>645.608</ele>
        <time>2020-08-18T11:00:46Z</time>
      </trkpt>
      <trkpt lat="45.15372" lon="3.55982">
        <ele>645.302</ele>
        <time>2020-08-18T11:00:47Z</time>
      </trkpt>
      <trkpt lat="45.15374" lon="3.55982">
        <ele>647.045</ele>
        <time>2020-08-18T11:00:51Z</time>
      </trkpt>
      <trkpt lat="45.15374" lon="3.55982">
        <ele>647.294</ele>
        <time>2020-08-18T11:00:55Z</time>
      </trkpt>
      <trkpt lat="45.15373" lon="3.55982">
        <ele>648.142</ele>
        <time>2020-08-18T11:00:56Z</time>
      </trkpt>
      <trkpt lat="45.15373" lon="3.55982">
        <ele>648.325</ele>
        <time>2020-08-18T11:00:58Z</time>
      </trkpt>
      <trkpt lat="45.15373" lon="3.55982">
        <ele>648.628</ele>
        <time>2020-08-18T11:01:05Z</time>
      </trkpt>
      <trkpt lat="45.15371" lon="3.55984">
        <ele>648.192</ele>
        <time>2020-08-18T11:01:06Z</time>
      </trkpt>
      <trkpt lat="45.1537" lon="3.55984">
        <ele>648.07</ele>
        <time>2020-08-18T11:01:07Z</time>
      </trkpt>
      <trkpt lat="45.15367" lon="3.55983">
        <ele>647.406</ele>
        <time>2020-08-18T11:01:11Z</time>
      </trkpt>
      <trkpt lat="45.15367" lon="3.55983">
        <ele>647.521</ele>
        <time>2020-08-18T11:01:12Z</time>
      </trkpt>
      <trkpt lat="45.15367" lon="3.55983">
        <ele>648.077</ele>
        <time>2020-08-18T11:01:21Z</time>
      </trkpt>
      <trkpt lat="45.15367" lon="3.55984">
        <ele>648.197</ele>
        <time>2020-08-18T11:01:22Z</time>
      </trkpt>
      <trkpt lat="45.15367" lon="3.55985">
        <ele>648.831</ele>
        <time>2020-08-18T11:01:24Z</time>
      </trkpt>
      <trkpt lat="45.15367" lon="3.55985">
        <ele>649.007</ele>
        <time>2020-08-18T11:01:26Z</time>
      </trkpt>
      <trkpt lat="45.15367" lon="3.55985">
        <ele>648.608</ele>
        <time>2020-08-18T11:01:27Z</time>
      </trkpt>
      <trkpt lat="45.15366" lon="3.55986">
        <ele>648.158</ele>
        <time>2020-08-18T11:01:28Z</time>
      </trkpt>
      <trkpt lat="45.15366" lon="3.55986">
        <ele>648.143</ele>
        <time>2020-08-18T11:01:29Z</time>
      </trkpt>
      <trkpt lat="45.15366" lon="3.55986">
        <ele>648.143</ele>
        <time>2020-08-18T11:01:29Z</time>
      </trkpt>
      <trkpt lat="45.15366" lon="3.55986">
        <ele>648.176</ele>
        <time>2020-08-18T11:01:30Z</time>
      </trkpt>
      <trkpt lat="45.15366" lon="3.55987">
        <ele>647.849</ele>
        <time>2020-08-18T11:01:32Z</time>
      </trkpt>
      <trkpt lat="45.15366" lon="3.55987">
        <ele>647.441</ele>
        <time>2020-08-18T11:01:40Z</time>
      </trkpt>
      <trkpt lat="45.15367" lon="3.55987">
        <ele>647.076</ele>
        <time>2020-08-18T11:01:41Z</time>
      </trkpt>
      <trkpt lat="45.15367" lon="3.55986">
        <ele>647.676</ele>
        <time>2020-08-18T11:01:44Z</time>
      </trkpt>
      <trkpt lat="45.15367" lon="3.55986">
        <ele>645.927</ele>
        <time>2020-08-18T11:01:49Z</time>
      </trkpt>
      <trkpt lat="45.15369" lon="3.55981">
        <ele>645.93</ele>
        <time>2020-08-18T11:01:50Z</time>
      </trkpt>
      <trkpt lat="45.15369" lon="3.55979">
        <ele>645.842</ele>
        <time>2020-08-18T11:01:52Z</time>
      </trkpt>
      <trkpt lat="45.15369" lon="3.55979">
        <ele>645.697</ele>
        <time>2020-08-18T11:02:01Z</time>
      </trkpt>
      <trkpt lat="45.15371" lon="3.55975">
        <ele>645.783</ele>
        <time>2020-08-18T11:02:02Z</time>
      </trkpt>
      <trkpt lat="45.15371" lon="3.55975">
        <ele>646.249</ele>
        <time>2020-08-18T11:02:05Z</time>
      </trkpt>
      <trkpt lat="45.15371" lon="3.55975">
        <ele>646.319</ele>
        <time>2020-08-18T11:02:27Z</time>
      </trkpt>
      <trkpt lat="45.15372" lon="3.55979">
        <ele>646.384</ele>
        <time>2020-08-18T11:02:28Z</time>
      </trkpt>
      <trkpt lat="45.15371" lon="3.55979">
        <ele>646.597</ele>
        <time>2020-08-18T11:02:30Z</time>
      </trkpt>
      <trkpt lat="45.15371" lon="3.55979">
        <ele>646.719</ele>
        <time>2020-08-18T11:02:35Z</time>
      </trkpt>
      <trkpt lat="45.15372" lon="3.55982">
        <ele>646.305</ele>
        <time>2020-08-18T11:02:36Z</time>
      </trkpt>
      <trkpt lat="45.15372" lon="3.55982">
        <ele>646.356</ele>
        <time>2020-08-18T11:02:38Z</time>
      </trkpt>
      <trkpt lat="45.15372" lon="3.55982">
        <ele>646.669</ele>
        <time>2020-08-18T11:04:20Z</time>
      </trkpt>
      <trkpt lat="45.15371" lon="3.55981">
        <ele>646.13</ele>
        <time>2020-08-18T11:04:21Z</time>
      </trkpt>
      <trkpt lat="45.15371" lon="3.55981">
        <ele>646.073</ele>
        <time>2020-08-18T11:04:22Z</time>
      </trkpt>
      <trkpt lat="45.15371" lon="3.55981">
        <ele>646.057</ele>
        <time>2020-08-18T11:04:38Z</time>
      </trkpt>
      <trkpt lat="45.15372" lon="3.5598">
        <ele>645.642</ele>
        <time>2020-08-18T11:04:39Z</time>
      </trkpt>
      <trkpt lat="45.15372" lon="3.5598">
        <ele>645.642</ele>
        <time>2020-08-18T11:04:39Z</time>
      </trkpt>
      <trkpt lat="45.15372" lon="3.5598">
        <ele>645.662</ele>
        <time>2020-08-18T11:04:40Z</time>
      </trkpt>
      <trkpt lat="45.15372" lon="3.5598">
        <ele>644.893</ele>
        <time>2020-08-18T11:05:37Z</time>
      </trkpt>
      <trkpt lat="45.15371" lon="3.55979">
        <ele>645.067</ele>
        <time>2020-08-18T11:05:38Z</time>
      </trkpt>
      <trkpt lat="45.15371" lon="3.55979">
        <ele>644.712</ele>
        <time>2020-08-18T11:05:39Z</time>
      </trkpt>
      <trkpt lat="45.15371" lon="3.55979">
        <ele>644.669</ele>
        <time>2020-08-18T11:05:40Z</time>
      </trkpt>
      <trkpt lat="45.15371" lon="3.55979">
        <ele>644.711</ele>
        <time>2020-08-18T11:05:41Z</time>
      </trkpt>
      <trkpt lat="45.15371" lon="3.55979">
        <ele>644.638</ele>
        <time>2020-08-18T11:06:11Z</time>
      </trkpt>
      <trkpt lat="45.15372" lon="3.5598">
        <ele>644.532</ele>
        <time>2020-08-18T11:06:12Z</time>
      </trkpt>
      <trkpt lat="45.15372" lon="3.5598">
        <ele>644.596</ele>
        <time>2020-08-18T11:06:13Z</time>
      </trkpt>
      <trkpt lat="45.15372" lon="3.5598">
        <ele>645.743</ele>
        <time>2020-08-18T11:07:07Z</time>
      </trkpt>
      <trkpt lat="45.1537" lon="3.55983">
        <ele>645.8</ele>
        <time>2020-08-18T11:07:08Z</time>
      </trkpt>
      <trkpt lat="45.1537" lon="3.55983">
        <ele>645.8</ele>
        <time>2020-08-18T11:07:08Z</time>
      </trkpt>
      <trkpt lat="45.1537" lon="3.55983">
        <ele>645.929</ele>
        <time>2020-08-18T11:07:09Z</time>
      </trkpt>
      <trkpt lat="45.1537" lon="3.55983">
        <ele>645.26</ele>
        <time>2020-08-18T11:07:34Z</time>
      </trkpt>
      <trkpt lat="45.1537" lon="3.55982">
        <ele>645.259</ele>
        <time>2020-08-18T11:07:35Z</time>
      </trkpt>
      <trkpt lat="45.1537" lon="3.55982">
        <ele>645.257</ele>
        <time>2020-08-18T11:07:36Z</time>
      </trkpt>
      <trkpt lat="45.1537" lon="3.55982">
        <ele>645.091</ele>
        <time>2020-08-18T11:08:00Z</time>
      </trkpt>
      <trkpt lat="45.1537" lon="3.55982">
        <ele>645.149</ele>
        <time>2020-08-18T11:08:01Z</time>
      </trkpt>
      <trkpt lat="45.1537" lon="3.55982">
        <ele>644.982</ele>
        <time>2020-08-18T11:08:02Z</time>
      </trkpt>
      <trkpt lat="45.1537" lon="3.55982">
        <ele>645.183</ele>
        <time>2020-08-18T11:08:32Z</time>
      </trkpt>
      <trkpt lat="45.15371" lon="3.55983">
        <ele>645.312</ele>
        <time>2020-08-18T11:08:33Z</time>
      </trkpt>
      <trkpt lat="45.15371" lon="3.55983">
        <ele>645.408</ele>
        <time>2020-08-18T11:08:34Z</time>
      </trkpt>
      <trkpt lat="45.15371" lon="3.5598">
        <ele>645.493</ele>
        <time>2020-08-18T11:08:37Z</time>
      </trkpt>
      <trkpt lat="45.15369" lon="3.55977">
        <ele>644.698</ele>
        <time>2020-08-18T11:08:41Z</time>
      </trkpt>
      <trkpt lat="45.15369" lon="3.55977">
        <ele>644.413</ele>
        <time>2020-08-18T11:08:42Z</time>
      </trkpt>
      <trkpt lat="45.15369" lon="3.55977">
        <ele>644.152</ele>
        <time>2020-08-18T11:08:44Z</time>
      </trkpt>
      <trkpt lat="45.15369" lon="3.55978">
        <ele>643.915</ele>
        <time>2020-08-18T11:08:45Z</time>
      </trkpt>
      <trkpt lat="45.15369" lon="3.55979">
        <ele>643.556</ele>
        <time>2020-08-18T11:08:46Z</time>
      </trkpt>
      <trkpt lat="45.15371" lon="3.55983">
        <ele>644.006</ele>
        <time>2020-08-18T11:08:51Z</time>
      </trkpt>
      <trkpt lat="45.15371" lon="3.55983">
        <ele>644.006</ele>
        <time>2020-08-18T11:08:51Z</time>
      </trkpt>
      <trkpt lat="45.15371" lon="3.55983">
        <ele>644.008</ele>
        <time>2020-08-18T11:08:52Z</time>
      </trkpt>
      <trkpt lat="45.15371" lon="3.55983">
        <ele>644.162</ele>
        <time>2020-08-18T11:08:57Z</time>
      </trkpt>
      <trkpt lat="45.15371" lon="3.55982">
        <ele>644.587</ele>
        <time>2020-08-18T11:08:58Z</time>
      </trkpt>
      <trkpt lat="45.15371" lon="3.55982">
        <ele>644.689</ele>
        <time>2020-08-18T11:08:59Z</time>
      </trkpt>
      <trkpt lat="45.15371" lon="3.55982">
        <ele>644.744</ele>
        <time>2020-08-18T11:09:26Z</time>
      </trkpt>
      <trkpt lat="45.15371" lon="3.55983">
        <ele>644.666</ele>
        <time>2020-08-18T11:09:27Z</time>
      </trkpt>
      <trkpt lat="45.15371" lon="3.55983">
        <ele>644.273</ele>
        <time>2020-08-18T11:09:28Z</time>
      </trkpt>
      <trkpt lat="45.15371" lon="3.55984">
        <ele>644.261</ele>
        <time>2020-08-18T11:09:29Z</time>
      </trkpt>
      <trkpt lat="45.1537" lon="3.55985">
        <ele>644.255</ele>
        <time>2020-08-18T11:09:32Z</time>
      </trkpt>
      <trkpt lat="45.1537" lon="3.55985">
        <ele>644.733</ele>
        <time>2020-08-18T11:09:33Z</time>
      </trkpt>
      <trkpt lat="45.1537" lon="3.55985">
        <ele>644.839</ele>
        <time>2020-08-18T11:09:35Z</time>
      </trkpt>
      <trkpt lat="45.15369" lon="3.55985">
        <ele>644.788</ele>
        <time>2020-08-18T11:09:36Z</time>
      </trkpt>
      <trkpt lat="45.15369" lon="3.55985">
        <ele>644.983</ele>
        <time>2020-08-18T11:09:37Z</time>
      </trkpt>
      <trkpt lat="45.15369" lon="3.55985">
        <ele>644.999</ele>
        <time>2020-08-18T11:09:50Z</time>
      </trkpt>
      <trkpt lat="45.1537" lon="3.55985">
        <ele>644.985</ele>
        <time>2020-08-18T11:09:51Z</time>
      </trkpt>
      <trkpt lat="45.1537" lon="3.55984">
        <ele>644.406</ele>
        <time>2020-08-18T11:09:54Z</time>
      </trkpt>
      <trkpt lat="45.1537" lon="3.55984">
        <ele>644.489</ele>
        <time>2020-08-18T11:09:56Z</time>
      </trkpt>
      <trkpt lat="45.15369" lon="3.55982">
        <ele>644.35</ele>
        <time>2020-08-18T11:09:57Z</time>
      </trkpt>
      <trkpt lat="45.15369" lon="3.55982">
        <ele>644.517</ele>
        <time>2020-08-18T11:09:58Z</time>
      </trkpt>
      <trkpt lat="45.15369" lon="3.55982">
        <ele>644.318</ele>
        <time>2020-08-18T11:10:05Z</time>
      </trkpt>
      <trkpt lat="45.15369" lon="3.55982">
        <ele>643.715</ele>
        <time>2020-08-18T11:10:06Z</time>
      </trkpt>
      <trkpt lat="45.15369" lon="3.55982">
        <ele>643.98</ele>
        <time>2020-08-18T11:10:07Z</time>
      </trkpt>
      <trkpt lat="45.15369" lon="3.55982">
        <ele>643.967</ele>
        <time>2020-08-18T11:10:08Z</time>
      </trkpt>
      <trkpt lat="45.15369" lon="3.55982">
        <ele>643.555</ele>
        <time>2020-08-18T11:10:39Z</time>
      </trkpt>
      <trkpt lat="45.15369" lon="3.55982">
        <ele>643.124</ele>
        <time>2020-08-18T11:10:40Z</time>
      </trkpt>
      <trkpt lat="45.15369" lon="3.55982">
        <ele>643.124</ele>
        <time>2020-08-18T11:10:40Z</time>
      </trkpt>
      <trkpt lat="45.15369" lon="3.55982">
        <ele>643.017</ele>
        <time>2020-08-18T11:10:41Z</time>
      </trkpt>
      <trkpt lat="45.15369" lon="3.55982">
        <ele>643.219</ele>
        <time>2020-08-18T11:10:43Z</time>
      </trkpt>
      <trkpt lat="45.1537" lon="3.5598">
        <ele>643.364</ele>
        <time>2020-08-18T11:10:44Z</time>
      </trkpt>
      <trkpt lat="45.1537" lon="3.55978">
        <ele>643.027</ele>
        <time>2020-08-18T11:10:45Z</time>
      </trkpt>
      <trkpt lat="45.15374" lon="3.55966">
        <ele>643.129</ele>
        <time>2020-08-18T11:10:56Z</time>
      </trkpt>
      <trkpt lat="45.15374" lon="3.55966">
        <ele>643.071</ele>
        <time>2020-08-18T11:10:57Z</time>
      </trkpt>
      <trkpt lat="45.15374" lon="3.55966">
        <ele>642.781</ele>
        <time>2020-08-18T11:11:00Z</time>
      </trkpt>
      <trkpt lat="45.15374" lon="3.55965">
        <ele>642.665</ele>
        <time>2020-08-18T11:11:01Z</time>
      </trkpt>
      <trkpt lat="45.15374" lon="3.55965">
        <ele>642.798</ele>
        <time>2020-08-18T11:11:02Z</time>
      </trkpt>
      <trkpt lat="45.15374" lon="3.55965">
        <ele>642.143</ele>
        <time>2020-08-18T11:11:56Z</time>
      </trkpt>
      <trkpt lat="45.15374" lon="3.55965">
        <ele>641.981</ele>
        <time>2020-08-18T11:11:57Z</time>
      </trkpt>
      <trkpt lat="45.15374" lon="3.55967">
        <ele>642.209</ele>
        <time>2020-08-18T11:11:59Z</time>
      </trkpt>
      <trkpt lat="45.15371" lon="3.55973">
        <ele>643.004</ele>
        <time>2020-08-18T11:12:06Z</time>
      </trkpt>
      <trkpt lat="45.15371" lon="3.55974">
        <ele>643.882</ele>
        <time>2020-08-18T11:12:07Z</time>
      </trkpt>
      <trkpt lat="45.15371" lon="3.55975">
        <ele>643.933</ele>
        <time>2020-08-18T11:12:08Z</time>
      </trkpt>
      <trkpt lat="45.15371" lon="3.55975">
        <ele>644.034</ele>
        <time>2020-08-18T11:12:09Z</time>
      </trkpt>
      <trkpt lat="45.15371" lon="3.55977">
        <ele>644.349</ele>
        <time>2020-08-18T11:12:11Z</time>
      </trkpt>
      <trkpt lat="45.15371" lon="3.5598">
        <ele>645.295</ele>
        <time>2020-08-18T11:12:15Z</time>
      </trkpt>
      <trkpt lat="45.15371" lon="3.5598">
        <ele>645.371</ele>
        <time>2020-08-18T11:12:28Z</time>
      </trkpt>
      <trkpt lat="45.15372" lon="3.5598">
        <ele>645.365</ele>
        <time>2020-08-18T11:12:29Z</time>
      </trkpt>
      <trkpt lat="45.15373" lon="3.55981">
        <ele>645.377</ele>
        <time>2020-08-18T11:12:31Z</time>
      </trkpt>
      <trkpt lat="45.15373" lon="3.55981">
        <ele>645.377</ele>
        <time>2020-08-18T11:12:31Z</time>
      </trkpt>
      <trkpt lat="45.15372" lon="3.55981">
        <ele>645.131</ele>
        <time>2020-08-18T11:12:32Z</time>
      </trkpt>
      <trkpt lat="45.15372" lon="3.55981">
        <ele>645.131</ele>
        <time>2020-08-18T11:12:32Z</time>
      </trkpt>
      <trkpt lat="45.15372" lon="3.55981">
        <ele>645.078</ele>
        <time>2020-08-18T11:12:33Z</time>
      </trkpt>
      <trkpt lat="45.15372" lon="3.55981">
        <ele>645.744</ele>
        <time>2020-08-18T11:12:35Z</time>
      </trkpt>
      <trkpt lat="45.15372" lon="3.55983">
        <ele>645.541</ele>
        <time>2020-08-18T11:12:36Z</time>
      </trkpt>
      <trkpt lat="45.15371" lon="3.55986">
        <ele>645.354</ele>
        <time>2020-08-18T11:12:39Z</time>
      </trkpt>
      <trkpt lat="45.15371" lon="3.55986">
        <ele>645.226</ele>
        <time>2020-08-18T11:12:40Z</time>
      </trkpt>
      <trkpt lat="45.15371" lon="3.55986">
        <ele>645.226</ele>
        <time>2020-08-18T11:12:40Z</time>
      </trkpt>
      <trkpt lat="45.15371" lon="3.55986">
        <ele>645.522</ele>
        <time>2020-08-18T11:12:41Z</time>
      </trkpt>
      <trkpt lat="45.15371" lon="3.55986">
        <ele>645.561</ele>
        <time>2020-08-18T11:12:42Z</time>
      </trkpt>
      <trkpt lat="45.15371" lon="3.55986">
        <ele>645.633</ele>
        <time>2020-08-18T11:13:08Z</time>
      </trkpt>
      <trkpt lat="45.15371" lon="3.55984">
        <ele>645.795</ele>
        <time>2020-08-18T11:13:09Z</time>
      </trkpt>
      <trkpt lat="45.15371" lon="3.55983">
        <ele>644.806</ele>
        <time>2020-08-18T11:13:11Z</time>
      </trkpt>
      <trkpt lat="45.15371" lon="3.55983">
        <ele>644.806</ele>
        <time>2020-08-18T11:13:11Z</time>
      </trkpt>
      <trkpt lat="45.15371" lon="3.55984">
        <ele>645.283</ele>
        <time>2020-08-18T11:13:12Z</time>
      </trkpt>
      <trkpt lat="45.15371" lon="3.55984">
        <ele>644.886</ele>
        <time>2020-08-18T11:13:15Z</time>
      </trkpt>
      <trkpt lat="45.15371" lon="3.55984">
        <ele>644.476</ele>
        <time>2020-08-18T11:13:17Z</time>
      </trkpt>
      <trkpt lat="45.15371" lon="3.55985">
        <ele>644.555</ele>
        <time>2020-08-18T11:13:19Z</time>
      </trkpt>
      <trkpt lat="45.1537" lon="3.55985">
        <ele>644.838</ele>
        <time>2020-08-18T11:13:20Z</time>
      </trkpt>
      <trkpt lat="45.1537" lon="3.55985">
        <ele>644.837</ele>
        <time>2020-08-18T11:13:21Z</time>
      </trkpt>
      <trkpt lat="45.1537" lon="3.55985">
        <ele>643.926</ele>
        <time>2020-08-18T11:13:46Z</time>
      </trkpt>
      <trkpt lat="45.1537" lon="3.55985">
        <ele>644.315</ele>
        <time>2020-08-18T11:13:47Z</time>
      </trkpt>
      <trkpt lat="45.15371" lon="3.55985">
        <ele>644.208</ele>
        <time>2020-08-18T11:13:48Z</time>
      </trkpt>
      <trkpt lat="45.15371" lon="3.55985">
        <ele>644.825</ele>
        <time>2020-08-18T11:13:50Z</time>
      </trkpt>
      <trkpt lat="45.15371" lon="3.55985">
        <ele>644.825</ele>
        <time>2020-08-18T11:13:50Z</time>
      </trkpt>
      <trkpt lat="45.15371" lon="3.55986">
        <ele>644.28</ele>
        <time>2020-08-18T11:13:51Z</time>
      </trkpt>
      <trkpt lat="45.1537" lon="3.55987">
        <ele>645.33</ele>
        <time>2020-08-18T11:13:54Z</time>
      </trkpt>
      <trkpt lat="45.1537" lon="3.55987">
        <ele>645.33</ele>
        <time>2020-08-18T11:13:54Z</time>
      </trkpt>
      <trkpt lat="45.15369" lon="3.55988">
        <ele>645.164</ele>
        <time>2020-08-18T11:13:55Z</time>
      </trkpt>
      <trkpt lat="45.15369" lon="3.55988">
        <ele>645.271</ele>
        <time>2020-08-18T11:13:56Z</time>
      </trkpt>
      <trkpt lat="45.1537" lon="3.5599">
        <ele>644.53</ele>
        <time>2020-08-18T11:14:00Z</time>
      </trkpt>
      <trkpt lat="45.1537" lon="3.5599">
        <ele>644.53</ele>
        <time>2020-08-18T11:14:00Z</time>
      </trkpt>
      <trkpt lat="45.1537" lon="3.55991">
        <ele>644.691</ele>
        <time>2020-08-18T11:14:01Z</time>
      </trkpt>
      <trkpt lat="45.15371" lon="3.55995">
        <ele>644.588</ele>
        <time>2020-08-18T11:14:05Z</time>
      </trkpt>
      <trkpt lat="45.15377" lon="3.5601">
        <ele>646.143</ele>
        <time>2020-08-18T11:14:17Z</time>
      </trkpt>
      <trkpt lat="45.15386" lon="3.56027">
        <ele>644.121</ele>
        <time>2020-08-18T11:14:35Z</time>
      </trkpt>
      <trkpt lat="45.1539" lon="3.56035">
        <ele>642.042</ele>
        <time>2020-08-18T11:14:45Z</time>
      </trkpt>
      <trkpt lat="45.15392" lon="3.56039">
        <ele>642.309</ele>
        <time>2020-08-18T11:14:51Z</time>
      </trkpt>
      <trkpt lat="45.15392" lon="3.56039">
        <ele>642.309</ele>
        <time>2020-08-18T11:14:51Z</time>
      </trkpt>
      <trkpt lat="45.15392" lon="3.56039">
        <ele>642.216</ele>
        <time>2020-08-18T11:14:52Z</time>
      </trkpt>
      <trkpt lat="45.15392" lon="3.56039">
        <ele>642.192</ele>
        <time>2020-08-18T11:14:55Z</time>
      </trkpt>
      <trkpt lat="45.15392" lon="3.56038">
        <ele>642.479</ele>
        <time>2020-08-18T11:14:56Z</time>
      </trkpt>
      <trkpt lat="45.15392" lon="3.56038">
        <ele>642.479</ele>
        <time>2020-08-18T11:14:56Z</time>
      </trkpt>
      <trkpt lat="45.15392" lon="3.56038">
        <ele>642.608</ele>
        <time>2020-08-18T11:14:57Z</time>
      </trkpt>
      <trkpt lat="45.15392" lon="3.56038">
        <ele>642.624</ele>
        <time>2020-08-18T11:14:59Z</time>
      </trkpt>
      <trkpt lat="45.15391" lon="3.56039">
        <ele>642.806</ele>
        <time>2020-08-18T11:15:00Z</time>
      </trkpt>
      <trkpt lat="45.15391" lon="3.56039">
        <ele>643.108</ele>
        <time>2020-08-18T11:15:02Z</time>
      </trkpt>
      <trkpt lat="45.15391" lon="3.5604">
        <ele>643.478</ele>
        <time>2020-08-18T11:15:03Z</time>
      </trkpt>
      <trkpt lat="45.15392" lon="3.56043">
        <ele>642.914</ele>
        <time>2020-08-18T11:15:06Z</time>
      </trkpt>
      <trkpt lat="45.15393" lon="3.56046">
        <ele>643.509</ele>
        <time>2020-08-18T11:15:09Z</time>
      </trkpt>
      <trkpt lat="45.15393" lon="3.56047">
        <ele>642.976</ele>
        <time>2020-08-18T11:15:11Z</time>
      </trkpt>
      <trkpt lat="45.15399" lon="3.56063">
        <ele>643.672</ele>
        <time>2020-08-18T11:15:29Z</time>
      </trkpt>
      <trkpt lat="45.15399" lon="3.56063">
        <ele>643.672</ele>
        <time>2020-08-18T11:15:29Z</time>
      </trkpt>
      <trkpt lat="45.15399" lon="3.56064">
        <ele>643.317</ele>
        <time>2020-08-18T11:15:30Z</time>
      </trkpt>
      <trkpt lat="45.15419" lon="3.56125">
        <ele>645.347</ele>
        <time>2020-08-18T11:16:20Z</time>
      </trkpt>
      <trkpt lat="45.1542" lon="3.56136">
        <ele>646.16</ele>
        <time>2020-08-18T11:16:28Z</time>
      </trkpt>
      <trkpt lat="45.15421" lon="3.56138">
        <ele>646.113</ele>
        <time>2020-08-18T11:16:30Z</time>
      </trkpt>
      <trkpt lat="45.15423" lon="3.56146">
        <ele>645.981</ele>
        <time>2020-08-18T11:16:36Z</time>
      </trkpt>
      <trkpt lat="45.15425" lon="3.56151">
        <ele>646.809</ele>
        <time>2020-08-18T11:16:40Z</time>
      </trkpt>
      <trkpt lat="45.15427" lon="3.56155">
        <ele>646.804</ele>
        <time>2020-08-18T11:16:43Z</time>
      </trkpt>
      <trkpt lat="45.15429" lon="3.56158">
        <ele>647.114</ele>
        <time>2020-08-18T11:16:47Z</time>
      </trkpt>
      <trkpt lat="45.15431" lon="3.56161">
        <ele>647.465</ele>
        <time>2020-08-18T11:16:49Z</time>
      </trkpt>
      <trkpt lat="45.15439" lon="3.56171">
        <ele>646.84</ele>
        <time>2020-08-18T11:17:00Z</time>
      </trkpt>
      <trkpt lat="45.15444" lon="3.5618">
        <ele>647.239</ele>
        <time>2020-08-18T11:17:09Z</time>
      </trkpt>
      <trkpt lat="45.15445" lon="3.5618">
        <ele>646.845</ele>
        <time>2020-08-18T11:17:10Z</time>
      </trkpt>
      <trkpt lat="45.15447" lon="3.56183">
        <ele>646.844</ele>
        <time>2020-08-18T11:17:12Z</time>
      </trkpt>
      <trkpt lat="45.15451" lon="3.56187">
        <ele>646.613</ele>
        <time>2020-08-18T11:17:15Z</time>
      </trkpt>
      <trkpt lat="45.15462" lon="3.56199">
        <ele>646.498</ele>
        <time>2020-08-18T11:17:26Z</time>
      </trkpt>
      <trkpt lat="45.15473" lon="3.56208">
        <ele>647.428</ele>
        <time>2020-08-18T11:17:40Z</time>
      </trkpt>
      <trkpt lat="45.1548" lon="3.56211">
        <ele>647.522</ele>
        <time>2020-08-18T11:17:48Z</time>
      </trkpt>
      <trkpt lat="45.15485" lon="3.56212">
        <ele>646.585</ele>
        <time>2020-08-18T11:17:53Z</time>
      </trkpt>
      <trkpt lat="45.1549" lon="3.56212">
        <ele>646.712</ele>
        <time>2020-08-18T11:17:57Z</time>
      </trkpt>
      <trkpt lat="45.15509" lon="3.56218">
        <ele>646.306</ele>
        <time>2020-08-18T11:18:16Z</time>
      </trkpt>
      <trkpt lat="45.15511" lon="3.56218">
        <ele>646.567</ele>
        <time>2020-08-18T11:18:19Z</time>
      </trkpt>
      <trkpt lat="45.15512" lon="3.56219">
        <ele>647.244</ele>
        <time>2020-08-18T11:18:22Z</time>
      </trkpt>
      <trkpt lat="45.15512" lon="3.56219">
        <ele>647.244</ele>
        <time>2020-08-18T11:18:22Z</time>
      </trkpt>
      <trkpt lat="45.15513" lon="3.5622">
        <ele>647.431</ele>
        <time>2020-08-18T11:18:23Z</time>
      </trkpt>
      <trkpt lat="45.15513" lon="3.5622">
        <ele>647.338</ele>
        <time>2020-08-18T11:18:24Z</time>
      </trkpt>
      <trkpt lat="45.15513" lon="3.5622">
        <ele>647.338</ele>
        <time>2020-08-18T11:18:24Z</time>
      </trkpt>
      <trkpt lat="45.15512" lon="3.56221">
        <ele>647.041</ele>
        <time>2020-08-18T11:18:25Z</time>
      </trkpt>
      <trkpt lat="45.15513" lon="3.56221">
        <ele>647.243</ele>
        <time>2020-08-18T11:18:27Z</time>
      </trkpt>
      <trkpt lat="45.15515" lon="3.56221">
        <ele>647.062</ele>
        <time>2020-08-18T11:18:29Z</time>
      </trkpt>
      <trkpt lat="45.15516" lon="3.56222">
        <ele>647.277</ele>
        <time>2020-08-18T11:18:30Z</time>
      </trkpt>
      <trkpt lat="45.15518" lon="3.56222">
        <ele>647.16</ele>
        <time>2020-08-18T11:18:31Z</time>
      </trkpt>
      <trkpt lat="45.15546" lon="3.56216">
        <ele>648.444</ele>
        <time>2020-08-18T11:18:54Z</time>
      </trkpt>
      <trkpt lat="45.15573" lon="3.56208">
        <ele>650.461</ele>
        <time>2020-08-18T11:19:19Z</time>
      </trkpt>
      <trkpt lat="45.15595" lon="3.56216">
        <ele>651.112</ele>
        <time>2020-08-18T11:19:42Z</time>
      </trkpt>
      <trkpt lat="45.15596" lon="3.56218">
        <ele>650.785</ele>
        <time>2020-08-18T11:19:44Z</time>
      </trkpt>
      <trkpt lat="45.15597" lon="3.56218">
        <ele>650.527</ele>
        <time>2020-08-18T11:19:45Z</time>
      </trkpt>
      <trkpt lat="45.15605" lon="3.56223">
        <ele>650.536</ele>
        <time>2020-08-18T11:19:54Z</time>
      </trkpt>
      <trkpt lat="45.15605" lon="3.56224">
        <ele>650.528</ele>
        <time>2020-08-18T11:19:55Z</time>
      </trkpt>
      <trkpt lat="45.15605" lon="3.56225">
        <ele>650.325</ele>
        <time>2020-08-18T11:19:56Z</time>
      </trkpt>
      <trkpt lat="45.15605" lon="3.56226">
        <ele>650.574</ele>
        <time>2020-08-18T11:19:57Z</time>
      </trkpt>
      <trkpt lat="45.15605" lon="3.56231">
        <ele>650.553</ele>
        <time>2020-08-18T11:20:00Z</time>
      </trkpt>
      <trkpt lat="45.15604" lon="3.56235">
        <ele>651.081</ele>
        <time>2020-08-18T11:20:02Z</time>
      </trkpt>
      <trkpt lat="45.15596" lon="3.56263">
        <ele>651.947</ele>
        <time>2020-08-18T11:20:22Z</time>
      </trkpt>
      <trkpt lat="45.15597" lon="3.56282">
        <ele>652.766</ele>
        <time>2020-08-18T11:20:35Z</time>
      </trkpt>
      <trkpt lat="45.15608" lon="3.5632">
        <ele>653.824</ele>
        <time>2020-08-18T11:21:01Z</time>
      </trkpt>
      <trkpt lat="45.1561" lon="3.56323">
        <ele>652.877</ele>
        <time>2020-08-18T11:21:05Z</time>
      </trkpt>
      <trkpt lat="45.15616" lon="3.56327">
        <ele>652.49</ele>
        <time>2020-08-18T11:21:12Z</time>
      </trkpt>
      <trkpt lat="45.15619" lon="3.56329">
        <ele>652.148</ele>
        <time>2020-08-18T11:21:16Z</time>
      </trkpt>
      <trkpt lat="45.1562" lon="3.56332">
        <ele>651.66</ele>
        <time>2020-08-18T11:21:19Z</time>
      </trkpt>
      <trkpt lat="45.15621" lon="3.56332">
        <ele>651.483</ele>
        <time>2020-08-18T11:21:20Z</time>
      </trkpt>
      <trkpt lat="45.15623" lon="3.56335">
        <ele>651.333</ele>
        <time>2020-08-18T11:21:24Z</time>
      </trkpt>
      <trkpt lat="45.15623" lon="3.56336">
        <ele>651.337</ele>
        <time>2020-08-18T11:21:25Z</time>
      </trkpt>
      <trkpt lat="45.15625" lon="3.5634">
        <ele>650.807</ele>
        <time>2020-08-18T11:21:29Z</time>
      </trkpt>
      <trkpt lat="45.15628" lon="3.56344">
        <ele>650.808</ele>
        <time>2020-08-18T11:21:34Z</time>
      </trkpt>
      <trkpt lat="45.15628" lon="3.56345">
        <ele>650.643</ele>
        <time>2020-08-18T11:21:35Z</time>
      </trkpt>
      <trkpt lat="45.1563" lon="3.56348">
        <ele>650.378</ele>
        <time>2020-08-18T11:21:38Z</time>
      </trkpt>
      <trkpt lat="45.1563" lon="3.56349">
        <ele>650.381</ele>
        <time>2020-08-18T11:21:39Z</time>
      </trkpt>
      <trkpt lat="45.15634" lon="3.56356">
        <ele>649.635</ele>
        <time>2020-08-18T11:21:46Z</time>
      </trkpt>
      <trkpt lat="45.15634" lon="3.56357">
        <ele>649.867</ele>
        <time>2020-08-18T11:21:47Z</time>
      </trkpt>
      <trkpt lat="45.15635" lon="3.56359">
        <ele>649.755</ele>
        <time>2020-08-18T11:21:49Z</time>
      </trkpt>
      <trkpt lat="45.15636" lon="3.56364">
        <ele>649.906</ele>
        <time>2020-08-18T11:21:54Z</time>
      </trkpt>
      <trkpt lat="45.15638" lon="3.56367">
        <ele>649.821</ele>
        <time>2020-08-18T11:21:57Z</time>
      </trkpt>
      <trkpt lat="45.15639" lon="3.56371">
        <ele>649.771</ele>
        <time>2020-08-18T11:22:00Z</time>
      </trkpt>
      <trkpt lat="45.15641" lon="3.56374">
        <ele>649.815</ele>
        <time>2020-08-18T11:22:03Z</time>
      </trkpt>
      <trkpt lat="45.15643" lon="3.5638">
        <ele>649.927</ele>
        <time>2020-08-18T11:22:07Z</time>
      </trkpt>
      <trkpt lat="45.15645" lon="3.56384">
        <ele>649.576</ele>
        <time>2020-08-18T11:22:10Z</time>
      </trkpt>
      <trkpt lat="45.15647" lon="3.56389">
        <ele>649.425</ele>
        <time>2020-08-18T11:22:13Z</time>
      </trkpt>
      <trkpt lat="45.15647" lon="3.5639">
        <ele>649.562</ele>
        <time>2020-08-18T11:22:14Z</time>
      </trkpt>
      <trkpt lat="45.15649" lon="3.56394">
        <ele>649.201</ele>
        <time>2020-08-18T11:22:18Z</time>
      </trkpt>
      <trkpt lat="45.1565" lon="3.56396">
        <ele>649.099</ele>
        <time>2020-08-18T11:22:19Z</time>
      </trkpt>
      <trkpt lat="45.15651" lon="3.56397">
        <ele>649.282</ele>
        <time>2020-08-18T11:22:20Z</time>
      </trkpt>
      <trkpt lat="45.15653" lon="3.56401">
        <ele>649.044</ele>
        <time>2020-08-18T11:22:23Z</time>
      </trkpt>
      <trkpt lat="45.15654" lon="3.56402">
        <ele>649.028</ele>
        <time>2020-08-18T11:22:24Z</time>
      </trkpt>
      <trkpt lat="45.15655" lon="3.56406">
        <ele>648.802</ele>
        <time>2020-08-18T11:22:27Z</time>
      </trkpt>
      <trkpt lat="45.15655" lon="3.56408">
        <ele>648.851</ele>
        <time>2020-08-18T11:22:28Z</time>
      </trkpt>
      <trkpt lat="45.15655" lon="3.5641">
        <ele>648.525</ele>
        <time>2020-08-18T11:22:29Z</time>
      </trkpt>
      <trkpt lat="45.15655" lon="3.5641">
        <ele>648.32</ele>
        <time>2020-08-18T11:22:31Z</time>
      </trkpt>
      <trkpt lat="45.15655" lon="3.5641">
        <ele>648.32</ele>
        <time>2020-08-18T11:22:31Z</time>
      </trkpt>
      <trkpt lat="45.15656" lon="3.56411">
        <ele>648.162</ele>
        <time>2020-08-18T11:22:32Z</time>
      </trkpt>
      <trkpt lat="45.15657" lon="3.56412">
        <ele>648.056</ele>
        <time>2020-08-18T11:22:33Z</time>
      </trkpt>
      <trkpt lat="45.15658" lon="3.56413">
        <ele>647.926</ele>
        <time>2020-08-18T11:22:34Z</time>
      </trkpt>
      <trkpt lat="45.1566" lon="3.56414">
        <ele>647.233</ele>
        <time>2020-08-18T11:22:36Z</time>
      </trkpt>
      <trkpt lat="45.15662" lon="3.56415">
        <ele>646.734</ele>
        <time>2020-08-18T11:22:38Z</time>
      </trkpt>
      <trkpt lat="45.15663" lon="3.56414">
        <ele>647.166</ele>
        <time>2020-08-18T11:22:40Z</time>
      </trkpt>
      <trkpt lat="45.15669" lon="3.56411">
        <ele>647.406</ele>
        <time>2020-08-18T11:22:46Z</time>
      </trkpt>
      <trkpt lat="45.15672" lon="3.56409">
        <ele>647.608</ele>
        <time>2020-08-18T11:22:49Z</time>
      </trkpt>
      <trkpt lat="45.15674" lon="3.56406">
        <ele>647.478</ele>
        <time>2020-08-18T11:22:52Z</time>
      </trkpt>
      <trkpt lat="45.15677" lon="3.56403">
        <ele>647.645</ele>
        <time>2020-08-18T11:22:56Z</time>
      </trkpt>
      <trkpt lat="45.1568" lon="3.56403">
        <ele>647.357</ele>
        <time>2020-08-18T11:23:00Z</time>
      </trkpt>
      <trkpt lat="45.15685" lon="3.56405">
        <ele>647.158</ele>
        <time>2020-08-18T11:23:07Z</time>
      </trkpt>
      <trkpt lat="45.1569" lon="3.56409">
        <ele>646.912</ele>
        <time>2020-08-18T11:23:14Z</time>
      </trkpt>
      <trkpt lat="45.15693" lon="3.5641">
        <ele>647.281</ele>
        <time>2020-08-18T11:23:17Z</time>
      </trkpt>
      <trkpt lat="45.15717" lon="3.56424">
        <ele>648.904</ele>
        <time>2020-08-18T11:23:45Z</time>
      </trkpt>
      <trkpt lat="45.15719" lon="3.56426">
        <ele>649.192</ele>
        <time>2020-08-18T11:23:48Z</time>
      </trkpt>
      <trkpt lat="45.15722" lon="3.56427">
        <ele>649.399</ele>
        <time>2020-08-18T11:23:51Z</time>
      </trkpt>
      <trkpt lat="45.15727" lon="3.56427">
        <ele>649.87</ele>
        <time>2020-08-18T11:23:55Z</time>
      </trkpt>
      <trkpt lat="45.15743" lon="3.56431">
        <ele>650.768</ele>
        <time>2020-08-18T11:24:10Z</time>
      </trkpt>
      <trkpt lat="45.15744" lon="3.56432">
        <ele>650.684</ele>
        <time>2020-08-18T11:24:12Z</time>
      </trkpt>
      <trkpt lat="45.15746" lon="3.56435">
        <ele>650.495</ele>
        <time>2020-08-18T11:24:17Z</time>
      </trkpt>
      <trkpt lat="45.15745" lon="3.5644">
        <ele>650.604</ele>
        <time>2020-08-18T11:24:21Z</time>
      </trkpt>
      <trkpt lat="45.15743" lon="3.56443">
        <ele>650.838</ele>
        <time>2020-08-18T11:24:24Z</time>
      </trkpt>
      <trkpt lat="45.1574" lon="3.56453">
        <ele>651.292</ele>
        <time>2020-08-18T11:24:32Z</time>
      </trkpt>
      <trkpt lat="45.1574" lon="3.56454">
        <ele>651.497</ele>
        <time>2020-08-18T11:24:33Z</time>
      </trkpt>
      <trkpt lat="45.15734" lon="3.56465">
        <ele>651.51</ele>
        <time>2020-08-18T11:24:42Z</time>
      </trkpt>
      <trkpt lat="45.15722" lon="3.56487">
        <ele>650.651</ele>
        <time>2020-08-18T11:24:59Z</time>
      </trkpt>
      <trkpt lat="45.15718" lon="3.56498">
        <ele>651.503</ele>
        <time>2020-08-18T11:25:06Z</time>
      </trkpt>
      <trkpt lat="45.15717" lon="3.56505">
        <ele>651.687</ele>
        <time>2020-08-18T11:25:10Z</time>
      </trkpt>
      <trkpt lat="45.15713" lon="3.56518">
        <ele>652.491</ele>
        <time>2020-08-18T11:25:19Z</time>
      </trkpt>
      <trkpt lat="45.1571" lon="3.56532">
        <ele>652.838</ele>
        <time>2020-08-18T11:25:28Z</time>
      </trkpt>
      <trkpt lat="45.15698" lon="3.56569">
        <ele>654.124</ele>
        <time>2020-08-18T11:25:57Z</time>
      </trkpt>
      <trkpt lat="45.15684" lon="3.56621">
        <ele>655.559</ele>
        <time>2020-08-18T11:26:33Z</time>
      </trkpt>
      <trkpt lat="45.15676" lon="3.56638">
        <ele>655.91</ele>
        <time>2020-08-18T11:26:48Z</time>
      </trkpt>
      <trkpt lat="45.15654" lon="3.5667">
        <ele>657.138</ele>
        <time>2020-08-18T11:27:20Z</time>
      </trkpt>
      <trkpt lat="45.15653" lon="3.56671">
        <ele>657.14</ele>
        <time>2020-08-18T11:27:21Z</time>
      </trkpt>
      <trkpt lat="45.15646" lon="3.56676">
        <ele>656.412</ele>
        <time>2020-08-18T11:27:29Z</time>
      </trkpt>
      <trkpt lat="45.15632" lon="3.56689">
        <ele>657.813</ele>
        <time>2020-08-18T11:27:46Z</time>
      </trkpt>
      <trkpt lat="45.1562" lon="3.56706">
        <ele>659.896</ele>
        <time>2020-08-18T11:28:01Z</time>
      </trkpt>
      <trkpt lat="45.15608" lon="3.56727">
        <ele>661.996</ele>
        <time>2020-08-18T11:28:19Z</time>
      </trkpt>
      <trkpt lat="45.15596" lon="3.56754">
        <ele>663.664</ele>
        <time>2020-08-18T11:28:41Z</time>
      </trkpt>
      <trkpt lat="45.15595" lon="3.5677">
        <ele>663.993</ele>
        <time>2020-08-18T11:28:53Z</time>
      </trkpt>
      <trkpt lat="45.15594" lon="3.56805">
        <ele>665.998</ele>
        <time>2020-08-18T11:29:18Z</time>
      </trkpt>
      <trkpt lat="45.15593" lon="3.56848">
        <ele>668.018</ele>
        <time>2020-08-18T11:29:48Z</time>
      </trkpt>
      <trkpt lat="45.15582" lon="3.5689">
        <ele>670.155</ele>
        <time>2020-08-18T11:30:18Z</time>
      </trkpt>
      <trkpt lat="45.15581" lon="3.56902">
        <ele>671.95</ele>
        <time>2020-08-18T11:30:28Z</time>
      </trkpt>
      <trkpt lat="45.15581" lon="3.56902">
        <ele>671.95</ele>
        <time>2020-08-18T11:30:28Z</time>
      </trkpt>
      <trkpt lat="45.15581" lon="3.56903">
        <ele>671.95</ele>
        <time>2020-08-18T11:30:29Z</time>
      </trkpt>
      <trkpt lat="45.15581" lon="3.56903">
        <ele>671.899</ele>
        <time>2020-08-18T11:30:30Z</time>
      </trkpt>
      <trkpt lat="45.15581" lon="3.56903">
        <ele>672.03</ele>
        <time>2020-08-18T11:32:35Z</time>
      </trkpt>
      <trkpt lat="45.15581" lon="3.56905">
        <ele>671.89</ele>
        <time>2020-08-18T11:32:36Z</time>
      </trkpt>
      <trkpt lat="45.15581" lon="3.56905">
        <ele>672.096</ele>
        <time>2020-08-18T11:32:38Z</time>
      </trkpt>
      <trkpt lat="45.15582" lon="3.56906">
        <ele>671.413</ele>
        <time>2020-08-18T11:33:22Z</time>
      </trkpt>
      <trkpt lat="45.15582" lon="3.56907">
        <ele>671.432</ele>
        <time>2020-08-18T11:33:23Z</time>
      </trkpt>
      <trkpt lat="45.15582" lon="3.56908">
        <ele>671.726</ele>
        <time>2020-08-18T11:33:24Z</time>
      </trkpt>
      <trkpt lat="45.15582" lon="3.56909">
        <ele>671.981</ele>
        <time>2020-08-18T11:33:25Z</time>
      </trkpt>
      <trkpt lat="45.15582" lon="3.56912">
        <ele>671.51</ele>
        <time>2020-08-18T11:33:30Z</time>
      </trkpt>
      <trkpt lat="45.15582" lon="3.56912">
        <ele>671.51</ele>
        <time>2020-08-18T11:33:30Z</time>
      </trkpt>
      <trkpt lat="45.15583" lon="3.56912">
        <ele>671.305</ele>
        <time>2020-08-18T11:33:31Z</time>
      </trkpt>
      <trkpt lat="45.15583" lon="3.56913">
        <ele>671.719</ele>
        <time>2020-08-18T11:33:32Z</time>
      </trkpt>
      <trkpt lat="45.15581" lon="3.5703">
        <ele>673.748</ele>
        <time>2020-08-18T11:34:43Z</time>
      </trkpt>
      <trkpt lat="45.15581" lon="3.57057">
        <ele>673.448</ele>
        <time>2020-08-18T11:34:58Z</time>
      </trkpt>
      <trkpt lat="45.15578" lon="3.57085">
        <ele>674.105</ele>
        <time>2020-08-18T11:35:13Z</time>
      </trkpt>
      <trkpt lat="45.15579" lon="3.57099">
        <ele>674.329</ele>
        <time>2020-08-18T11:35:22Z</time>
      </trkpt>
      <trkpt lat="45.15586" lon="3.57106">
        <ele>674.78</ele>
        <time>2020-08-18T11:35:30Z</time>
      </trkpt>
      <trkpt lat="45.15589" lon="3.5711">
        <ele>675.106</ele>
        <time>2020-08-18T11:35:34Z</time>
      </trkpt>
      <trkpt lat="45.15593" lon="3.57111">
        <ele>674.433</ele>
        <time>2020-08-18T11:35:37Z</time>
      </trkpt>
      <trkpt lat="45.15612" lon="3.57116">
        <ele>674.412</ele>
        <time>2020-08-18T11:35:55Z</time>
      </trkpt>
      <trkpt lat="45.15684" lon="3.57123">
        <ele>676.011</ele>
        <time>2020-08-18T11:37:00Z</time>
      </trkpt>
      <trkpt lat="45.15696" lon="3.57132">
        <ele>677.217</ele>
        <time>2020-08-18T11:37:13Z</time>
      </trkpt>
      <trkpt lat="45.15699" lon="3.57137">
        <ele>677.929</ele>
        <time>2020-08-18T11:37:18Z</time>
      </trkpt>
      <trkpt lat="45.15701" lon="3.5714">
        <ele>677.861</ele>
        <time>2020-08-18T11:37:21Z</time>
      </trkpt>
      <trkpt lat="45.15703" lon="3.57144">
        <ele>677.93</ele>
        <time>2020-08-18T11:37:25Z</time>
      </trkpt>
      <trkpt lat="45.15704" lon="3.57149">
        <ele>678.152</ele>
        <time>2020-08-18T11:37:28Z</time>
      </trkpt>
      <trkpt lat="45.15704" lon="3.57164">
        <ele>677.988</ele>
        <time>2020-08-18T11:37:37Z</time>
      </trkpt>
      <trkpt lat="45.15702" lon="3.57208">
        <ele>680.056</ele>
        <time>2020-08-18T11:38:02Z</time>
      </trkpt>
      <trkpt lat="45.15707" lon="3.57279">
        <ele>681.233</ele>
        <time>2020-08-18T11:38:46Z</time>
      </trkpt>
      <trkpt lat="45.15723" lon="3.57333">
        <ele>682.811</ele>
        <time>2020-08-18T11:39:26Z</time>
      </trkpt>
      <trkpt lat="45.15738" lon="3.57365">
        <ele>684.2</ele>
        <time>2020-08-18T11:39:49Z</time>
      </trkpt>
      <trkpt lat="45.15744" lon="3.57376">
        <ele>684.494</ele>
        <time>2020-08-18T11:39:58Z</time>
      </trkpt>
      <trkpt lat="45.15748" lon="3.5739">
        <ele>685.219</ele>
        <time>2020-08-18T11:40:05Z</time>
      </trkpt>
      <trkpt lat="45.15751" lon="3.57405">
        <ele>685.283</ele>
        <time>2020-08-18T11:40:13Z</time>
      </trkpt>
      <trkpt lat="45.15753" lon="3.57419">
        <ele>684.725</ele>
        <time>2020-08-18T11:40:23Z</time>
      </trkpt>
      <trkpt lat="45.15755" lon="3.57429">
        <ele>684.953</ele>
        <time>2020-08-18T11:40:28Z</time>
      </trkpt>
      <trkpt lat="45.15756" lon="3.57444">
        <ele>685.302</ele>
        <time>2020-08-18T11:40:38Z</time>
      </trkpt>
      <trkpt lat="45.15758" lon="3.5746">
        <ele>686.061</ele>
        <time>2020-08-18T11:40:46Z</time>
      </trkpt>
      <trkpt lat="45.15763" lon="3.57516">
        <ele>686.355</ele>
        <time>2020-08-18T11:41:20Z</time>
      </trkpt>
      <trkpt lat="45.15771" lon="3.57545">
        <ele>686.045</ele>
        <time>2020-08-18T11:41:36Z</time>
      </trkpt>
      <trkpt lat="45.15775" lon="3.57563">
        <ele>686.222</ele>
        <time>2020-08-18T11:41:47Z</time>
      </trkpt>
      <trkpt lat="45.15775" lon="3.57564">
        <ele>686.157</ele>
        <time>2020-08-18T11:41:48Z</time>
      </trkpt>
      <trkpt lat="45.15775" lon="3.57569">
        <ele>686.668</ele>
        <time>2020-08-18T11:41:52Z</time>
      </trkpt>
      <trkpt lat="45.15774" lon="3.57576">
        <ele>686.276</ele>
        <time>2020-08-18T11:41:57Z</time>
      </trkpt>
      <trkpt lat="45.15774" lon="3.57577">
        <ele>686.03</ele>
        <time>2020-08-18T11:41:58Z</time>
      </trkpt>
      <trkpt lat="45.15774" lon="3.57579">
        <ele>685.776</ele>
        <time>2020-08-18T11:41:59Z</time>
      </trkpt>
      <trkpt lat="45.15776" lon="3.5759">
        <ele>684.807</ele>
        <time>2020-08-18T11:42:05Z</time>
      </trkpt>
      <trkpt lat="45.15777" lon="3.57594">
        <ele>684.591</ele>
        <time>2020-08-18T11:42:08Z</time>
      </trkpt>
      <trkpt lat="45.15778" lon="3.57595">
        <ele>684.571</ele>
        <time>2020-08-18T11:42:09Z</time>
      </trkpt>
      <trkpt lat="45.15778" lon="3.57603">
        <ele>683.364</ele>
        <time>2020-08-18T11:42:16Z</time>
      </trkpt>
      <trkpt lat="45.15779" lon="3.57604">
        <ele>683.175</ele>
        <time>2020-08-18T11:42:17Z</time>
      </trkpt>
      <trkpt lat="45.15779" lon="3.57605">
        <ele>683.288</ele>
        <time>2020-08-18T11:42:18Z</time>
      </trkpt>
      <trkpt lat="45.1578" lon="3.57612">
        <ele>683.144</ele>
        <time>2020-08-18T11:42:22Z</time>
      </trkpt>
      <trkpt lat="45.15787" lon="3.57641">
        <ele>682.532</ele>
        <time>2020-08-18T11:42:37Z</time>
      </trkpt>
      <trkpt lat="45.15791" lon="3.5765">
        <ele>682.912</ele>
        <time>2020-08-18T11:42:41Z</time>
      </trkpt>
      <trkpt lat="45.15793" lon="3.57654">
        <ele>683.244</ele>
        <time>2020-08-18T11:42:44Z</time>
      </trkpt>
      <trkpt lat="45.15795" lon="3.57657">
        <ele>683.026</ele>
        <time>2020-08-18T11:42:47Z</time>
      </trkpt>
      <trkpt lat="45.15796" lon="3.57658">
        <ele>683.58</ele>
        <time>2020-08-18T11:42:48Z</time>
      </trkpt>
      <trkpt lat="45.15798" lon="3.57661">
        <ele>683.199</ele>
        <time>2020-08-18T11:42:51Z</time>
      </trkpt>
      <trkpt lat="45.15802" lon="3.57667">
        <ele>683.603</ele>
        <time>2020-08-18T11:42:59Z</time>
      </trkpt>
      <trkpt lat="45.15807" lon="3.57673">
        <ele>683.323</ele>
        <time>2020-08-18T11:43:05Z</time>
      </trkpt>
      <trkpt lat="45.15818" lon="3.57692">
        <ele>683.249</ele>
        <time>2020-08-18T11:43:20Z</time>
      </trkpt>
      <trkpt lat="45.15821" lon="3.57696">
        <ele>683.426</ele>
        <time>2020-08-18T11:43:24Z</time>
      </trkpt>
      <trkpt lat="45.15835" lon="3.57713">
        <ele>684.743</ele>
        <time>2020-08-18T11:43:45Z</time>
      </trkpt>
      <trkpt lat="45.15838" lon="3.57715">
        <ele>684.631</ele>
        <time>2020-08-18T11:43:49Z</time>
      </trkpt>
      <trkpt lat="45.1584" lon="3.57719">
        <ele>684.805</ele>
        <time>2020-08-18T11:43:54Z</time>
      </trkpt>
      <trkpt lat="45.15839" lon="3.57724">
        <ele>685.228</ele>
        <time>2020-08-18T11:43:57Z</time>
      </trkpt>
      <trkpt lat="45.15839" lon="3.57748">
        <ele>685.77</ele>
        <time>2020-08-18T11:44:09Z</time>
      </trkpt>
      <trkpt lat="45.1584" lon="3.57762">
        <ele>686.098</ele>
        <time>2020-08-18T11:44:17Z</time>
      </trkpt>
      <trkpt lat="45.1584" lon="3.57769">
        <ele>686.234</ele>
        <time>2020-08-18T11:44:24Z</time>
      </trkpt>
      <trkpt lat="45.15841" lon="3.57773">
        <ele>686.351</ele>
        <time>2020-08-18T11:44:27Z</time>
      </trkpt>
      <trkpt lat="45.15845" lon="3.57808">
        <ele>688.747</ele>
        <time>2020-08-18T11:44:50Z</time>
      </trkpt>
      <trkpt lat="45.15846" lon="3.57815">
        <ele>689.337</ele>
        <time>2020-08-18T11:44:58Z</time>
      </trkpt>
      <trkpt lat="45.15845" lon="3.57816">
        <ele>689.896</ele>
        <time>2020-08-18T11:45:00Z</time>
      </trkpt>
      <trkpt lat="45.15845" lon="3.57816">
        <ele>690.199</ele>
        <time>2020-08-18T11:45:01Z</time>
      </trkpt>
      <trkpt lat="45.15845" lon="3.57816">
        <ele>690.746</ele>
        <time>2020-08-18T11:45:07Z</time>
      </trkpt>
      <trkpt lat="45.15844" lon="3.57816">
        <ele>690.865</ele>
        <time>2020-08-18T11:45:08Z</time>
      </trkpt>
      <trkpt lat="45.15844" lon="3.57816">
        <ele>690.585</ele>
        <time>2020-08-18T11:45:09Z</time>
      </trkpt>
      <trkpt lat="45.15844" lon="3.57816">
        <ele>690.546</ele>
        <time>2020-08-18T11:45:10Z</time>
      </trkpt>
      <trkpt lat="45.15844" lon="3.57816">
        <ele>690.546</ele>
        <time>2020-08-18T11:45:22Z</time>
      </trkpt>
    </trkseg>
  </trk>
</gpx>